Time,TemperatureF,DewpointF,PressureIn,WindDirection,WindDirectionDegrees,WindSpeedMPH,WindSpeedGustMPH,Humidity,HourlyPrecipIn,Conditions,Clouds,dailyrainin,SoftwareType,DateUTC
2013-02-14 00:00:00,32.8,32.0,29.41,West,274,3.0,8.0,97,0.02,,,0.33,VWS V14.01,2013-02-14 06:00:00,
2013-02-14 00:01:00,32.8,32.0,29.41,West,274,2.0,6.0,97,0.01,,,0.00,VWS V14.01,2013-02-14 06:01:00,
2013-02-14 00:02:00,32.8,32.0,29.41,West,274,2.0,6.0,97,0.01,,,0.00,VWS V14.01,2013-02-14 06:02:00,
2013-02-14 00:03:00,32.8,32.0,29.41,West,276,6.0,6.0,97,0.01,,,0.00,VWS V14.01,2013-02-14 06:03:00,
2013-02-14 00:04:00,32.7,31.9,29.41,WNW,293,7.0,10.0,97,0.01,,,0.00,VWS V14.01,2013-02-14 06:04:00,
2013-02-14 00:05:00,32.8,32.0,29.41,WNW,293,2.0,10.0,97,0.01,,,0.00,VWS V14.01,2013-02-14 06:05:00,
2013-02-14 00:06:00,32.8,32.0,29.41,WNW,291,2.0,10.0,97,0.01,,,0.00,VWS V14.01,2013-02-14 06:06:00,
2013-02-14 00:07:00,32.7,31.9,29.41,WNW,293,3.0,10.0,97,0.01,,,0.00,VWS V14.01,2013-02-14 06:07:00,
2013-02-14 00:08:00,32.7,31.9,29.41,WNW,293,2.0,10.0,97,0.01,,,0.00,VWS V14.01,2013-02-14 06:08:00,
2013-02-14 00:09:00,32.8,32.0,29.41,WNW,293,6.0,10.0,97,0.01,,,0.00,VWS V14.01,2013-02-14 06:09:00,
2013-02-14 00:10:00,32.7,31.9,29.41,WNW,293,3.0,10.0,97,0.01,,,0.00,VWS V14.01,2013-02-14 06:10:00,
2013-02-14 00:11:00,32.7,31.9,29.41,WNW,293,5.0,10.0,97,0.01,,,0.00,VWS V14.01,2013-02-14 06:11:00,
2013-02-14 00:12:00,32.7,31.9,29.41,WNW,293,5.0,10.0,97,0.01,,,0.00,VWS V14.01,2013-02-14 06:12:00,
2013-02-14 00:13:00,32.7,31.9,29.41,WNW,293,1.0,10.0,97,0.01,,,0.00,VWS V14.01,2013-02-14 06:13:00,
2013-02-14 00:14:00,32.7,31.9,29.41,WNW,294,8.0,10.0,97,0.01,,,0.00,VWS V14.01,2013-02-14 06:14:00,
2013-02-14 00:15:00,32.7,31.9,29.41,WNW,294,2.0,10.0,97,0.01,,,0.00,VWS V14.01,2013-02-14 06:15:00,
2013-02-14 00:16:00,32.7,31.9,29.41,WNW,294,7.0,10.0,97,0.01,,,0.00,VWS V14.01,2013-02-14 06:16:00,
2013-02-14 00:17:00,32.5,31.7,29.41,WNW,294,7.0,10.0,97,0.01,,,0.00,VWS V14.01,2013-02-14 06:17:00,
2013-02-14 00:18:00,32.5,31.7,29.41,NW,307,0.0,11.0,97,0.01,,,0.00,VWS V14.01,2013-02-14 06:18:00,
2013-02-14 00:19:00,32.5,31.7,29.41,NW,308,7.0,11.0,97,0.01,,,0.00,VWS V14.01,2013-02-14 06:19:00,
2013-02-14 00:20:00,32.5,31.7,29.41,NW,307,3.0,11.0,97,0.01,,,0.00,VWS V14.01,2013-02-14 06:20:00,
2013-02-14 00:21:00,32.5,31.7,29.41,NW,307,0.0,11.0,97,0.01,,,0.00,VWS V14.01,2013-02-14 06:21:00,
2013-02-14 00:22:00,32.7,31.9,29.41,NW,308,7.0,11.0,97,0.01,,,0.00,VWS V14.01,2013-02-14 06:22:00,
2013-02-14 00:23:00,32.7,31.9,29.41,NW,308,6.0,11.0,97,0.01,,,0.00,VWS V14.01,2013-02-14 06:23:00,
2013-02-14 00:24:00,32.5,31.7,29.41,NW,321,6.0,12.0,97,0.01,,,0.00,VWS V14.01,2013-02-14 06:24:00,
2013-02-14 00:25:00,32.5,31.7,29.41,NW,321,1.0,12.0,97,0.01,,,0.00,VWS V14.01,2013-02-14 06:25:00,
2013-02-14 00:26:00,32.5,31.7,29.41,NW,321,1.0,12.0,97,0.01,,,0.00,VWS V14.01,2013-02-14 06:26:00,
2013-02-14 00:27:00,32.7,31.9,29.41,NW,322,1.0,12.0,97,0.01,,,0.00,VWS V14.01,2013-02-14 06:27:00,
2013-02-14 00:28:00,32.5,31.7,29.41,NNW,336,8.0,13.0,97,0.01,,,0.00,VWS V14.01,2013-02-14 06:28:00,
2013-02-14 00:29:00,32.7,31.9,29.41,North,349,11.0,13.0,97,0.01,,,0.00,VWS V14.01,2013-02-14 06:29:00,
2013-02-14 00:30:00,32.5,31.7,29.42,North,356,7.0,13.0,97,0.01,,,0.00,VWS V14.01,2013-02-14 06:30:00,
2013-02-14 00:31:00,32.5,31.7,29.42,North,355,6.0,11.0,97,0.00,,,0.00,VWS V14.01,2013-02-14 06:31:00,
2013-02-14 00:32:00,32.5,31.7,29.42,North,355,1.0,11.0,97,0.00,,,0.00,VWS V14.01,2013-02-14 06:32:00,
2013-02-14 00:33:00,32.5,31.7,29.42,North,355,3.0,11.0,97,0.00,,,0.00,VWS V14.01,2013-02-14 06:33:00,
2013-02-14 00:34:00,32.5,31.7,29.42,North,2,8.0,12.0,97,0.00,,,0.00,VWS V14.01,2013-02-14 06:34:00,
2013-02-14 00:35:00,32.5,31.7,29.42,North,2,0.0,12.0,97,0.00,,,0.00,VWS V14.01,2013-02-14 06:35:00,
2013-02-14 00:36:00,32.5,31.7,29.42,North,359,10.0,12.0,97,0.01,,,0.01,VWS V14.01,2013-02-14 06:36:00,
2013-02-14 00:37:00,32.5,31.7,29.42,NNE,30,8.0,15.0,97,0.01,,,0.01,VWS V14.01,2013-02-14 06:37:00,
2013-02-14 00:38:00,32.5,31.7,29.42,NNE,22,3.0,15.0,97,0.01,,,0.01,VWS V14.01,2013-02-14 06:38:00,
2013-02-14 00:39:00,32.5,31.7,29.42,NNE,20,7.0,15.0,97,0.01,,,0.01,VWS V14.01,2013-02-14 06:39:00,
2013-02-14 00:40:00,32.4,31.6,29.42,NNE,20,3.0,15.0,97,0.01,,,0.01,VWS V14.01,2013-02-14 06:40:00,
2013-02-14 00:41:00,32.4,31.6,29.42,NNE,22,11.0,15.0,97,0.01,,,0.01,VWS V14.01,2013-02-14 06:41:00,
2013-02-14 00:42:00,32.4,31.6,29.42,NNE,20,1.0,15.0,97,0.01,,,0.01,VWS V14.01,2013-02-14 06:42:00,
2013-02-14 00:43:00,32.5,31.7,29.42,NNE,22,5.0,15.0,97,0.01,,,0.01,VWS V14.01,2013-02-14 06:43:00,
2013-02-14 00:44:00,32.4,31.6,29.42,NNE,29,6.0,15.0,97,0.01,,,0.01,VWS V14.01,2013-02-14 06:44:00,
2013-02-14 00:45:00,32.4,31.6,29.43,NNE,17,7.0,15.0,97,0.01,,,0.01,VWS V14.01,2013-02-14 06:45:00,
2013-02-14 00:46:00,32.5,31.7,29.43,NNE,14,0.0,15.0,97,0.01,,,0.01,VWS V14.01,2013-02-14 06:46:00,
2013-02-14 00:47:00,32.4,31.6,29.43,North,6,4.0,15.0,97,0.01,,,0.01,VWS V14.01,2013-02-14 06:47:00,
2013-02-14 00:48:00,32.4,31.6,29.43,North,353,6.0,15.0,97,0.01,,,0.01,VWS V14.01,2013-02-14 06:48:00,
2013-02-14 00:49:00,32.4,31.6,29.43,North,355,1.0,15.0,97,0.01,,,0.01,VWS V14.01,2013-02-14 06:49:00,
2013-02-14 00:50:00,32.4,31.6,29.43,NNE,13,7.0,15.0,97,0.01,,,0.01,VWS V14.01,2013-02-14 06:50:00,
2013-02-14 00:51:00,32.4,31.6,29.43,NNE,27,9.0,15.0,97,0.01,,,0.01,VWS V14.01,2013-02-14 06:51:00,
2013-02-14 00:52:00,32.2,31.5,29.43,NNE,29,2.0,15.0,97,0.01,,,0.01,VWS V14.01,2013-02-14 06:52:00,
2013-02-14 00:53:00,32.2,31.5,29.43,NNW,345,8.0,15.0,97,0.01,,,0.01,VWS V14.01,2013-02-14 06:53:00,
2013-02-14 00:54:00,32.2,31.5,29.43,North,359,6.0,15.0,97,0.01,,,0.01,VWS V14.01,2013-02-14 06:54:00,
2013-02-14 00:55:00,32.2,31.5,29.43,NNE,20,10.0,15.0,97,0.01,,,0.01,VWS V14.01,2013-02-14 06:55:00,
2013-02-14 00:56:00,32.2,31.5,29.43,NNW,342,7.0,15.0,97,0.01,,,0.01,VWS V14.01,2013-02-14 06:56:00,
2013-02-14 00:57:00,32.2,31.5,29.43,NNW,338,5.0,15.0,97,0.01,,,0.01,VWS V14.01,2013-02-14 06:57:00,
2013-02-14 00:58:00,32.2,31.5,29.43,NE,54,12.0,15.0,97,0.01,,,0.01,VWS V14.01,2013-02-14 06:58:00,
2013-02-14 00:59:00,32.2,31.5,29.43,NNE,12,9.0,15.0,97,0.01,,,0.01,VWS V14.01,2013-02-14 06:59:00,
2013-02-14 01:00:00,32.2,31.5,29.43,North,358,3.0,15.0,97,0.01,,,0.01,VWS V14.01,2013-02-14 07:00:00,
2013-02-14 01:01:00,32.2,31.5,29.43,NNE,20,7.0,10.0,97,0.01,,,0.01,VWS V14.01,2013-02-14 07:01:00,
2013-02-14 01:02:00,32.1,31.4,29.43,North,5,7.0,10.0,97,0.01,,,0.01,VWS V14.01,2013-02-14 07:02:00,
2013-02-14 01:03:00,32.1,31.4,29.43,North,2,3.0,10.0,97,0.01,,,0.01,VWS V14.01,2013-02-14 07:03:00,
2013-02-14 01:04:00,32.1,31.4,29.43,NNE,12,11.0,13.0,97,0.01,,,0.01,VWS V14.01,2013-02-14 07:04:00,
2013-02-14 01:05:00,32.2,31.5,29.43,North,355,6.0,13.0,97,0.01,,,0.01,VWS V14.01,2013-02-14 07:05:00,
2013-02-14 01:06:00,32.1,31.4,29.43,NNW,343,10.0,13.0,97,0.01,,,0.01,VWS V14.01,2013-02-14 07:06:00,
2013-02-14 01:07:00,32.1,31.4,29.43,North,352,10.0,13.0,97,0.01,,,0.01,VWS V14.01,2013-02-14 07:07:00,
2013-02-14 01:08:00,32.2,31.5,29.43,NNW,342,2.0,13.0,97,0.01,,,0.01,VWS V14.01,2013-02-14 07:08:00,
2013-02-14 01:09:00,32.1,31.4,29.43,NNW,336,1.0,13.0,97,0.01,,,0.01,VWS V14.01,2013-02-14 07:09:00,
2013-02-14 01:10:00,32.1,31.4,29.43,North,360,11.0,13.0,97,0.01,,,0.01,VWS V14.01,2013-02-14 07:10:00,
2013-02-14 01:11:00,32.1,31.4,29.43,North,356,8.0,13.0,97,0.01,,,0.01,VWS V14.01,2013-02-14 07:11:00,
2013-02-14 01:12:00,32.1,31.4,29.43,NNW,345,4.0,13.0,97,0.01,,,0.01,VWS V14.01,2013-02-14 07:12:00,
2013-02-14 01:13:00,32.1,31.4,29.43,NNE,16,6.0,13.0,97,0.01,,,0.01,VWS V14.01,2013-02-14 07:13:00,
2013-02-14 01:14:00,32.1,31.4,29.43,NNE,14,6.0,13.0,97,0.01,,,0.01,VWS V14.01,2013-02-14 07:14:00,
2013-02-14 01:15:00,32.1,31.4,29.45,North,2,5.0,13.0,97,0.01,,,0.01,VWS V14.01,2013-02-14 07:15:00,
2013-02-14 01:16:00,32.1,31.4,29.45,NW,315,5.0,13.0,97,0.01,,,0.01,VWS V14.01,2013-02-14 07:16:00,
2013-02-14 01:17:00,32.1,31.4,29.45,NNE,14,8.0,13.0,97,0.01,,,0.01,VWS V14.01,2013-02-14 07:17:00,
2013-02-14 01:18:00,32.1,31.6,29.45,NNE,12,6.0,13.0,98,0.01,,,0.01,VWS V14.01,2013-02-14 07:18:00,
2013-02-14 01:19:00,32.1,31.6,29.45,North,6,8.0,13.0,98,0.01,,,0.01,VWS V14.01,2013-02-14 07:19:00,
2013-02-14 01:20:00,32.1,31.6,29.45,North,353,11.0,16.0,98,0.01,,,0.01,VWS V14.01,2013-02-14 07:20:00,
2013-02-14 01:21:00,32.1,31.6,29.45,North,3,3.0,16.0,98,0.01,,,0.01,VWS V14.01,2013-02-14 07:21:00,
2013-02-14 01:22:00,32.1,31.4,29.45,North,360,4.0,16.0,97,0.01,,,0.01,VWS V14.01,2013-02-14 07:22:00,
2013-02-14 01:23:00,32.1,31.6,29.45,North,3,7.0,16.0,98,0.01,,,0.01,VWS V14.01,2013-02-14 07:23:00,
2013-02-14 01:24:00,32.1,31.6,29.45,North,5,8.0,16.0,98,0.01,,,0.01,VWS V14.01,2013-02-14 07:24:00,
2013-02-14 01:25:00,32.1,31.6,29.45,NNW,345,1.0,16.0,98,0.01,,,0.01,VWS V14.01,2013-02-14 07:25:00,
2013-02-14 01:26:00,32.1,31.6,29.45,NNE,26,13.0,16.0,98,0.01,,,0.01,VWS V14.01,2013-02-14 07:26:00,
2013-02-14 01:27:00,32.1,31.6,29.45,North,358,5.0,16.0,98,0.01,,,0.01,VWS V14.01,2013-02-14 07:27:00,
2013-02-14 01:28:00,32.1,31.6,29.45,NNW,341,6.0,16.0,98,0.01,,,0.01,VWS V14.01,2013-02-14 07:28:00,
2013-02-14 01:29:00,31.9,31.4,29.45,NNE,12,11.0,16.0,98,0.01,,,0.01,VWS V14.01,2013-02-14 07:29:00,
2013-02-14 01:30:00,31.9,31.4,29.46,NNE,23,8.0,16.0,98,0.01,,,0.01,VWS V14.01,2013-02-14 07:30:00,
2013-02-14 01:31:00,32.1,31.6,29.46,North,349,5.0,8.0,98,0.01,,,0.01,VWS V14.01,2013-02-14 07:31:00,
2013-02-14 01:32:00,31.9,31.4,29.46,North,3,7.0,8.0,98,0.01,,,0.01,VWS V14.01,2013-02-14 07:32:00,
2013-02-14 01:33:00,32.1,31.6,29.46,North,355,1.0,8.0,98,0.01,,,0.01,VWS V14.01,2013-02-14 07:33:00,
2013-02-14 01:34:00,31.9,31.4,29.46,North,356,6.0,8.0,98,0.01,,,0.01,VWS V14.01,2013-02-14 07:34:00,
2013-02-14 01:35:00,31.9,31.4,29.46,NNE,29,11.0,14.0,98,0.01,,,0.01,VWS V14.01,2013-02-14 07:35:00,
2013-02-14 01:36:00,31.9,31.4,29.46,North,358,10.0,14.0,98,0.01,,,0.01,VWS V14.01,2013-02-14 07:36:00,
2013-02-14 01:37:00,31.9,31.4,29.46,NNE,22,1.0,14.0,98,0.01,,,0.01,VWS V14.01,2013-02-14 07:37:00,
2013-02-14 01:38:00,31.9,31.4,29.46,NNW,345,3.0,14.0,98,0.01,,,0.01,VWS V14.01,2013-02-14 07:38:00,
2013-02-14 01:39:00,31.9,31.4,29.46,NNE,19,13.0,14.0,98,0.01,,,0.01,VWS V14.01,2013-02-14 07:39:00,
2013-02-14 01:40:00,31.9,31.4,29.46,NNW,339,2.0,16.0,98,0.01,,,0.01,VWS V14.01,2013-02-14 07:40:00,
2013-02-14 01:41:00,31.9,31.4,29.46,NNW,342,9.0,16.0,98,0.01,,,0.01,VWS V14.01,2013-02-14 07:41:00,
2013-02-14 01:42:00,31.9,31.4,29.46,NNW,348,5.0,16.0,98,0.01,,,0.01,VWS V14.01,2013-02-14 07:42:00,
2013-02-14 01:43:00,31.9,31.4,29.46,North,360,7.0,16.0,98,0.01,,,0.01,VWS V14.01,2013-02-14 07:43:00,
2013-02-14 01:44:00,31.9,31.4,29.46,North,2,6.0,16.0,98,0.01,,,0.01,VWS V14.01,2013-02-14 07:44:00,
2013-02-14 01:45:00,31.9,31.4,29.47,NNW,343,6.0,16.0,98,0.01,,,0.01,VWS V14.01,2013-02-14 07:45:00,
2013-02-14 01:46:00,31.9,31.4,29.47,NNE,17,7.0,16.0,98,0.01,,,0.01,VWS V14.01,2013-02-14 07:46:00,
2013-02-14 01:47:00,31.8,31.3,29.47,North,6,5.0,16.0,98,0.01,,,0.01,VWS V14.01,2013-02-14 07:47:00,
2013-02-14 01:48:00,31.8,31.3,29.47,NNW,346,4.0,16.0,98,0.01,,,0.01,VWS V14.01,2013-02-14 07:48:00,
2013-02-14 01:49:00,31.8,31.3,29.47,NNW,341,6.0,16.0,98,0.01,,,0.01,VWS V14.01,2013-02-14 07:49:00,
2013-02-14 01:50:00,31.8,31.3,29.47,North,5,11.0,16.0,98,0.01,,,0.01,VWS V14.01,2013-02-14 07:50:00,
2013-02-14 01:51:00,31.8,31.3,29.47,NNW,348,1.0,18.0,98,0.01,,,0.01,VWS V14.01,2013-02-14 07:51:00,
2013-02-14 01:52:00,31.8,31.3,29.47,NNW,343,13.0,18.0,98,0.01,,,0.01,VWS V14.01,2013-02-14 07:52:00,
2013-02-14 01:53:00,31.8,31.3,29.47,NNW,339,5.0,18.0,98,0.01,,,0.01,VWS V14.01,2013-02-14 07:53:00,
2013-02-14 01:54:00,31.8,31.3,29.47,NNE,23,6.0,18.0,98,0.01,,,0.01,VWS V14.01,2013-02-14 07:54:00,
2013-02-14 01:55:00,31.8,31.3,29.47,North,360,6.0,18.0,98,0.01,,,0.01,VWS V14.01,2013-02-14 07:55:00,
2013-02-14 01:56:00,31.8,31.3,29.47,NNE,20,10.0,18.0,98,0.01,,,0.01,VWS V14.01,2013-02-14 07:56:00,
2013-02-14 01:57:00,31.8,31.3,29.47,North,352,10.0,18.0,98,0.01,,,0.01,VWS V14.01,2013-02-14 07:57:00,
2013-02-14 01:58:00,31.8,31.3,29.47,North,352,8.0,18.0,98,0.01,,,0.01,VWS V14.01,2013-02-14 07:58:00,
2013-02-14 01:59:00,31.8,31.3,29.47,North,355,6.0,18.0,98,0.01,,,0.01,VWS V14.01,2013-02-14 07:59:00,
2013-02-14 02:00:00,31.6,31.1,29.48,North,355,3.0,18.0,98,0.01,,,0.01,VWS V14.01,2013-02-14 08:00:00,
2013-02-14 02:01:00,31.6,31.1,29.48,North,3,6.0,10.0,98,0.00,,,0.01,VWS V14.01,2013-02-14 08:01:00,
2013-02-14 02:02:00,31.6,31.1,29.48,North,10,4.0,11.0,98,0.00,,,0.01,VWS V14.01,2013-02-14 08:02:00,
2013-02-14 02:03:00,31.6,31.1,29.48,North,360,6.0,11.0,98,0.00,,,0.01,VWS V14.01,2013-02-14 08:03:00,
2013-02-14 02:04:00,31.6,31.1,29.48,NNE,12,2.0,11.0,98,0.00,,,0.01,VWS V14.01,2013-02-14 08:04:00,
2013-02-14 02:05:00,31.6,31.1,29.48,NNE,14,2.0,11.0,98,0.00,,,0.01,VWS V14.01,2013-02-14 08:05:00,
2013-02-14 02:06:00,31.6,31.1,29.48,NW,326,7.0,11.0,98,0.00,,,0.01,VWS V14.01,2013-02-14 08:06:00,
2013-02-14 02:07:00,31.6,31.1,29.48,North,5,10.0,11.0,98,0.00,,,0.01,VWS V14.01,2013-02-14 08:07:00,
2013-02-14 02:08:00,31.6,31.1,29.48,North,6,8.0,11.0,98,0.00,,,0.01,VWS V14.01,2013-02-14 08:08:00,
2013-02-14 02:09:00,31.6,31.1,29.48,North,2,8.0,11.0,98,0.00,,,0.01,VWS V14.01,2013-02-14 08:09:00,
2013-02-14 02:10:00,31.6,31.1,29.48,NNW,335,7.0,12.0,98,0.00,,,0.01,VWS V14.01,2013-02-14 08:10:00,
2013-02-14 02:11:00,31.5,31.0,29.48,NE,50,10.0,12.0,98,0.00,,,0.01,VWS V14.01,2013-02-14 08:11:00,
2013-02-14 02:12:00,31.5,31.0,29.48,North,359,7.0,13.0,98,0.00,,,0.01,VWS V14.01,2013-02-14 08:12:00,
2013-02-14 02:13:00,31.5,31.0,29.48,North,6,6.0,13.0,98,0.00,,,0.01,VWS V14.01,2013-02-14 08:13:00,
2013-02-14 02:14:00,31.5,31.0,29.48,North,3,9.0,13.0,98,0.00,,,0.01,VWS V14.01,2013-02-14 08:14:00,
2013-02-14 02:15:00,31.5,31.0,29.49,NNE,14,6.0,13.0,98,0.00,,,0.01,VWS V14.01,2013-02-14 08:15:00,
2013-02-14 02:16:00,31.5,31.0,29.49,North,3,10.0,13.0,98,0.00,,,0.01,VWS V14.01,2013-02-14 08:16:00,
2013-02-14 02:17:00,31.5,31.0,29.49,North,356,1.0,13.0,98,0.00,,,0.01,VWS V14.01,2013-02-14 08:17:00,
2013-02-14 02:18:00,31.3,30.8,29.49,NNE,19,10.0,14.0,98,0.00,,,0.01,VWS V14.01,2013-02-14 08:18:00,
2013-02-14 02:19:00,31.3,30.8,29.49,NNE,16,5.0,14.0,98,0.00,,,0.01,VWS V14.01,2013-02-14 08:19:00,
2013-02-14 02:20:00,31.5,31.0,29.49,North,355,8.0,14.0,98,0.00,,,0.01,VWS V14.01,2013-02-14 08:20:00,
2013-02-14 02:21:00,31.3,30.8,29.49,North,350,3.0,14.0,98,0.00,,,0.01,VWS V14.01,2013-02-14 08:21:00,
2013-02-14 02:22:00,31.3,30.8,29.49,North,360,5.0,14.0,98,0.00,,,0.01,VWS V14.01,2013-02-14 08:22:00,
2013-02-14 02:23:00,31.3,30.8,29.49,North,359,6.0,14.0,98,0.00,,,0.01,VWS V14.01,2013-02-14 08:23:00,
2013-02-14 02:24:00,31.3,30.8,29.49,North,10,7.0,14.0,98,0.00,,,0.01,VWS V14.01,2013-02-14 08:24:00,
2013-02-14 02:25:00,31.3,30.8,29.49,North,360,10.0,14.0,98,0.00,,,0.01,VWS V14.01,2013-02-14 08:25:00,
2013-02-14 02:26:00,31.3,30.8,29.49,NNE,31,15.0,16.0,98,0.00,,,0.01,VWS V14.01,2013-02-14 08:26:00,
2013-02-14 02:27:00,31.3,30.8,29.49,NNW,343,5.0,16.0,98,0.00,,,0.01,VWS V14.01,2013-02-14 08:27:00,
2013-02-14 02:28:00,31.2,30.7,29.49,North,349,8.0,16.0,98,0.00,,,0.01,VWS V14.01,2013-02-14 08:28:00,
2013-02-14 02:29:00,31.2,30.7,29.49,NNW,345,3.0,16.0,98,0.00,,,0.01,VWS V14.01,2013-02-14 08:29:00,
2013-02-14 02:30:00,31.2,30.7,29.50,NNW,342,6.0,16.0,98,0.00,,,0.01,VWS V14.01,2013-02-14 08:30:00,
2013-02-14 02:31:00,31.2,30.7,29.50,North,355,8.0,10.0,98,0.00,,,0.01,VWS V14.01,2013-02-14 08:31:00,
2013-02-14 02:32:00,31.2,30.7,29.50,North,5,7.0,10.0,98,0.00,,,0.01,VWS V14.01,2013-02-14 08:32:00,
2013-02-14 02:33:00,31.2,30.7,29.50,NNE,20,6.0,12.0,98,0.00,,,0.01,VWS V14.01,2013-02-14 08:33:00,
2013-02-14 02:34:00,31.2,30.7,29.50,North,3,7.0,12.0,98,0.00,,,0.01,VWS V14.01,2013-02-14 08:34:00,
2013-02-14 02:35:00,31.0,30.5,29.50,NNW,332,6.0,12.0,98,0.00,,,0.01,VWS V14.01,2013-02-14 08:35:00,
2013-02-14 02:36:00,31.2,30.7,29.50,NNW,338,3.0,12.0,98,0.00,,,0.01,VWS V14.01,2013-02-14 08:36:00,
2013-02-14 02:37:00,31.2,30.7,29.50,NNE,31,10.0,12.0,98,0.00,,,0.01,VWS V14.01,2013-02-14 08:37:00,
2013-02-14 02:38:00,31.0,30.5,29.50,NW,325,7.0,12.0,98,0.00,,,0.01,VWS V14.01,2013-02-14 08:38:00,
2013-02-14 02:39:00,31.0,30.5,29.50,NW,324,2.0,12.0,98,0.00,,,0.01,VWS V14.01,2013-02-14 08:39:00,
2013-02-14 02:40:00,31.0,30.5,29.50,NNW,336,5.0,12.0,98,0.00,,,0.01,VWS V14.01,2013-02-14 08:40:00,
2013-02-14 02:41:00,31.0,30.5,29.50,NNW,331,9.0,12.0,98,0.00,,,0.01,VWS V14.01,2013-02-14 08:41:00,
2013-02-14 02:42:00,31.0,30.5,29.50,North,350,10.0,12.0,98,0.00,,,0.01,VWS V14.01,2013-02-14 08:42:00,
2013-02-14 02:43:00,31.0,30.5,29.50,NNW,343,7.0,12.0,98,0.00,,,0.01,VWS V14.01,2013-02-14 08:43:00,
2013-02-14 02:44:00,31.0,30.5,29.50,North,358,7.0,12.0,98,0.00,,,0.01,VWS V14.01,2013-02-14 08:44:00,
2013-02-14 02:45:00,31.0,30.5,29.51,North,359,8.0,12.0,98,0.00,,,0.01,VWS V14.01,2013-02-14 08:45:00,
2013-02-14 02:46:00,30.9,30.4,29.51,NNW,336,6.0,12.0,98,0.00,,,0.01,VWS V14.01,2013-02-14 08:46:00,
2013-02-14 02:47:00,30.9,30.4,29.51,NNE,19,8.0,12.0,98,0.00,,,0.01,VWS V14.01,2013-02-14 08:47:00,
2013-02-14 02:48:00,30.9,30.4,29.51,NNW,334,6.0,12.0,98,0.00,,,0.01,VWS V14.01,2013-02-14 08:48:00,
2013-02-14 02:49:00,30.9,30.4,29.51,NNE,17,11.0,12.0,98,0.00,,,0.01,VWS V14.01,2013-02-14 08:49:00,
2013-02-14 02:50:00,30.9,30.4,29.51,NNE,16,11.0,12.0,98,0.00,,,0.01,VWS V14.01,2013-02-14 08:50:00,
2013-02-14 02:51:00,30.9,30.4,29.51,NNE,22,6.0,12.0,98,0.00,,,0.01,VWS V14.01,2013-02-14 08:51:00,
2013-02-14 02:52:00,30.7,30.2,29.51,NW,315,3.0,12.0,98,0.00,,,0.01,VWS V14.01,2013-02-14 08:52:00,
2013-02-14 02:53:00,30.7,30.2,29.51,NW,318,3.0,12.0,98,0.00,,,0.01,VWS V14.01,2013-02-14 08:53:00,
2013-02-14 02:54:00,30.7,30.2,29.51,NNW,334,7.0,12.0,98,0.00,,,0.01,VWS V14.01,2013-02-14 08:54:00,
2013-02-14 02:55:00,30.7,30.2,29.51,NNW,339,6.0,12.0,98,0.00,,,0.01,VWS V14.01,2013-02-14 08:55:00,
2013-02-14 02:56:00,30.7,30.2,29.51,NNW,332,5.0,12.0,98,0.00,,,0.01,VWS V14.01,2013-02-14 08:56:00,
2013-02-14 02:57:00,30.7,30.2,29.51,NNW,335,7.0,12.0,98,0.00,,,0.01,VWS V14.01,2013-02-14 08:57:00,
2013-02-14 02:58:00,30.7,30.2,29.51,NNW,338,7.0,12.0,98,0.00,,,0.01,VWS V14.01,2013-02-14 08:58:00,
2013-02-14 02:59:00,30.7,30.2,29.51,NNW,338,1.0,12.0,98,0.00,,,0.01,VWS V14.01,2013-02-14 08:59:00,
2013-02-14 03:00:00,30.6,30.1,29.51,NW,324,3.0,14.0,98,0.00,,,0.01,VWS V14.01,2013-02-14 09:00:00,
2013-02-14 03:01:00,30.6,30.1,29.51,NNW,329,0.0,7.0,98,0.00,,,0.01,VWS V14.01,2013-02-14 09:01:00,
2013-02-14 03:02:00,30.6,30.1,29.51,NNE,33,5.0,7.0,98,0.00,,,0.01,VWS V14.01,2013-02-14 09:02:00,
2013-02-14 03:03:00,30.6,30.1,29.51,North,5,0.0,11.0,98,0.00,,,0.01,VWS V14.01,2013-02-14 09:03:00,
2013-02-14 03:04:00,30.6,30.1,29.51,NNW,336,4.0,11.0,98,0.00,,,0.01,VWS V14.01,2013-02-14 09:04:00,
2013-02-14 03:05:00,30.6,30.1,29.51,NNE,27,7.0,11.0,98,0.00,,,0.01,VWS V14.01,2013-02-14 09:05:00,
2013-02-14 03:06:00,30.4,29.9,29.51,NNE,17,1.0,11.0,98,0.00,,,0.01,VWS V14.01,2013-02-14 09:06:00,
2013-02-14 03:07:00,30.4,29.9,29.51,North,9,9.0,11.0,98,0.00,,,0.01,VWS V14.01,2013-02-14 09:07:00,
2013-02-14 03:08:00,30.4,29.9,29.51,NNW,339,6.0,12.0,98,0.00,,,0.01,VWS V14.01,2013-02-14 09:08:00,
2013-02-14 03:09:00,30.4,29.9,29.51,NNE,20,10.0,12.0,98,0.00,,,0.01,VWS V14.01,2013-02-14 09:09:00,
2013-02-14 03:10:00,30.4,29.9,29.51,NNE,20,6.0,12.0,98,0.00,,,0.01,VWS V14.01,2013-02-14 09:10:00,
2013-02-14 03:11:00,30.3,29.8,29.51,NNW,345,3.0,12.0,98,0.00,,,0.01,VWS V14.01,2013-02-14 09:11:00,
2013-02-14 03:12:00,30.4,29.9,29.51,NNW,345,7.0,12.0,98,0.00,,,0.01,VWS V14.01,2013-02-14 09:12:00,
2013-02-14 03:13:00,30.3,29.8,29.51,NNE,27,7.0,12.0,98,0.00,,,0.01,VWS V14.01,2013-02-14 09:13:00,
2013-02-14 03:14:00,30.3,29.8,29.51,NNW,335,1.0,12.0,98,0.00,,,0.01,VWS V14.01,2013-02-14 09:14:00,
2013-02-14 03:15:00,30.3,29.8,29.52,North,352,6.0,12.0,98,0.00,,,0.01,VWS V14.01,2013-02-14 09:15:00,
2013-02-14 03:16:00,30.3,29.8,29.52,NW,325,8.0,12.0,98,0.00,,,0.01,VWS V14.01,2013-02-14 09:16:00,
2013-02-14 03:17:00,30.3,29.8,29.52,NNE,23,11.0,12.0,98,0.00,,,0.01,VWS V14.01,2013-02-14 09:17:00,
2013-02-14 03:18:00,30.3,29.8,29.52,North,353,8.0,12.0,98,0.00,,,0.01,VWS V14.01,2013-02-14 09:18:00,
2013-02-14 03:19:00,30.1,29.6,29.52,NNW,348,8.0,12.0,98,0.00,,,0.01,VWS V14.01,2013-02-14 09:19:00,
2013-02-14 03:20:00,30.1,29.6,29.52,North,353,8.0,12.0,98,0.00,,,0.01,VWS V14.01,2013-02-14 09:20:00,
2013-02-14 03:21:00,30.3,29.8,29.52,North,350,2.0,12.0,98,0.00,,,0.01,VWS V14.01,2013-02-14 09:21:00,
2013-02-14 03:22:00,30.3,29.8,29.52,North,350,5.0,12.0,98,0.00,,,0.01,VWS V14.01,2013-02-14 09:22:00,
2013-02-14 03:23:00,30.1,29.6,29.52,NE,41,2.0,12.0,98,0.00,,,0.01,VWS V14.01,2013-02-14 09:23:00,
2013-02-14 03:24:00,30.1,29.6,29.52,NNE,16,7.0,12.0,98,0.00,,,0.01,VWS V14.01,2013-02-14 09:24:00,
2013-02-14 03:25:00,30.1,29.6,29.52,North,350,5.0,12.0,98,0.00,,,0.01,VWS V14.01,2013-02-14 09:25:00,
2013-02-14 03:26:00,30.1,29.6,29.52,North,349,2.0,12.0,98,0.00,,,0.01,VWS V14.01,2013-02-14 09:26:00,
2013-02-14 03:27:00,30.1,29.6,29.52,NNE,14,2.0,12.0,98,0.00,,,0.01,VWS V14.01,2013-02-14 09:27:00,
2013-02-14 03:28:00,30.1,29.6,29.52,NNW,331,1.0,12.0,98,0.00,,,0.01,VWS V14.01,2013-02-14 09:28:00,
2013-02-14 03:29:00,30.1,29.6,29.52,North,6,3.0,12.0,98,0.00,,,0.01,VWS V14.01,2013-02-14 09:29:00,
2013-02-14 03:30:00,30.1,29.6,29.54,NNE,16,0.0,12.0,98,0.00,,,0.01,VWS V14.01,2013-02-14 09:30:00,
2013-02-14 03:31:00,30.1,29.6,29.54,NNE,12,5.0,6.0,98,0.00,,,0.01,VWS V14.01,2013-02-14 09:31:00,
2013-02-14 03:32:00,30.0,29.5,29.54,North,358,6.0,11.0,98,0.00,,,0.01,VWS V14.01,2013-02-14 09:32:00,
2013-02-14 03:33:00,30.1,29.6,29.54,North,358,9.0,11.0,98,0.00,,,0.01,VWS V14.01,2013-02-14 09:33:00,
2013-02-14 03:34:00,30.0,29.5,29.54,North,7,7.0,11.0,98,0.00,,,0.01,VWS V14.01,2013-02-14 09:34:00,
2013-02-14 03:35:00,30.0,29.5,29.54,NE,41,7.0,11.0,98,0.00,,,0.01,VWS V14.01,2013-02-14 09:35:00,
2013-02-14 03:36:00,30.0,29.5,29.54,NE,36,8.0,11.0,98,0.00,,,0.01,VWS V14.01,2013-02-14 09:36:00,
2013-02-14 03:37:00,30.0,29.5,29.54,NE,36,2.0,11.0,98,0.00,,,0.01,VWS V14.01,2013-02-14 09:37:00,
2013-02-14 03:38:00,30.0,29.5,29.54,North,355,1.0,11.0,98,0.00,,,0.01,VWS V14.01,2013-02-14 09:38:00,
2013-02-14 03:39:00,30.0,29.5,29.54,North,356,2.0,11.0,98,0.00,,,0.01,VWS V14.01,2013-02-14 09:39:00,
2013-02-14 03:40:00,30.0,29.5,29.54,North,359,6.0,11.0,98,0.00,,,0.01,VWS V14.01,2013-02-14 09:40:00,
2013-02-14 03:41:00,30.0,29.5,29.54,North,7,6.0,11.0,98,0.00,,,0.01,VWS V14.01,2013-02-14 09:41:00,
2013-02-14 03:42:00,30.0,29.5,29.54,NNE,14,0.0,11.0,98,0.00,,,0.01,VWS V14.01,2013-02-14 09:42:00,
2013-02-14 03:43:00,29.8,29.3,29.54,NNE,14,0.0,11.0,98,0.00,,OVC055,0.01,VWS V14.01,2013-02-14 09:43:00,
2013-02-14 03:44:00,29.8,29.3,29.54,NNE,14,3.0,11.0,98,0.00,,OVC055,0.01,VWS V14.01,2013-02-14 09:44:00,
2013-02-14 03:45:00,29.8,29.3,29.54,NNE,12,0.0,11.0,98,0.00,,OVC055,0.01,VWS V14.01,2013-02-14 09:45:00,
2013-02-14 03:46:00,29.8,29.3,29.54,North,10,5.0,11.0,98,0.00,,OVC055,0.01,VWS V14.01,2013-02-14 09:46:00,
2013-02-14 03:47:00,29.7,29.2,29.54,North,10,1.0,11.0,98,0.00,,OVC055,0.01,VWS V14.01,2013-02-14 09:47:00,
2013-02-14 03:48:00,29.8,29.3,29.54,North,9,7.0,11.0,98,0.00,,OVC055,0.01,VWS V14.01,2013-02-14 09:48:00,
2013-02-14 03:49:00,29.8,29.3,29.54,North,5,2.0,11.0,98,0.00,,OVC055,0.01,VWS V14.01,2013-02-14 09:49:00,
2013-02-14 03:50:00,29.8,29.3,29.54,North,3,4.0,11.0,98,0.00,,OVC055,0.01,VWS V14.01,2013-02-14 09:50:00,
2013-02-14 03:51:00,29.8,29.3,29.54,North,360,7.0,11.0,98,0.00,,OVC055,0.01,VWS V14.01,2013-02-14 09:51:00,
2013-02-14 03:52:00,29.7,29.2,29.54,North,359,5.0,11.0,98,0.00,,OVC055,0.01,VWS V14.01,2013-02-14 09:52:00,
2013-02-14 03:53:00,29.8,29.3,29.54,NNW,331,4.0,11.0,98,0.00,,OVC055,0.01,VWS V14.01,2013-02-14 09:53:00,
2013-02-14 03:54:00,29.7,29.2,29.54,NNW,336,5.0,11.0,98,0.00,,OVC055,0.01,VWS V14.01,2013-02-14 09:54:00,
2013-02-14 03:55:00,29.7,29.2,29.54,NW,324,4.0,11.0,98,0.00,,OVC055,0.01,VWS V14.01,2013-02-14 09:55:00,
2013-02-14 03:56:00,29.7,29.2,29.54,NW,325,6.0,11.0,98,0.00,,OVC055,0.01,VWS V14.01,2013-02-14 09:56:00,
2013-02-14 03:57:00,29.7,29.2,29.54,NNW,345,6.0,11.0,98,0.00,,OVC055,0.01,VWS V14.01,2013-02-14 09:57:00,
2013-02-14 03:58:00,29.7,29.2,29.54,NNW,336,8.0,11.0,98,0.00,,OVC055,0.01,VWS V14.01,2013-02-14 09:58:00,
2013-02-14 03:59:00,29.7,29.2,29.54,NNW,336,2.0,11.0,98,0.00,,OVC055,0.01,VWS V14.01,2013-02-14 09:59:00,
2013-02-14 04:00:00,29.7,29.2,29.55,North,355,8.0,11.0,98,0.00,,OVC055,0.01,VWS V14.01,2013-02-14 10:00:00,
2013-02-14 04:01:00,29.7,29.2,29.55,NNW,343,6.0,8.0,98,0.00,,OVC055,0.01,VWS V14.01,2013-02-14 10:01:00,
2013-02-14 04:02:00,29.7,29.2,29.55,NW,312,6.0,9.0,98,0.00,,OVC055,0.01,VWS V14.01,2013-02-14 10:02:00,
2013-02-14 04:03:00,29.7,29.2,29.55,NW,318,1.0,9.0,98,0.00,,OVC055,0.01,VWS V14.01,2013-02-14 10:03:00,
2013-02-14 04:04:00,29.7,29.2,29.55,NW,319,1.0,9.0,98,0.00,,OVC055,0.01,VWS V14.01,2013-02-14 10:04:00,
2013-02-14 04:05:00,29.7,29.2,29.55,North,352,7.0,9.0,98,0.00,,OVC055,0.01,VWS V14.01,2013-02-14 10:05:00,
2013-02-14 04:06:00,29.7,29.2,29.55,NW,307,6.0,9.0,98,0.00,,OVC055,0.01,VWS V14.01,2013-02-14 10:06:00,
2013-02-14 04:07:00,29.7,29.2,29.55,NW,308,2.0,9.0,98,0.00,,OVC055,0.01,VWS V14.01,2013-02-14 10:07:00,
2013-02-14 04:08:00,29.7,29.2,29.55,NNW,343,2.0,9.0,98,0.00,,OVC055,0.01,VWS V14.01,2013-02-14 10:08:00,
2013-02-14 04:09:00,29.7,29.2,29.55,NNW,335,5.0,9.0,98,0.00,,OVC055,0.01,VWS V14.01,2013-02-14 10:09:00,
2013-02-14 04:10:00,29.7,29.2,29.55,NNW,331,11.0,11.0,98,0.00,,OVC055,0.01,VWS V14.01,2013-02-14 10:10:00,
2013-02-14 04:11:00,29.7,29.2,29.55,NW,326,4.0,11.0,98,0.00,,OVC055,0.01,VWS V14.01,2013-02-14 10:11:00,
2013-02-14 04:12:00,29.7,29.2,29.55,NW,325,7.0,11.0,98,0.00,,OVC055,0.01,VWS V14.01,2013-02-14 10:12:00,
2013-02-14 04:13:00,29.7,29.2,29.55,NW,310,2.0,11.0,98,0.00,,OVC055,0.01,VWS V14.01,2013-02-14 10:13:00,
2013-02-14 04:14:00,29.7,29.2,29.55,NNW,341,6.0,11.0,98,0.00,,OVC055,0.01,VWS V14.01,2013-02-14 10:14:00,
2013-02-14 04:15:00,29.7,29.2,29.56,NNW,341,6.0,11.0,98,0.00,,OVC055,0.01,VWS V14.01,2013-02-14 10:15:00,
2013-02-14 04:16:00,29.5,29.0,29.56,NNW,336,1.0,11.0,98,0.00,,OVC055,0.01,VWS V14.01,2013-02-14 10:16:00,
2013-02-14 04:17:00,29.5,29.0,29.56,NW,324,6.0,11.0,98,0.00,,OVC055,0.01,VWS V14.01,2013-02-14 10:17:00,
2013-02-14 04:18:00,29.7,29.2,29.56,North,3,4.0,11.0,98,0.00,,OVC055,0.01,VWS V14.01,2013-02-14 10:18:00,
2013-02-14 04:19:00,29.5,29.0,29.56,NNW,329,5.0,11.0,98,0.00,,OVC055,0.01,VWS V14.01,2013-02-14 10:19:00,
2013-02-14 04:20:00,29.5,29.0,29.56,NNW,338,5.0,11.0,98,0.00,,OVC055,0.01,VWS V14.01,2013-02-14 10:20:00,
2013-02-14 04:21:00,29.5,29.0,29.56,NNW,343,8.0,11.0,98,0.00,,OVC055,0.01,VWS V14.01,2013-02-14 10:21:00,
2013-02-14 04:22:00,29.4,28.9,29.56,North,355,11.0,12.0,98,0.00,,OVC055,0.01,VWS V14.01,2013-02-14 10:22:00,
2013-02-14 04:23:00,29.4,28.9,29.56,NNW,341,6.0,12.0,98,0.00,,OVC055,0.01,VWS V14.01,2013-02-14 10:23:00,
2013-02-14 04:24:00,29.4,28.9,29.56,NNW,341,4.0,12.0,98,0.00,,OVC055,0.01,VWS V14.01,2013-02-14 10:24:00,
2013-02-14 04:25:00,29.3,28.8,29.56,NW,325,7.0,12.0,98,0.00,,OVC055,0.01,VWS V14.01,2013-02-14 10:25:00,
2013-02-14 04:26:00,29.3,28.8,29.56,NNW,338,7.0,12.0,98,0.00,,OVC055,0.01,VWS V14.01,2013-02-14 10:26:00,
2013-02-14 04:27:00,29.3,28.8,29.56,NNW,341,2.0,12.0,98,0.00,,OVC055,0.01,VWS V14.01,2013-02-14 10:27:00,
2013-02-14 04:28:00,29.1,28.6,29.56,NNW,348,9.0,12.0,98,0.00,,OVC140,0.01,VWS V14.01,2013-02-14 10:28:00,
2013-02-14 04:29:00,29.1,28.6,29.56,NNW,338,2.0,12.0,98,0.00,,OVC140,0.01,VWS V14.01,2013-02-14 10:29:00,
2013-02-14 04:30:00,29.0,28.5,29.58,NW,310,8.0,12.0,98,0.00,,OVC140,0.01,VWS V14.01,2013-02-14 10:30:00,
2013-02-14 04:31:00,29.0,28.5,29.58,NW,310,2.0,8.0,98,0.00,,OVC140,0.01,VWS V14.01,2013-02-14 10:31:00,
2013-02-14 04:32:00,29.0,28.5,29.58,NW,317,6.0,8.0,98,0.00,,OVC140,0.01,VWS V14.01,2013-02-14 10:32:00,
2013-02-14 04:33:00,28.8,28.3,29.58,NNW,332,8.0,8.0,98,0.00,,OVC140,0.01,VWS V14.01,2013-02-14 10:33:00,
2013-02-14 04:34:00,28.8,28.3,29.58,NNW,336,2.0,8.0,98,0.00,,OVC140,0.01,VWS V14.01,2013-02-14 10:34:00,
2013-02-14 04:35:00,28.8,28.3,29.58,NNW,338,7.0,11.0,98,0.00,,OVC140,0.01,VWS V14.01,2013-02-14 10:35:00,
2013-02-14 04:36:00,28.7,28.2,29.58,NNW,332,7.0,11.0,98,0.00,,OVC140,0.01,VWS V14.01,2013-02-14 10:36:00,
2013-02-14 04:37:00,28.7,28.2,29.58,WNW,298,6.0,11.0,98,0.00,,OVC140,0.01,VWS V14.01,2013-02-14 10:37:00,
2013-02-14 04:38:00,28.5,28.0,29.58,NW,307,0.0,11.0,98,0.00,,OVC140,0.01,VWS V14.01,2013-02-14 10:38:00,
2013-02-14 04:39:00,28.5,28.0,29.58,NW,311,4.0,11.0,98,0.00,,OVC140,0.01,VWS V14.01,2013-02-14 10:39:00,
2013-02-14 04:40:00,28.5,28.0,29.58,NW,311,3.0,11.0,98,0.00,,OVC140,0.01,VWS V14.01,2013-02-14 10:40:00,
2013-02-14 04:41:00,28.5,28.0,29.58,NW,326,7.0,11.0,98,0.00,,OVC140,0.01,VWS V14.01,2013-02-14 10:41:00,
2013-02-14 04:42:00,28.4,27.9,29.58,NW,326,3.0,11.0,98,0.00,,OVC140,0.01,VWS V14.01,2013-02-14 10:42:00,
2013-02-14 04:43:00,28.4,27.9,29.58,NW,319,6.0,11.0,98,0.00,,OVC140,0.01,VWS V14.01,2013-02-14 10:43:00,
2013-02-14 04:44:00,28.4,27.9,29.58,NW,308,6.0,11.0,98,0.00,,OVC140,0.01,VWS V14.01,2013-02-14 10:44:00,
2013-02-14 04:45:00,28.4,27.9,29.59,NW,310,0.0,11.0,98,0.00,,OVC140,0.01,VWS V14.01,2013-02-14 10:45:00,
2013-02-14 04:46:00,28.2,27.7,29.59,NW,310,0.0,11.0,98,0.00,,OVC140,0.01,VWS V14.01,2013-02-14 10:46:00,
2013-02-14 04:47:00,28.2,27.7,29.59,NNW,328,5.0,11.0,98,0.00,,OVC140,0.01,VWS V14.01,2013-02-14 10:47:00,
2013-02-14 04:48:00,28.2,27.7,29.59,NW,325,4.0,11.0,98,0.00,,OVC140,0.01,VWS V14.01,2013-02-14 10:48:00,
2013-02-14 04:49:00,28.2,27.7,29.59,NW,326,5.0,11.0,98,0.00,,OVC140,0.01,VWS V14.01,2013-02-14 10:49:00,
2013-02-14 04:50:00,28.2,27.7,29.59,NW,325,6.0,11.0,98,0.00,,OVC140,0.01,VWS V14.01,2013-02-14 10:50:00,
2013-02-14 04:51:00,28.1,27.6,29.59,NW,326,5.0,11.0,98,0.00,,OVC140,0.01,VWS V14.01,2013-02-14 10:51:00,
2013-02-14 04:52:00,28.1,27.6,29.59,NW,326,1.0,11.0,98,0.00,,OVC140,0.01,VWS V14.01,2013-02-14 10:52:00,
2013-02-14 04:53:00,28.1,27.6,29.59,NW,324,5.0,11.0,98,0.00,,OVC140,0.01,VWS V14.01,2013-02-14 10:53:00,
2013-02-14 04:54:00,28.1,27.6,29.59,NW,324,1.0,11.0,98,0.00,,OVC140,0.01,VWS V14.01,2013-02-14 10:54:00,
2013-02-14 04:55:00,28.1,27.6,29.59,NW,325,6.0,11.0,98,0.00,,OVC140,0.01,VWS V14.01,2013-02-14 10:55:00,
2013-02-14 04:56:00,27.9,27.2,29.59,NW,325,1.0,11.0,97,0.00,,OVC140,0.01,VWS V14.01,2013-02-14 10:56:00,
2013-02-14 04:57:00,27.9,27.2,29.59,NW,325,1.0,11.0,97,0.00,,OVC140,0.01,VWS V14.01,2013-02-14 10:57:00,
2013-02-14 04:58:00,27.9,27.2,29.59,NW,325,0.0,11.0,97,0.00,,OVC140,0.01,VWS V14.01,2013-02-14 10:58:00,
2013-02-14 04:59:00,27.8,27.1,29.59,NW,322,1.0,11.0,97,0.00,,OVC140,0.01,VWS V14.01,2013-02-14 10:59:00,
2013-02-14 05:00:00,27.9,27.2,29.60,NW,322,1.0,11.0,97,0.00,,OVC140,0.01,VWS V14.01,2013-02-14 11:00:00,
2013-02-14 05:01:00,27.8,27.1,29.60,NW,321,3.0,3.0,97,0.00,,OVC140,0.01,VWS V14.01,2013-02-14 11:01:00,
2013-02-14 05:02:00,27.8,27.1,29.60,NW,324,5.0,6.0,97,0.00,,OVC140,0.01,VWS V14.01,2013-02-14 11:02:00,
2013-02-14 05:03:00,27.8,27.1,29.60,NW,324,4.0,6.0,97,0.00,,OVC140,0.01,VWS V14.01,2013-02-14 11:03:00,
2013-02-14 05:04:00,27.6,26.9,29.60,NW,322,3.0,6.0,97,0.00,,OVC140,0.01,VWS V14.01,2013-02-14 11:04:00,
2013-02-14 05:05:00,27.6,26.9,29.60,NW,321,5.0,6.0,97,0.00,,OVC140,0.01,VWS V14.01,2013-02-14 11:05:00,
2013-02-14 05:06:00,27.6,26.9,29.60,NW,322,0.0,6.0,97,0.00,,OVC140,0.01,VWS V14.01,2013-02-14 11:06:00,
2013-02-14 05:07:00,27.6,26.9,29.60,NW,324,6.0,7.0,97,0.00,,OVC140,0.01,VWS V14.01,2013-02-14 11:07:00,
2013-02-14 05:08:00,27.6,26.9,29.60,NW,324,6.0,7.0,97,0.00,,OVC140,0.01,VWS V14.01,2013-02-14 11:08:00,
2013-02-14 05:09:00,27.6,26.9,29.60,NW,322,0.0,7.0,97,0.00,,OVC140,0.01,VWS V14.01,2013-02-14 11:09:00,
2013-02-14 05:10:00,27.6,26.9,29.60,NW,321,3.0,7.0,97,0.00,,OVC140,0.01,VWS V14.01,2013-02-14 11:10:00,
2013-02-14 05:11:00,27.5,26.8,29.60,NW,321,0.0,7.0,97,0.00,,OVC140,0.01,VWS V14.01,2013-02-14 11:11:00,
2013-02-14 05:12:00,27.5,26.8,29.60,NW,322,4.0,7.0,97,0.00,,OVC140,0.01,VWS V14.01,2013-02-14 11:12:00,
2013-02-14 05:13:00,27.5,26.8,29.60,NW,319,6.0,7.0,97,0.00,,OVC140,0.01,VWS V14.01,2013-02-14 11:13:00,
2013-02-14 05:14:00,27.5,26.8,29.60,NW,318,5.0,7.0,97,0.00,,OVC140,0.01,VWS V14.01,2013-02-14 11:14:00,
2013-02-14 05:15:00,27.5,26.8,29.60,NW,318,5.0,7.0,97,0.00,,OVC140,0.01,VWS V14.01,2013-02-14 11:15:00,
2013-02-14 05:16:00,27.5,26.8,29.60,NW,318,2.0,7.0,97,0.00,,OVC140,0.01,VWS V14.01,2013-02-14 11:16:00,
2013-02-14 05:17:00,27.5,26.8,29.60,NW,319,6.0,7.0,97,0.00,,OVC140,0.01,VWS V14.01,2013-02-14 11:17:00,
2013-02-14 05:18:00,27.5,26.8,29.60,NW,319,0.0,7.0,97,0.00,,OVC140,0.01,VWS V14.01,2013-02-14 11:18:00,
2013-02-14 05:19:00,27.3,26.6,29.60,NW,319,0.0,7.0,97,0.00,,OVC140,0.01,VWS V14.01,2013-02-14 11:19:00,
2013-02-14 05:20:00,27.3,26.6,29.60,NW,319,2.0,7.0,97,0.00,,OVC140,0.01,VWS V14.01,2013-02-14 11:20:00,
2013-02-14 05:21:00,27.3,26.6,29.60,NW,318,2.0,7.0,97,0.00,,OVC140,0.01,VWS V14.01,2013-02-14 11:21:00,
2013-02-14 05:22:00,27.3,26.6,29.60,NW,318,0.0,7.0,97,0.00,,OVC140,0.01,VWS V14.01,2013-02-14 11:22:00,
2013-02-14 05:23:00,27.3,26.6,29.60,NW,307,5.0,7.0,97,0.00,,OVC140,0.01,VWS V14.01,2013-02-14 11:23:00,
2013-02-14 05:24:00,27.2,26.5,29.60,NW,307,0.0,7.0,97,0.00,,OVC140,0.01,VWS V14.01,2013-02-14 11:24:00,
2013-02-14 05:25:00,27.2,26.5,29.60,NW,307,3.0,7.0,97,0.00,,OVC140,0.01,VWS V14.01,2013-02-14 11:25:00,
2013-02-14 05:26:00,27.2,26.5,29.60,NW,307,1.0,7.0,97,0.00,,OVC140,0.01,VWS V14.01,2013-02-14 11:26:00,
2013-02-14 05:27:00,27.0,26.3,29.60,NW,307,5.0,7.0,97,0.00,,OVC140,0.01,VWS V14.01,2013-02-14 11:27:00,
2013-02-14 05:28:00,27.0,26.3,29.60,NW,307,4.0,7.0,97,0.00,,OVC140,0.01,VWS V14.01,2013-02-14 11:28:00,
2013-02-14 05:29:00,27.0,26.3,29.60,NW,307,3.0,7.0,97,0.00,,OVC140,0.01,VWS V14.01,2013-02-14 11:29:00,
2013-02-14 05:30:00,27.0,26.3,29.61,NW,307,2.0,7.0,97,0.00,,OVC140,0.01,VWS V14.01,2013-02-14 11:30:00,
2013-02-14 05:31:00,27.0,26.3,29.61,NW,307,0.0,6.0,97,0.00,,OVC140,0.01,VWS V14.01,2013-02-14 11:31:00,
2013-02-14 05:32:00,26.9,26.2,29.61,NW,307,1.0,6.0,97,0.00,,OVC140,0.01,VWS V14.01,2013-02-14 11:32:00,
2013-02-14 05:33:00,26.9,26.2,29.61,NW,307,1.0,6.0,97,0.00,,OVC140,0.01,VWS V14.01,2013-02-14 11:33:00,
2013-02-14 05:34:00,26.9,26.2,29.61,NW,307,3.0,6.0,97,0.00,,OVC140,0.01,VWS V14.01,2013-02-14 11:34:00,
2013-02-14 05:35:00,26.7,26.0,29.61,NW,307,2.0,6.0,97,0.00,,OVC140,0.01,VWS V14.01,2013-02-14 11:35:00,
2013-02-14 05:36:00,26.7,26.0,29.61,NW,307,2.0,6.0,97,0.00,,OVC140,0.01,VWS V14.01,2013-02-14 11:36:00,
2013-02-14 05:37:00,26.7,26.0,29.61,NW,307,2.0,6.0,97,0.00,,OVC140,0.01,VWS V14.01,2013-02-14 11:37:00,
2013-02-14 05:38:00,26.7,26.0,29.61,NW,307,2.0,6.0,97,0.00,,OVC140,0.01,VWS V14.01,2013-02-14 11:38:00,
2013-02-14 05:39:00,26.7,26.0,29.61,NW,307,3.0,6.0,97,0.00,,OVC140,0.01,VWS V14.01,2013-02-14 11:39:00,
2013-02-14 05:40:00,26.7,26.0,29.61,NW,307,3.0,6.0,97,0.00,,OVC140,0.01,VWS V14.01,2013-02-14 11:40:00,
2013-02-14 05:41:00,26.6,25.9,29.61,NW,307,0.0,6.0,97,0.00,,OVC140,0.01,VWS V14.01,2013-02-14 11:41:00,
2013-02-14 05:42:00,26.6,25.9,29.61,NW,307,2.0,6.0,97,0.00,,OVC140,0.01,VWS V14.01,2013-02-14 11:42:00,
2013-02-14 05:43:00,26.6,25.9,29.61,NW,307,4.0,6.0,97,0.00,,FEW140,0.01,VWS V14.01,2013-02-14 11:43:00,
2013-02-14 05:44:00,26.6,25.9,29.61,NW,307,5.0,6.0,97,0.00,,FEW140,0.01,VWS V14.01,2013-02-14 11:44:00,
2013-02-14 05:45:00,26.6,25.9,29.62,NW,307,3.0,6.0,97,0.00,,FEW140,0.01,VWS V14.01,2013-02-14 11:45:00,
2013-02-14 05:46:00,26.6,25.9,29.62,NW,307,3.0,6.0,97,0.00,,FEW140,0.01,VWS V14.01,2013-02-14 11:46:00,
2013-02-14 05:47:00,26.4,25.7,29.62,NW,307,0.0,6.0,97,0.00,,FEW140,0.01,VWS V14.01,2013-02-14 11:47:00,
2013-02-14 05:48:00,26.4,25.7,29.62,NW,307,1.0,6.0,97,0.00,,FEW140,0.01,VWS V14.01,2013-02-14 11:48:00,
2013-02-14 05:49:00,26.4,25.7,29.62,NW,307,2.0,6.0,97,0.00,,FEW140,0.01,VWS V14.01,2013-02-14 11:49:00,
2013-02-14 05:50:00,26.4,25.7,29.62,NW,307,0.0,6.0,97,0.00,,FEW140,0.01,VWS V14.01,2013-02-14 11:50:00,
2013-02-14 05:51:00,26.4,25.7,29.62,NW,307,1.0,6.0,97,0.00,,FEW140,0.01,VWS V14.01,2013-02-14 11:51:00,
2013-02-14 05:52:00,26.4,25.7,29.62,NW,307,0.0,6.0,97,0.00,,FEW140,0.01,VWS V14.01,2013-02-14 11:52:00,
2013-02-14 05:53:00,26.3,25.6,29.62,NW,308,2.0,6.0,97,0.00,,FEW140,0.01,VWS V14.01,2013-02-14 11:53:00,
2013-02-14 05:54:00,26.3,25.6,29.62,NW,308,1.0,6.0,97,0.00,,FEW140,0.01,VWS V14.01,2013-02-14 11:54:00,
2013-02-14 05:55:00,26.3,25.3,29.62,NW,308,3.0,6.0,96,0.00,,FEW140,0.01,VWS V14.01,2013-02-14 11:55:00,
2013-02-14 05:56:00,26.3,25.3,29.62,NW,307,0.0,6.0,96,0.00,,FEW140,0.01,VWS V14.01,2013-02-14 11:56:00,
2013-02-14 05:57:00,26.3,25.3,29.62,NW,307,2.0,6.0,96,0.00,,FEW140,0.01,VWS V14.01,2013-02-14 11:57:00,
2013-02-14 05:58:00,26.1,25.1,29.62,NW,308,2.0,6.0,96,0.00,,FEW140,0.01,VWS V14.01,2013-02-14 11:58:00,
2013-02-14 05:59:00,26.1,25.4,29.62,NW,307,2.0,6.0,97,0.00,,FEW140,0.01,VWS V14.01,2013-02-14 11:59:00,
2013-02-14 06:00:00,26.1,25.4,29.62,NW,308,1.0,6.0,97,0.00,,FEW140,0.01,VWS V14.01,2013-02-14 12:00:00,
2013-02-14 06:01:00,26.1,25.4,29.62,NW,307,0.0,3.0,97,0.00,,FEW140,0.01,VWS V14.01,2013-02-14 12:01:00,
2013-02-14 06:02:00,26.1,25.1,29.62,NW,307,0.0,3.0,96,0.00,,FEW140,0.01,VWS V14.01,2013-02-14 12:02:00,
2013-02-14 06:03:00,26.1,25.1,29.62,NW,307,0.0,3.0,96,0.00,,FEW140,0.01,VWS V14.01,2013-02-14 12:03:00,
2013-02-14 06:04:00,26.1,25.1,29.62,NW,308,0.0,3.0,96,0.00,,FEW140,0.01,VWS V14.01,2013-02-14 12:04:00,
2013-02-14 06:05:00,26.0,25.0,29.62,NW,308,2.0,3.0,96,0.00,,FEW140,0.01,VWS V14.01,2013-02-14 12:05:00,
2013-02-14 06:06:00,26.0,25.0,29.62,NW,307,3.0,3.0,96,0.00,,FEW140,0.01,VWS V14.01,2013-02-14 12:06:00,
2013-02-14 06:07:00,26.0,25.0,29.62,NW,307,2.0,3.0,96,0.00,,FEW140,0.01,VWS V14.01,2013-02-14 12:07:00,
2013-02-14 06:08:00,26.0,25.0,29.62,NW,307,0.0,3.0,96,0.00,,FEW140,0.01,VWS V14.01,2013-02-14 12:08:00,
2013-02-14 06:09:00,26.0,25.0,29.62,NW,307,1.0,3.0,96,0.00,,FEW140,0.01,VWS V14.01,2013-02-14 12:09:00,
2013-02-14 06:10:00,26.0,25.0,29.62,NW,307,2.0,3.0,96,0.00,,FEW140,0.01,VWS V14.01,2013-02-14 12:10:00,
2013-02-14 06:11:00,25.8,24.8,29.62,NW,307,0.0,3.0,96,0.00,,FEW140,0.01,VWS V14.01,2013-02-14 12:11:00,
2013-02-14 06:12:00,25.8,24.8,29.62,NW,307,0.0,4.0,96,0.00,,FEW140,0.01,VWS V14.01,2013-02-14 12:12:00,
2013-02-14 06:13:00,25.8,24.8,29.62,NW,307,2.0,5.0,96,0.00,,FEW140,0.01,VWS V14.01,2013-02-14 12:13:00,
2013-02-14 06:14:00,25.8,24.8,29.62,NW,307,0.0,5.0,96,0.00,,FEW140,0.01,VWS V14.01,2013-02-14 12:14:00,
2013-02-14 06:15:00,25.8,24.8,29.63,NW,307,1.0,5.0,96,0.00,,FEW140,0.01,VWS V14.01,2013-02-14 12:15:00,
2013-02-14 06:16:00,25.7,24.7,29.63,NW,307,0.0,5.0,96,0.00,,FEW140,0.01,VWS V14.01,2013-02-14 12:16:00,
2013-02-14 06:17:00,25.7,24.7,29.63,NW,307,2.0,5.0,96,0.00,,FEW140,0.01,VWS V14.01,2013-02-14 12:17:00,
2013-02-14 06:18:00,25.7,24.7,29.63,NW,307,0.0,5.0,96,0.00,,FEW140,0.01,VWS V14.01,2013-02-14 12:18:00,
2013-02-14 06:19:00,25.7,24.7,29.63,NW,307,0.0,5.0,96,0.00,,FEW140,0.01,VWS V14.01,2013-02-14 12:19:00,
2013-02-14 06:20:00,25.7,24.7,29.63,NW,307,0.0,5.0,96,0.00,,FEW140,0.01,VWS V14.01,2013-02-14 12:20:00,
2013-02-14 06:21:00,25.6,24.6,29.63,NW,307,1.0,5.0,96,0.00,,FEW140,0.01,VWS V14.01,2013-02-14 12:21:00,
2013-02-14 06:22:00,25.6,24.6,29.63,NW,307,1.0,5.0,96,0.00,,FEW140,0.01,VWS V14.01,2013-02-14 12:22:00,
2013-02-14 06:23:00,25.6,24.6,29.63,NW,307,0.0,5.0,96,0.00,,FEW140,0.01,VWS V14.01,2013-02-14 12:23:00,
2013-02-14 06:24:00,25.6,24.6,29.63,NW,307,3.0,5.0,96,0.00,,FEW140,0.01,VWS V14.01,2013-02-14 12:24:00,
2013-02-14 06:25:00,25.6,24.6,29.63,NW,307,1.0,5.0,96,0.00,,FEW140,0.01,VWS V14.01,2013-02-14 12:25:00,
2013-02-14 06:26:00,25.6,24.6,29.63,NW,307,1.0,5.0,96,0.00,,FEW140,0.01,VWS V14.01,2013-02-14 12:26:00,
2013-02-14 06:27:00,25.6,24.6,29.63,NW,307,0.0,5.0,96,0.00,,FEW140,0.01,VWS V14.01,2013-02-14 12:27:00,
2013-02-14 06:28:00,25.6,24.6,29.63,NW,307,0.0,5.0,96,0.00,,FEW140,0.01,VWS V14.01,2013-02-14 12:28:00,
2013-02-14 06:29:00,25.6,24.6,29.63,NW,307,0.0,5.0,96,0.00,,FEW140,0.01,VWS V14.01,2013-02-14 12:29:00,
2013-02-14 06:30:00,25.6,24.6,29.64,NW,307,0.0,5.0,96,0.00,,FEW140,0.01,VWS V14.01,2013-02-14 12:30:00,
2013-02-14 06:31:00,25.6,24.6,29.64,NW,307,1.0,1.0,96,0.00,,FEW140,0.01,VWS V14.01,2013-02-14 12:31:00,
2013-02-14 06:32:00,25.4,24.4,29.64,NW,307,0.0,1.0,96,0.00,,FEW140,0.01,VWS V14.01,2013-02-14 12:32:00,
2013-02-14 06:33:00,25.6,24.6,29.64,NW,307,0.0,1.0,96,0.00,,FEW140,0.01,VWS V14.01,2013-02-14 12:33:00,
2013-02-14 06:34:00,25.4,24.4,29.64,NW,307,2.0,3.0,96,0.00,,FEW140,0.01,VWS V14.01,2013-02-14 12:34:00,
2013-02-14 06:35:00,25.4,24.4,29.64,NW,307,1.0,3.0,96,0.00,,FEW140,0.01,VWS V14.01,2013-02-14 12:35:00,
2013-02-14 06:36:00,25.6,24.6,29.64,NW,307,1.0,3.0,96,0.00,,FEW140,0.01,VWS V14.01,2013-02-14 12:36:00,
2013-02-14 06:37:00,25.6,24.6,29.64,NW,307,1.0,3.0,96,0.00,,FEW140,0.01,VWS V14.01,2013-02-14 12:37:00,
2013-02-14 06:38:00,25.4,24.4,29.64,NW,307,1.0,3.0,96,0.00,,FEW140,0.01,VWS V14.01,2013-02-14 12:38:00,
2013-02-14 06:39:00,25.4,24.4,29.64,NW,307,0.0,3.0,96,0.00,,FEW140,0.01,VWS V14.01,2013-02-14 12:39:00,
2013-02-14 06:40:00,25.4,24.4,29.64,NW,307,0.0,3.0,96,0.00,,FEW140,0.01,VWS V14.01,2013-02-14 12:40:00,
2013-02-14 06:41:00,25.4,24.4,29.64,NW,307,0.0,3.0,96,0.00,,FEW140,0.01,VWS V14.01,2013-02-14 12:41:00,
2013-02-14 06:42:00,25.4,24.4,29.64,NW,307,0.0,3.0,96,0.00,,FEW140,0.01,VWS V14.01,2013-02-14 12:42:00,
2013-02-14 06:43:00,25.4,24.4,29.64,NW,307,0.0,3.0,96,0.00,,SCT300,0.01,VWS V14.01,2013-02-14 12:43:00,
2013-02-14 06:44:00,25.4,24.4,29.64,NW,307,0.0,3.0,96,0.00,,SCT300,0.01,VWS V14.01,2013-02-14 12:44:00,
2013-02-14 06:45:00,25.4,24.4,29.64,NW,307,0.0,3.0,96,0.00,,SCT300,0.01,VWS V14.01,2013-02-14 12:45:00,
2013-02-14 06:46:00,25.4,24.4,29.64,NW,307,0.0,3.0,96,0.00,,SCT300,0.01,VWS V14.01,2013-02-14 12:46:00,
2013-02-14 06:47:00,25.4,24.4,29.64,NW,307,0.0,3.0,96,0.00,,SCT300,0.01,VWS V14.01,2013-02-14 12:47:00,
2013-02-14 06:48:00,25.4,24.4,29.64,NW,307,0.0,3.0,96,0.00,,SCT300,0.01,VWS V14.01,2013-02-14 12:48:00,
2013-02-14 06:49:00,25.4,24.4,29.64,NW,307,0.0,3.0,96,0.00,,SCT300,0.01,VWS V14.01,2013-02-14 12:49:00,
2013-02-14 06:50:00,25.4,24.4,29.64,NW,307,0.0,3.0,96,0.00,,SCT300,0.01,VWS V14.01,2013-02-14 12:50:00,
2013-02-14 06:51:00,25.4,24.4,29.64,NW,307,0.0,3.0,96,0.00,,SCT300,0.01,VWS V14.01,2013-02-14 12:51:00,
2013-02-14 06:52:00,25.4,24.4,29.64,NW,307,0.0,3.0,96,0.00,,SCT300,0.01,VWS V14.01,2013-02-14 12:52:00,
2013-02-14 06:53:00,25.4,24.4,29.64,NW,307,0.0,3.0,96,0.00,,SCT300,0.01,VWS V14.01,2013-02-14 12:53:00,
2013-02-14 06:54:00,25.4,24.4,29.64,NW,307,0.0,3.0,96,0.00,,SCT300,0.01,VWS V14.01,2013-02-14 12:54:00,
2013-02-14 06:55:00,25.4,24.4,29.64,NW,307,0.0,3.0,96,0.00,,SCT300,0.01,VWS V14.01,2013-02-14 12:55:00,
2013-02-14 06:56:00,25.4,24.4,29.64,NW,307,0.0,3.0,96,0.00,,SCT300,0.01,VWS V14.01,2013-02-14 12:56:00,
2013-02-14 06:57:00,25.4,24.4,29.64,NW,307,0.0,3.0,96,0.00,,SCT300,0.01,VWS V14.01,2013-02-14 12:57:00,
2013-02-14 06:58:00,25.4,24.4,29.64,NW,307,0.0,3.0,96,0.00,,SCT300,0.01,VWS V14.01,2013-02-14 12:58:00,
2013-02-14 06:59:00,25.3,24.3,29.64,NW,307,1.0,3.0,96,0.00,,SCT300,0.01,VWS V14.01,2013-02-14 12:59:00,
2013-02-14 07:00:00,25.3,24.3,29.65,NW,307,1.0,3.0,96,0.00,,SCT300,0.01,VWS V14.01,2013-02-14 13:00:00,
2013-02-14 07:01:00,25.3,24.3,29.65,NW,307,2.0,2.0,96,0.00,,SCT300,0.01,VWS V14.01,2013-02-14 13:01:00,
2013-02-14 07:02:00,25.3,24.3,29.65,NW,307,0.0,2.0,96,0.00,,SCT300,0.01,VWS V14.01,2013-02-14 13:02:00,
2013-02-14 07:03:00,25.3,24.3,29.65,NW,307,2.0,2.0,96,0.00,,SCT300,0.01,VWS V14.01,2013-02-14 13:03:00,
2013-02-14 07:04:00,25.3,24.3,29.65,NW,307,0.0,2.0,96,0.00,,SCT300,0.01,VWS V14.01,2013-02-14 13:04:00,
2013-02-14 07:05:00,25.3,24.3,29.65,NW,307,1.0,2.0,96,0.00,,SCT300,0.01,VWS V14.01,2013-02-14 13:05:00,
2013-02-14 07:06:00,25.3,24.3,29.65,NW,307,0.0,2.0,96,0.00,,SCT300,0.01,VWS V14.01,2013-02-14 13:06:00,
2013-02-14 07:07:00,25.3,24.3,29.65,NW,307,0.0,2.0,96,0.00,,SCT300,0.01,VWS V14.01,2013-02-14 13:07:00,
2013-02-14 07:08:00,25.3,24.3,29.65,NW,307,0.0,2.0,96,0.00,,SCT300,0.01,VWS V14.01,2013-02-14 13:08:00,
2013-02-14 07:09:00,25.4,24.4,29.65,NW,307,0.0,2.0,96,0.00,,SCT300,0.01,VWS V14.01,2013-02-14 13:09:00,
2013-02-14 07:10:00,25.4,24.4,29.65,NW,307,0.0,2.0,96,0.00,,SCT300,0.01,VWS V14.01,2013-02-14 13:10:00,
2013-02-14 07:11:00,25.3,24.3,29.65,NW,307,0.0,2.0,96,0.00,,SCT300,0.01,VWS V14.01,2013-02-14 13:11:00,
2013-02-14 07:12:00,25.4,24.4,29.65,NW,307,0.0,2.0,96,0.00,,SCT300,0.01,VWS V14.01,2013-02-14 13:12:00,
2013-02-14 07:13:00,25.3,24.3,29.65,NW,307,0.0,2.0,96,0.00,,SCT300,0.01,VWS V14.01,2013-02-14 13:13:00,
2013-02-14 07:14:00,25.3,24.3,29.65,NW,307,0.0,2.0,96,0.00,,SCT300,0.01,VWS V14.01,2013-02-14 13:14:00,
2013-02-14 07:15:00,25.4,24.4,29.65,NW,307,0.0,2.0,96,0.00,,SCT300,0.01,VWS V14.01,2013-02-14 13:15:00,
2013-02-14 07:16:00,25.4,24.4,29.65,NW,307,0.0,2.0,96,0.00,,SCT300,0.01,VWS V14.01,2013-02-14 13:16:00,
2013-02-14 07:17:00,25.4,24.4,29.65,NW,307,0.0,2.0,96,0.00,,SCT300,0.01,VWS V14.01,2013-02-14 13:17:00,
2013-02-14 07:18:00,25.4,24.4,29.65,NW,307,0.0,2.0,96,0.00,,SCT300,0.01,VWS V14.01,2013-02-14 13:18:00,
2013-02-14 07:19:00,25.4,24.4,29.65,NW,307,0.0,2.0,96,0.00,,SCT300,0.01,VWS V14.01,2013-02-14 13:19:00,
2013-02-14 07:20:00,25.4,24.4,29.65,NW,307,0.0,2.0,96,0.00,,SCT300,0.01,VWS V14.01,2013-02-14 13:20:00,
2013-02-14 07:21:00,25.4,24.4,29.65,NW,307,0.0,2.0,96,0.00,,SCT300,0.01,VWS V14.01,2013-02-14 13:21:00,
2013-02-14 07:22:00,25.4,24.4,29.65,NW,307,0.0,2.0,96,0.00,,SCT300,0.01,VWS V14.01,2013-02-14 13:22:00,
2013-02-14 07:23:00,25.4,24.4,29.65,NW,307,0.0,2.0,96,0.00,,SCT300,0.01,VWS V14.01,2013-02-14 13:23:00,
2013-02-14 07:24:00,25.4,24.4,29.65,NW,307,0.0,2.0,96,0.00,,SCT300,0.01,VWS V14.01,2013-02-14 13:24:00,
2013-02-14 07:25:00,25.6,24.6,29.65,NW,307,2.0,2.0,96,0.00,,SCT300,0.01,VWS V14.01,2013-02-14 13:25:00,
2013-02-14 07:26:00,25.6,24.6,29.65,NW,307,1.0,5.0,96,0.00,,SCT300,0.01,VWS V14.01,2013-02-14 13:26:00,
2013-02-14 07:27:00,25.6,24.6,29.65,NW,307,0.0,5.0,96,0.00,,SCT300,0.01,VWS V14.01,2013-02-14 13:27:00,
2013-02-14 07:28:00,25.6,24.6,29.65,NW,307,3.0,5.0,96,0.00,,SCT300,0.01,VWS V14.01,2013-02-14 13:28:00,
2013-02-14 07:29:00,25.6,24.6,29.65,NW,307,2.0,5.0,96,0.00,,SCT250,0.01,VWS V14.01,2013-02-14 13:29:00,
2013-02-14 07:30:00,25.7,24.7,29.66,NW,307,0.0,5.0,96,0.00,,SCT250,0.01,VWS V14.01,2013-02-14 13:30:00,
2013-02-14 07:31:00,25.7,24.7,29.66,NW,307,1.0,3.0,96,0.00,,SCT250,0.01,VWS V14.01,2013-02-14 13:31:00,
2013-02-14 07:32:00,25.7,24.7,29.66,NW,307,0.0,3.0,96,0.00,,SCT250,0.01,VWS V14.01,2013-02-14 13:32:00,
2013-02-14 07:33:00,25.7,24.7,29.66,NW,307,2.0,3.0,96,0.00,,SCT250,0.01,VWS V14.01,2013-02-14 13:33:00,
2013-02-14 07:34:00,25.7,24.7,29.66,NW,307,0.0,3.0,96,0.00,,SCT250,0.01,VWS V14.01,2013-02-14 13:34:00,
2013-02-14 07:35:00,25.7,24.7,29.66,NW,307,0.0,3.0,96,0.00,,SCT250,0.01,VWS V14.01,2013-02-14 13:35:00,
2013-02-14 07:36:00,25.7,24.7,29.66,NW,307,3.0,3.0,96,0.00,,SCT250,0.01,VWS V14.01,2013-02-14 13:36:00,
2013-02-14 07:37:00,25.7,24.7,29.66,NW,307,0.0,3.0,96,0.00,,SCT250,0.01,VWS V14.01,2013-02-14 13:37:00,
2013-02-14 07:38:00,25.7,24.7,29.66,NW,307,0.0,3.0,96,0.00,,SCT250,0.01,VWS V14.01,2013-02-14 13:38:00,
2013-02-14 07:39:00,25.7,24.7,29.66,NW,307,2.0,3.0,96,0.00,,SCT250,0.01,VWS V14.01,2013-02-14 13:39:00,
2013-02-14 07:40:00,25.7,24.7,29.66,NW,307,0.0,3.0,96,0.00,,SCT250,0.01,VWS V14.01,2013-02-14 13:40:00,
2013-02-14 07:41:00,25.7,24.7,29.66,NW,305,2.0,3.0,96,0.00,,SCT250,0.01,VWS V14.01,2013-02-14 13:41:00,
2013-02-14 07:42:00,25.7,24.7,29.66,NW,304,3.0,5.0,96,0.00,,SCT250,0.01,VWS V14.01,2013-02-14 13:42:00,
2013-02-14 07:43:00,25.7,24.7,29.66,NW,304,2.0,5.0,96,0.00,,SCT250,0.01,VWS V14.01,2013-02-14 13:43:00,
2013-02-14 07:44:00,25.7,24.7,29.66,NW,304,2.0,5.0,96,0.00,,SCT250,0.01,VWS V14.01,2013-02-14 13:44:00,
2013-02-14 07:45:00,25.7,24.7,29.67,NW,304,0.0,5.0,96,0.00,,SCT250,0.01,VWS V14.01,2013-02-14 13:45:00,
2013-02-14 07:46:00,25.7,24.7,29.67,NW,304,2.0,5.0,96,0.00,,SCT250,0.01,VWS V14.01,2013-02-14 13:46:00,
2013-02-14 07:47:00,25.7,24.7,29.67,NW,304,2.0,5.0,96,0.00,,SCT250,0.01,VWS V14.01,2013-02-14 13:47:00,
2013-02-14 07:48:00,25.7,24.7,29.67,NW,304,0.0,5.0,96,0.00,,SCT250,0.01,VWS V14.01,2013-02-14 13:48:00,
2013-02-14 07:49:00,25.7,24.7,29.67,NW,304,0.0,5.0,96,0.00,,SCT250,0.01,VWS V14.01,2013-02-14 13:49:00,
2013-02-14 07:50:00,25.7,24.7,29.67,NW,304,3.0,5.0,96,0.00,,SCT250,0.01,VWS V14.01,2013-02-14 13:50:00,
2013-02-14 07:51:00,25.7,24.7,29.67,WNW,302,3.0,5.0,96,0.00,,SCT250,0.01,VWS V14.01,2013-02-14 13:51:00,
2013-02-14 07:52:00,25.7,24.7,29.67,WNW,302,1.0,5.0,96,0.00,,SCT250,0.01,VWS V14.01,2013-02-14 13:52:00,
2013-02-14 07:53:00,25.7,24.7,29.67,WNW,302,0.0,5.0,96,0.00,,SCT250,0.01,VWS V14.01,2013-02-14 13:53:00,
2013-02-14 07:54:00,25.7,24.7,29.67,WNW,302,1.0,5.0,96,0.00,,SCT250,0.01,VWS V14.01,2013-02-14 13:54:00,
2013-02-14 07:55:00,25.7,24.7,29.67,WNW,302,1.0,5.0,96,0.00,,SCT250,0.01,VWS V14.01,2013-02-14 13:55:00,
2013-02-14 07:56:00,25.7,24.7,29.67,WNW,297,0.0,5.0,96,0.00,,SCT250,0.01,VWS V14.01,2013-02-14 13:56:00,
2013-02-14 07:57:00,25.7,24.7,29.67,WNW,297,1.0,5.0,96,0.00,,SCT250,0.01,VWS V14.01,2013-02-14 13:57:00,
2013-02-14 07:58:00,25.6,24.6,29.67,WNW,297,0.0,5.0,96,0.00,,SCT250,0.01,VWS V14.01,2013-02-14 13:58:00,
2013-02-14 07:59:00,25.6,24.6,29.67,WNW,297,3.0,5.0,96,0.00,,SCT250,0.01,VWS V14.01,2013-02-14 13:59:00,
2013-02-14 08:00:00,25.6,24.6,29.67,WNW,297,4.0,5.0,96,0.00,,SCT250,0.01,VWS V14.01,2013-02-14 14:00:00,
2013-02-14 08:01:00,25.7,24.7,29.67,WNW,298,2.0,6.0,96,0.00,,SCT250,0.01,VWS V14.01,2013-02-14 14:01:00,
2013-02-14 08:02:00,25.6,24.6,29.67,WNW,297,3.0,6.0,96,0.00,,SCT250,0.01,VWS V14.01,2013-02-14 14:02:00,
2013-02-14 08:03:00,25.6,24.6,29.67,WNW,298,0.0,7.0,96,0.00,,SCT250,0.01,VWS V14.01,2013-02-14 14:03:00,
2013-02-14 08:04:00,25.6,24.6,29.67,WNW,298,4.0,7.0,96,0.00,,SCT250,0.01,VWS V14.01,2013-02-14 14:04:00,
2013-02-14 08:05:00,25.6,24.6,29.67,WNW,298,6.0,8.0,96,0.00,,SCT250,0.01,VWS V14.01,2013-02-14 14:05:00,
2013-02-14 08:06:00,25.6,24.6,29.67,WNW,298,3.0,8.0,96,0.00,,SCT250,0.01,VWS V14.01,2013-02-14 14:06:00,
2013-02-14 08:07:00,25.6,24.6,29.67,NW,305,2.0,8.0,96,0.00,,SCT250,0.01,VWS V14.01,2013-02-14 14:07:00,
2013-02-14 08:08:00,25.6,24.6,29.67,NW,305,2.0,8.0,96,0.00,,SCT250,0.01,VWS V14.01,2013-02-14 14:08:00,
2013-02-14 08:09:00,25.6,24.6,29.67,NW,305,2.0,8.0,96,0.00,,SCT250,0.01,VWS V14.01,2013-02-14 14:09:00,
2013-02-14 08:10:00,25.6,24.6,29.67,NW,305,2.0,8.0,96,0.00,,SCT250,0.01,VWS V14.01,2013-02-14 14:10:00,
2013-02-14 08:11:00,25.6,24.6,29.67,NW,304,3.0,8.0,96,0.00,,SCT250,0.01,VWS V14.01,2013-02-14 14:11:00,
2013-02-14 08:12:00,25.6,24.6,29.67,NW,304,0.0,8.0,96,0.00,,SCT250,0.01,VWS V14.01,2013-02-14 14:12:00,
2013-02-14 08:13:00,25.6,24.6,29.67,NW,304,1.0,8.0,96,0.00,,SCT250,0.01,VWS V14.01,2013-02-14 14:13:00,
2013-02-14 08:14:00,25.6,24.6,29.67,NW,304,0.0,8.0,96,0.00,,SCT250,0.01,VWS V14.01,2013-02-14 14:14:00,
2013-02-14 08:15:00,25.6,24.6,29.67,NW,304,0.0,8.0,96,0.00,,SCT250,0.01,VWS V14.01,2013-02-14 14:15:00,
2013-02-14 08:16:00,25.6,24.6,29.67,NW,304,1.0,8.0,96,0.00,,SCT250,0.01,VWS V14.01,2013-02-14 14:16:00,
2013-02-14 08:17:00,25.6,24.6,29.67,NW,305,2.0,8.0,96,0.00,,SCT250,0.01,VWS V14.01,2013-02-14 14:17:00,
2013-02-14 08:18:00,25.6,24.6,29.67,NW,305,1.0,8.0,96,0.00,,SCT250,0.01,VWS V14.01,2013-02-14 14:18:00,
2013-02-14 08:19:00,25.6,24.6,29.67,NW,305,0.0,8.0,96,0.00,,SCT250,0.01,VWS V14.01,2013-02-14 14:19:00,
2013-02-14 08:20:00,25.6,24.6,29.67,NW,305,2.0,8.0,96,0.00,,SCT250,0.01,VWS V14.01,2013-02-14 14:20:00,
2013-02-14 08:21:00,25.6,24.6,29.67,NW,305,0.0,8.0,96,0.00,,SCT250,0.01,VWS V14.01,2013-02-14 14:21:00,
2013-02-14 08:22:00,25.7,24.7,29.67,NW,305,0.0,8.0,96,0.00,,SCT250,0.01,VWS V14.01,2013-02-14 14:22:00,
2013-02-14 08:23:00,25.7,24.7,29.67,NW,305,0.0,8.0,96,0.00,,SCT250,0.01,VWS V14.01,2013-02-14 14:23:00,
2013-02-14 08:24:00,25.7,24.7,29.67,NW,305,1.0,8.0,96,0.00,,SCT250,0.01,VWS V14.01,2013-02-14 14:24:00,
2013-02-14 08:25:00,25.7,24.7,29.67,NW,305,2.0,8.0,96,0.00,,SCT250,0.01,VWS V14.01,2013-02-14 14:25:00,
2013-02-14 08:26:00,25.7,24.7,29.67,NW,305,1.0,8.0,96,0.00,,SCT250,0.01,VWS V14.01,2013-02-14 14:26:00,
2013-02-14 08:27:00,25.7,24.7,29.67,NW,305,1.0,8.0,96,0.00,,SCT250,0.01,VWS V14.01,2013-02-14 14:27:00,
2013-02-14 08:28:00,25.7,24.7,29.67,NW,305,1.0,8.0,96,0.00,,SCT250,0.01,VWS V14.01,2013-02-14 14:28:00,
2013-02-14 08:29:00,25.7,24.7,29.67,NW,305,2.0,8.0,96,0.00,,SCT250,0.01,VWS V14.01,2013-02-14 14:29:00,
2013-02-14 08:30:00,25.7,24.7,29.68,NW,305,2.0,8.0,96,0.00,,SCT250,0.01,VWS V14.01,2013-02-14 14:30:00,
2013-02-14 08:31:00,25.7,24.7,29.68,NW,305,0.0,4.0,96,0.00,,SCT250,0.01,VWS V14.01,2013-02-14 14:31:00,
2013-02-14 08:32:00,25.7,24.7,29.68,NW,305,1.0,4.0,96,0.00,,SCT250,0.01,VWS V14.01,2013-02-14 14:32:00,
2013-02-14 08:33:00,25.7,24.7,29.68,NW,304,0.0,4.0,96,0.00,,SCT250,0.01,VWS V14.01,2013-02-14 14:33:00,
2013-02-14 08:34:00,25.7,24.7,29.68,NW,305,1.0,4.0,96,0.00,,SCT250,0.01,VWS V14.01,2013-02-14 14:34:00,
2013-02-14 08:35:00,25.7,24.7,29.68,NW,304,1.0,4.0,96,0.00,,SCT250,0.01,VWS V14.01,2013-02-14 14:35:00,
2013-02-14 08:36:00,25.7,24.7,29.68,WNW,302,1.0,4.0,96,0.00,,SCT250,0.01,VWS V14.01,2013-02-14 14:36:00,
2013-02-14 08:37:00,25.7,24.7,29.68,WNW,301,2.0,4.0,96,0.00,,SCT250,0.01,VWS V14.01,2013-02-14 14:37:00,
2013-02-14 08:38:00,25.7,24.7,29.68,WNW,301,1.0,4.0,96,0.00,,SCT250,0.01,VWS V14.01,2013-02-14 14:38:00,
2013-02-14 08:39:00,25.7,24.7,29.68,WNW,301,2.0,4.0,96,0.00,,SCT250,0.01,VWS V14.01,2013-02-14 14:39:00,
2013-02-14 08:40:00,25.7,24.7,29.68,WNW,301,2.0,4.0,96,0.00,,SCT250,0.01,VWS V14.01,2013-02-14 14:40:00,
2013-02-14 08:41:00,25.7,24.7,29.68,WNW,301,0.0,4.0,96,0.00,,SCT250,0.01,VWS V14.01,2013-02-14 14:41:00,
2013-02-14 08:42:00,25.7,24.7,29.68,WNW,301,6.0,6.0,96,0.00,,SCT250,0.01,VWS V14.01,2013-02-14 14:42:00,
2013-02-14 08:43:00,25.7,24.7,29.68,WNW,301,0.0,6.0,96,0.00,,BKN250,0.01,VWS V14.01,2013-02-14 14:43:00,
2013-02-14 08:44:00,25.7,24.7,29.68,WNW,301,1.0,6.0,96,0.00,,BKN250,0.01,VWS V14.01,2013-02-14 14:44:00,
2013-02-14 08:45:00,25.8,24.8,29.68,WNW,298,0.0,6.0,96,0.00,,BKN250,0.01,VWS V14.01,2013-02-14 14:45:00,
2013-02-14 08:46:00,25.8,24.8,29.68,WNW,298,0.0,6.0,96,0.00,,BKN250,0.01,VWS V14.01,2013-02-14 14:46:00,
2013-02-14 08:47:00,25.8,24.8,29.68,WNW,298,1.0,6.0,96,0.00,,BKN250,0.01,VWS V14.01,2013-02-14 14:47:00,
2013-02-14 08:48:00,25.8,24.8,29.68,WNW,297,2.0,6.0,96,0.00,,BKN250,0.01,VWS V14.01,2013-02-14 14:48:00,
2013-02-14 08:49:00,25.8,24.8,29.68,WNW,297,0.0,6.0,96,0.00,,BKN250,0.01,VWS V14.01,2013-02-14 14:49:00,
2013-02-14 08:50:00,26.0,25.0,29.68,WNW,297,0.0,6.0,96,0.00,,BKN250,0.01,VWS V14.01,2013-02-14 14:50:00,
2013-02-14 08:51:00,26.0,25.0,29.68,WNW,297,1.0,6.0,96,0.00,,BKN250,0.01,VWS V14.01,2013-02-14 14:51:00,
2013-02-14 08:52:00,26.0,25.0,29.68,WNW,297,0.0,6.0,96,0.00,,BKN250,0.01,VWS V14.01,2013-02-14 14:52:00,
2013-02-14 08:53:00,26.0,25.0,29.68,NW,304,6.0,7.0,96,0.00,,BKN250,0.01,VWS V14.01,2013-02-14 14:53:00,
2013-02-14 08:54:00,26.1,25.1,29.68,NW,314,6.0,9.0,96,0.00,,BKN250,0.01,VWS V14.01,2013-02-14 14:54:00,
2013-02-14 08:55:00,26.1,25.1,29.68,NW,317,6.0,9.0,96,0.00,,BKN250,0.01,VWS V14.01,2013-02-14 14:55:00,
2013-02-14 08:56:00,26.1,25.1,29.68,NW,317,1.0,9.0,96,0.00,,BKN250,0.01,VWS V14.01,2013-02-14 14:56:00,
2013-02-14 08:57:00,26.1,24.9,29.68,NW,317,5.0,9.0,95,0.00,,BKN250,0.01,VWS V14.01,2013-02-14 14:57:00,
2013-02-14 08:58:00,26.1,24.9,29.68,NW,319,8.0,10.0,95,0.00,,BKN250,0.01,VWS V14.01,2013-02-14 14:58:00,
2013-02-14 08:59:00,26.1,24.9,29.68,NW,319,7.0,10.0,95,0.00,,BKN250,0.01,VWS V14.01,2013-02-14 14:59:00,
2013-02-14 09:00:00,26.1,24.9,29.68,NW,319,2.0,10.0,95,0.00,,BKN250,0.01,VWS V14.01,2013-02-14 15:00:00,
2013-02-14 09:01:00,26.1,24.9,29.68,NW,318,5.0,7.0,95,0.00,,BKN250,0.01,VWS V14.01,2013-02-14 15:01:00,
2013-02-14 09:02:00,26.1,24.9,29.68,NW,305,6.0,8.0,95,0.00,,BKN250,0.01,VWS V14.01,2013-02-14 15:02:00,
2013-02-14 09:03:00,26.1,24.9,29.68,NW,305,5.0,8.0,95,0.00,,BKN250,0.01,VWS V14.01,2013-02-14 15:03:00,
2013-02-14 09:04:00,26.1,24.9,29.68,NW,305,3.0,8.0,95,0.00,,BKN250,0.01,VWS V14.01,2013-02-14 15:04:00,
2013-02-14 09:05:00,26.1,24.9,29.68,NW,307,3.0,8.0,95,0.00,,BKN250,0.01,VWS V14.01,2013-02-14 15:05:00,
2013-02-14 09:06:00,26.1,24.9,29.68,NW,307,0.0,8.0,95,0.00,,BKN250,0.01,VWS V14.01,2013-02-14 15:06:00,
2013-02-14 09:07:00,26.1,24.9,29.68,NNW,331,6.0,8.0,95,0.00,,BKN250,0.01,VWS V14.01,2013-02-14 15:07:00,
2013-02-14 09:08:00,26.3,25.1,29.68,NW,326,5.0,9.0,95,0.00,,BKN250,0.01,VWS V14.01,2013-02-14 15:08:00,
2013-02-14 09:09:00,26.3,25.1,29.68,NW,324,5.0,9.0,95,0.00,,BKN250,0.01,VWS V14.01,2013-02-14 15:09:00,
2013-02-14 09:10:00,26.3,25.1,29.68,NW,325,6.0,9.0,95,0.00,,BKN250,0.01,VWS V14.01,2013-02-14 15:10:00,
2013-02-14 09:11:00,26.3,25.1,29.68,NNW,345,6.0,9.0,95,0.00,,BKN250,0.01,VWS V14.01,2013-02-14 15:11:00,
2013-02-14 09:12:00,26.3,25.1,29.68,NNW,332,5.0,9.0,95,0.00,,BKN250,0.01,VWS V14.01,2013-02-14 15:12:00,
2013-02-14 09:13:00,26.3,25.1,29.68,NW,325,8.0,9.0,95,0.00,,BKN250,0.01,VWS V14.01,2013-02-14 15:13:00,
2013-02-14 09:14:00,26.3,25.1,29.68,NW,321,5.0,9.0,95,0.00,,BKN250,0.01,VWS V14.01,2013-02-14 15:14:00,
2013-02-14 09:15:00,26.3,25.1,29.69,NW,318,2.0,9.0,95,0.00,,BKN250,0.01,VWS V14.01,2013-02-14 15:15:00,
2013-02-14 09:16:00,26.3,25.1,29.69,NW,318,5.0,9.0,95,0.00,,BKN250,0.01,VWS V14.01,2013-02-14 15:16:00,
2013-02-14 09:17:00,26.3,25.1,29.69,NW,321,3.0,9.0,95,0.00,,BKN250,0.01,VWS V14.01,2013-02-14 15:17:00,
2013-02-14 09:18:00,26.4,25.2,29.69,NW,322,6.0,9.0,95,0.00,,BKN250,0.01,VWS V14.01,2013-02-14 15:18:00,
2013-02-14 09:19:00,26.4,25.2,29.69,NW,322,5.0,9.0,95,0.00,,BKN250,0.01,VWS V14.01,2013-02-14 15:19:00,
2013-02-14 09:20:00,26.4,25.2,29.69,NW,322,5.0,9.0,95,0.00,,BKN250,0.01,VWS V14.01,2013-02-14 15:20:00,
2013-02-14 09:21:00,26.4,25.2,29.69,NW,322,1.0,9.0,95,0.00,,BKN250,0.01,VWS V14.01,2013-02-14 15:21:00,
2013-02-14 09:22:00,26.4,25.2,29.69,NW,317,1.0,9.0,95,0.00,,BKN250,0.01,VWS V14.01,2013-02-14 15:22:00,
2013-02-14 09:23:00,26.6,25.4,29.69,WNW,302,2.0,9.0,95,0.00,,BKN250,0.01,VWS V14.01,2013-02-14 15:23:00,
2013-02-14 09:24:00,26.6,25.4,29.69,WNW,297,0.0,9.0,95,0.00,,BKN250,0.01,VWS V14.01,2013-02-14 15:24:00,
2013-02-14 09:25:00,26.6,25.4,29.69,WNW,297,2.0,9.0,95,0.00,,BKN250,0.01,VWS V14.01,2013-02-14 15:25:00,
2013-02-14 09:26:00,26.6,25.4,29.69,WNW,294,1.0,9.0,95,0.00,,BKN250,0.01,VWS V14.01,2013-02-14 15:26:00,
2013-02-14 09:27:00,26.6,25.4,29.69,WNW,294,0.0,9.0,95,0.00,,BKN250,0.01,VWS V14.01,2013-02-14 15:27:00,
2013-02-14 09:28:00,26.6,25.4,29.69,WNW,294,2.0,9.0,95,0.00,,BKN250,0.01,VWS V14.01,2013-02-14 15:28:00,
2013-02-14 09:29:00,26.6,25.4,29.69,WNW,293,3.0,9.0,95,0.00,,BKN250,0.01,VWS V14.01,2013-02-14 15:29:00,
2013-02-14 09:30:00,26.6,25.4,29.69,WNW,293,2.0,9.0,95,0.00,,BKN250,0.01,VWS V14.01,2013-02-14 15:30:00,
2013-02-14 09:31:00,26.6,25.4,29.69,WNW,291,1.0,3.0,95,0.00,,BKN250,0.01,VWS V14.01,2013-02-14 15:31:00,
2013-02-14 09:32:00,26.6,25.4,29.69,WNW,291,1.0,3.0,95,0.00,,BKN250,0.01,VWS V14.01,2013-02-14 15:32:00,
2013-02-14 09:33:00,26.7,25.5,29.69,WNW,293,0.0,3.0,95,0.00,,BKN250,0.01,VWS V14.01,2013-02-14 15:33:00,
2013-02-14 09:34:00,26.6,25.4,29.69,WNW,293,2.0,3.0,95,0.00,,BKN250,0.01,VWS V14.01,2013-02-14 15:34:00,
2013-02-14 09:35:00,26.7,25.5,29.69,WNW,291,2.0,3.0,95,0.00,,BKN250,0.01,VWS V14.01,2013-02-14 15:35:00,
2013-02-14 09:36:00,26.7,25.5,29.69,WNW,291,1.0,3.0,95,0.00,,BKN250,0.01,VWS V14.01,2013-02-14 15:36:00,
2013-02-14 09:37:00,26.7,25.5,29.69,WNW,291,1.0,3.0,95,0.00,,BKN250,0.01,VWS V14.01,2013-02-14 15:37:00,
2013-02-14 09:38:00,26.7,25.5,29.69,WNW,291,1.0,3.0,95,0.00,,BKN250,0.01,VWS V14.01,2013-02-14 15:38:00,
2013-02-14 09:39:00,26.7,25.5,29.69,WNW,291,1.0,3.0,95,0.00,,BKN250,0.01,VWS V14.01,2013-02-14 15:39:00,
2013-02-14 09:40:00,26.7,25.5,29.69,WNW,291,1.0,6.0,95,0.00,,BKN250,0.01,VWS V14.01,2013-02-14 15:40:00,
2013-02-14 09:41:00,26.7,25.5,29.69,WNW,291,2.0,6.0,95,0.00,,BKN250,0.01,VWS V14.01,2013-02-14 15:41:00,
2013-02-14 09:42:00,26.7,25.5,29.69,WNW,290,1.0,6.0,95,0.00,,BKN250,0.01,VWS V14.01,2013-02-14 15:42:00,
2013-02-14 09:43:00,26.7,25.5,29.69,WNW,290,0.0,6.0,95,0.00,,BKN250,0.01,VWS V14.01,2013-02-14 15:43:00,
2013-02-14 09:44:00,26.7,25.5,29.69,WNW,288,3.0,6.0,95,0.00,,BKN250,0.01,VWS V14.01,2013-02-14 15:44:00,
2013-02-14 09:45:00,26.7,25.5,29.70,WNW,288,1.0,6.0,95,0.00,,BKN250,0.01,VWS V14.01,2013-02-14 15:45:00,
2013-02-14 09:46:00,26.7,25.5,29.70,WNW,288,2.0,6.0,95,0.00,,BKN250,0.01,VWS V14.01,2013-02-14 15:46:00,
2013-02-14 09:47:00,26.7,25.2,29.70,WNW,288,2.0,6.0,94,0.00,,BKN250,0.01,VWS V14.01,2013-02-14 15:47:00,
2013-02-14 09:48:00,26.7,25.2,29.70,WNW,288,1.0,6.0,94,0.00,,BKN250,0.01,VWS V14.01,2013-02-14 15:48:00,
2013-02-14 09:49:00,26.7,25.2,29.70,WNW,288,1.0,6.0,94,0.00,,BKN250,0.01,VWS V14.01,2013-02-14 15:49:00,
2013-02-14 09:50:00,26.7,25.2,29.70,WNW,288,3.0,6.0,94,0.00,,BKN250,0.01,VWS V14.01,2013-02-14 15:50:00,
2013-02-14 09:51:00,26.7,25.5,29.70,WNW,288,3.0,6.0,95,0.00,,BKN250,0.01,VWS V14.01,2013-02-14 15:51:00,
2013-02-14 09:52:00,26.7,25.5,29.70,WNW,288,0.0,6.0,95,0.00,,BKN250,0.01,VWS V14.01,2013-02-14 15:52:00,
2013-02-14 09:53:00,26.7,25.5,29.70,WNW,287,1.0,6.0,95,0.00,,BKN250,0.01,VWS V14.01,2013-02-14 15:53:00,
2013-02-14 09:54:00,26.7,25.5,29.70,WNW,288,0.0,6.0,95,0.00,,BKN250,0.01,VWS V14.01,2013-02-14 15:54:00,
2013-02-14 09:55:00,26.7,25.5,29.70,WNW,288,0.0,6.0,95,0.00,,BKN250,0.01,VWS V14.01,2013-02-14 15:55:00,
2013-02-14 09:56:00,26.9,25.7,29.70,WNW,288,0.0,6.0,95,0.00,,BKN250,0.01,VWS V14.01,2013-02-14 15:56:00,
2013-02-14 09:57:00,26.9,25.7,29.70,WNW,288,1.0,6.0,95,0.00,,BKN250,0.01,VWS V14.01,2013-02-14 15:57:00,
2013-02-14 09:58:00,26.9,25.7,29.70,WNW,288,0.0,6.0,95,0.00,,BKN250,0.01,VWS V14.01,2013-02-14 15:58:00,
2013-02-14 09:59:00,26.9,25.7,29.70,WNW,287,1.0,6.0,95,0.00,,BKN250,0.01,VWS V14.01,2013-02-14 15:59:00,
2013-02-14 10:00:00,26.9,25.7,29.70,WNW,288,1.0,6.0,95,0.00,,BKN250,0.01,VWS V14.01,2013-02-14 16:00:00,
2013-02-14 10:01:00,26.9,25.4,29.70,WNW,288,0.0,3.0,94,0.00,,BKN250,0.01,VWS V14.01,2013-02-14 16:01:00,
2013-02-14 10:02:00,27.0,25.8,29.70,WNW,288,0.0,3.0,95,0.00,,BKN250,0.01,VWS V14.01,2013-02-14 16:02:00,
2013-02-14 10:03:00,27.0,25.8,29.70,WNW,288,2.0,3.0,95,0.00,,BKN250,0.01,VWS V14.01,2013-02-14 16:03:00,
2013-02-14 10:04:00,27.0,25.8,29.70,WNW,288,1.0,5.0,95,0.00,,BKN250,0.01,VWS V14.01,2013-02-14 16:04:00,
2013-02-14 10:05:00,27.0,25.8,29.70,WNW,288,1.0,5.0,95,0.00,,BKN250,0.01,VWS V14.01,2013-02-14 16:05:00,
2013-02-14 10:06:00,27.0,25.8,29.70,WNW,288,0.0,5.0,95,0.00,,BKN250,0.01,VWS V14.01,2013-02-14 16:06:00,
2013-02-14 10:07:00,27.2,26.0,29.70,WNW,288,1.0,5.0,95,0.00,,BKN250,0.01,VWS V14.01,2013-02-14 16:07:00,
2013-02-14 10:08:00,27.2,26.0,29.70,WNW,287,0.0,6.0,95,0.00,,BKN250,0.01,VWS V14.01,2013-02-14 16:08:00,
2013-02-14 10:09:00,27.2,26.0,29.70,WNW,287,0.0,6.0,95,0.00,,BKN250,0.01,VWS V14.01,2013-02-14 16:09:00,
2013-02-14 10:10:00,27.2,26.0,29.70,WNW,287,0.0,6.0,95,0.00,,BKN250,0.01,VWS V14.01,2013-02-14 16:10:00,
2013-02-14 10:11:00,27.2,26.0,29.70,WNW,287,2.0,6.0,95,0.00,,BKN250,0.01,VWS V14.01,2013-02-14 16:11:00,
2013-02-14 10:12:00,27.3,26.1,29.70,WNW,287,4.0,6.0,95,0.00,,BKN250,0.01,VWS V14.01,2013-02-14 16:12:00,
2013-02-14 10:13:00,27.3,26.1,29.70,WNW,287,1.0,6.0,95,0.00,,BKN250,0.01,VWS V14.01,2013-02-14 16:13:00,
2013-02-14 10:14:00,27.3,26.1,29.70,WNW,287,3.0,6.0,95,0.00,,BKN250,0.01,VWS V14.01,2013-02-14 16:14:00,
2013-02-14 10:15:00,27.3,25.8,29.70,WNW,288,4.0,6.0,94,0.00,,BKN250,0.01,VWS V14.01,2013-02-14 16:15:00,
2013-02-14 10:16:00,27.3,26.1,29.70,WNW,298,3.0,7.0,95,0.00,,BKN250,0.01,VWS V14.01,2013-02-14 16:16:00,
2013-02-14 10:17:00,27.3,26.1,29.70,WNW,298,0.0,7.0,95,0.00,,BKN250,0.01,VWS V14.01,2013-02-14 16:17:00,
2013-02-14 10:18:00,27.5,26.3,29.70,WNW,298,3.0,7.0,95,0.00,,BKN250,0.01,VWS V14.01,2013-02-14 16:18:00,
2013-02-14 10:19:00,27.5,26.3,29.70,WNW,298,0.0,7.0,95,0.00,,BKN250,0.01,VWS V14.01,2013-02-14 16:19:00,
2013-02-14 10:20:00,27.5,26.3,29.70,WNW,300,2.0,7.0,95,0.00,,BKN250,0.01,VWS V14.01,2013-02-14 16:20:00,
2013-02-14 10:21:00,27.5,26.3,29.70,WNW,300,0.0,7.0,95,0.00,,BKN250,0.01,VWS V14.01,2013-02-14 16:21:00,
2013-02-14 10:22:00,27.5,26.3,29.70,WNW,295,3.0,7.0,95,0.00,,BKN250,0.01,VWS V14.01,2013-02-14 16:22:00,
2013-02-14 10:23:00,27.5,26.0,29.70,WNW,291,1.0,7.0,94,0.00,,BKN250,0.01,VWS V14.01,2013-02-14 16:23:00,
2013-02-14 10:24:00,27.5,26.0,29.70,WNW,291,3.0,7.0,94,0.00,,BKN250,0.01,VWS V14.01,2013-02-14 16:24:00,
2013-02-14 10:25:00,27.5,26.0,29.70,WNW,291,0.0,7.0,94,0.00,,BKN250,0.01,VWS V14.01,2013-02-14 16:25:00,
2013-02-14 10:26:00,27.5,26.0,29.70,WNW,291,0.0,7.0,94,0.00,,BKN250,0.01,VWS V14.01,2013-02-14 16:26:00,
2013-02-14 10:27:00,27.5,26.3,29.70,WNW,290,5.0,7.0,95,0.00,,BKN250,0.01,VWS V14.01,2013-02-14 16:27:00,
2013-02-14 10:28:00,27.6,26.4,29.70,WNW,290,1.0,7.0,95,0.00,,BKN250,0.01,VWS V14.01,2013-02-14 16:28:00,
2013-02-14 10:29:00,27.6,26.4,29.70,WNW,283,0.0,7.0,95,0.00,,BKN250,0.01,VWS V14.01,2013-02-14 16:29:00,
2013-02-14 10:30:00,27.6,26.4,29.71,WNW,283,0.0,7.0,95,0.00,,BKN250,0.01,VWS V14.01,2013-02-14 16:30:00,
2013-02-14 10:31:00,27.6,26.4,29.71,WNW,283,0.0,3.0,95,0.00,,BKN250,0.01,VWS V14.01,2013-02-14 16:31:00,
2013-02-14 10:32:00,27.6,26.4,29.71,WNW,283,1.0,3.0,95,0.00,,BKN250,0.01,VWS V14.01,2013-02-14 16:32:00,
2013-02-14 10:33:00,27.6,26.4,29.71,WNW,283,0.0,3.0,95,0.00,,BKN250,0.01,VWS V14.01,2013-02-14 16:33:00,
2013-02-14 10:34:00,27.8,26.6,29.71,WNW,283,2.0,3.0,95,0.00,,BKN250,0.01,VWS V14.01,2013-02-14 16:34:00,
2013-02-14 10:35:00,27.8,26.6,29.71,WNW,283,2.0,3.0,95,0.00,,BKN250,0.01,VWS V14.01,2013-02-14 16:35:00,
2013-02-14 10:36:00,27.8,26.6,29.71,WNW,283,0.0,3.0,95,0.00,,BKN250,0.01,VWS V14.01,2013-02-14 16:36:00,
2013-02-14 10:37:00,27.8,26.3,29.71,WNW,283,0.0,5.0,94,0.00,,BKN250,0.01,VWS V14.01,2013-02-14 16:37:00,
2013-02-14 10:38:00,27.8,26.3,29.71,WNW,283,1.0,6.0,94,0.00,,BKN250,0.01,VWS V14.01,2013-02-14 16:38:00,
2013-02-14 10:39:00,27.8,26.3,29.71,West,281,3.0,6.0,94,0.00,,BKN250,0.01,VWS V14.01,2013-02-14 16:39:00,
2013-02-14 10:40:00,27.8,26.3,29.71,West,281,0.0,6.0,94,0.00,,BKN250,0.01,VWS V14.01,2013-02-14 16:40:00,
2013-02-14 10:41:00,27.8,26.3,29.71,West,281,0.0,6.0,94,0.00,,BKN250,0.01,VWS V14.01,2013-02-14 16:41:00,
2013-02-14 10:42:00,27.8,26.3,29.71,West,281,0.0,6.0,94,0.00,,BKN250,0.01,VWS V14.01,2013-02-14 16:42:00,
2013-02-14 10:43:00,27.6,26.1,29.71,West,274,1.0,6.0,94,0.00,,BKN130,0.01,VWS V14.01,2013-02-14 16:43:00,
2013-02-14 10:44:00,27.6,26.1,29.71,West,274,0.0,7.0,94,0.00,,BKN130,0.01,VWS V14.01,2013-02-14 16:44:00,
2013-02-14 10:45:00,27.6,26.1,29.72,West,270,0.0,7.0,94,0.00,,BKN130,0.01,VWS V14.01,2013-02-14 16:45:00,
2013-02-14 10:46:00,27.6,26.1,29.72,West,270,7.0,7.0,94,0.00,,BKN130,0.01,VWS V14.01,2013-02-14 16:46:00,
2013-02-14 10:47:00,27.6,26.1,29.72,West,270,0.0,7.0,94,0.00,,BKN130,0.01,VWS V14.01,2013-02-14 16:47:00,
2013-02-14 10:48:00,27.6,26.1,29.72,West,270,0.0,7.0,94,0.00,,BKN130,0.01,VWS V14.01,2013-02-14 16:48:00,
2013-02-14 10:49:00,27.6,26.1,29.72,West,274,2.0,7.0,94,0.00,,BKN130,0.01,VWS V14.01,2013-02-14 16:49:00,
2013-02-14 10:50:00,27.6,26.1,29.72,West,276,0.0,7.0,94,0.00,,BKN130,0.01,VWS V14.01,2013-02-14 16:50:00,
2013-02-14 10:51:00,27.6,26.1,29.72,West,276,4.0,7.0,94,0.00,,BKN130,0.01,VWS V14.01,2013-02-14 16:51:00,
2013-02-14 10:52:00,27.6,26.1,29.72,West,276,1.0,7.0,94,0.00,,BKN130,0.01,VWS V14.01,2013-02-14 16:52:00,
2013-02-14 10:53:00,27.6,26.1,29.72,West,276,3.0,7.0,94,0.00,,BKN130,0.01,VWS V14.01,2013-02-14 16:53:00,
2013-02-14 10:54:00,27.6,26.1,29.72,West,276,3.0,7.0,94,0.00,,BKN130,0.01,VWS V14.01,2013-02-14 16:54:00,
2013-02-14 10:55:00,27.6,26.1,29.72,West,274,5.0,7.0,94,0.00,,BKN130,0.01,VWS V14.01,2013-02-14 16:55:00,
2013-02-14 10:56:00,27.6,26.1,29.72,West,274,2.0,7.0,94,0.00,,BKN130,0.01,VWS V14.01,2013-02-14 16:56:00,
2013-02-14 10:57:00,27.6,26.1,29.72,West,274,3.0,7.0,94,0.00,,BKN130,0.01,VWS V14.01,2013-02-14 16:57:00,
2013-02-14 10:58:00,27.6,26.1,29.72,West,271,2.0,7.0,94,0.00,,BKN130,0.01,VWS V14.01,2013-02-14 16:58:00,
2013-02-14 10:59:00,27.6,26.1,29.72,West,271,2.0,7.0,94,0.00,,BKN130,0.01,VWS V14.01,2013-02-14 16:59:00,
2013-02-14 11:00:00,27.6,26.1,29.72,West,271,4.0,7.0,94,0.00,,BKN130,0.01,VWS V14.01,2013-02-14 17:00:00,
2013-02-14 11:01:00,27.6,26.1,29.72,West,271,2.0,5.0,94,0.00,,BKN130,0.01,VWS V14.01,2013-02-14 17:01:00,
2013-02-14 11:02:00,27.8,26.3,29.72,West,271,0.0,5.0,94,0.00,,BKN130,0.01,VWS V14.01,2013-02-14 17:02:00,
2013-02-14 11:03:00,27.8,26.3,29.72,West,271,0.0,5.0,94,0.00,,BKN130,0.01,VWS V14.01,2013-02-14 17:03:00,
2013-02-14 11:04:00,27.8,26.3,29.72,West,270,0.0,5.0,94,0.00,,BKN130,0.01,VWS V14.01,2013-02-14 17:04:00,
2013-02-14 11:05:00,27.9,26.4,29.72,West,270,0.0,7.0,94,0.00,,BKN130,0.01,VWS V14.01,2013-02-14 17:05:00,
2013-02-14 11:06:00,27.9,26.4,29.72,West,270,2.0,7.0,94,0.00,,BKN130,0.01,VWS V14.01,2013-02-14 17:06:00,
2013-02-14 11:07:00,27.9,26.4,29.72,West,270,2.0,7.0,94,0.00,,BKN130,0.01,VWS V14.01,2013-02-14 17:07:00,
2013-02-14 11:08:00,27.9,26.1,29.72,West,270,0.0,7.0,93,0.00,,BKN130,0.01,VWS V14.01,2013-02-14 17:08:00,
2013-02-14 11:09:00,27.8,26.0,29.72,West,273,3.0,7.0,93,0.00,,BKN130,0.01,VWS V14.01,2013-02-14 17:09:00,
2013-02-14 11:10:00,27.8,26.0,29.72,West,273,2.0,7.0,93,0.00,,BKN130,0.01,VWS V14.01,2013-02-14 17:10:00,
2013-02-14 11:11:00,27.8,26.0,29.72,West,273,1.0,7.0,93,0.00,,BKN130,0.01,VWS V14.01,2013-02-14 17:11:00,
2013-02-14 11:12:00,27.9,26.4,29.72,West,273,0.0,7.0,94,0.00,,BKN130,0.01,VWS V14.01,2013-02-14 17:12:00,
2013-02-14 11:13:00,27.9,26.4,29.72,West,273,0.0,7.0,94,0.00,,BKN130,0.01,VWS V14.01,2013-02-14 17:13:00,
2013-02-14 11:14:00,27.9,26.4,29.72,West,273,1.0,7.0,94,0.00,,BKN130,0.01,VWS V14.01,2013-02-14 17:14:00,
2013-02-14 11:15:00,27.9,26.4,29.73,West,274,2.0,7.0,94,0.00,,BKN130,0.01,VWS V14.01,2013-02-14 17:15:00,
2013-02-14 11:16:00,27.9,26.1,29.73,West,274,1.0,7.0,93,0.00,,BKN130,0.01,VWS V14.01,2013-02-14 17:16:00,
2013-02-14 11:17:00,27.9,26.4,29.73,West,274,1.0,7.0,94,0.00,,BKN130,0.01,VWS V14.01,2013-02-14 17:17:00,
2013-02-14 11:18:00,27.9,26.4,29.73,West,273,2.0,7.0,94,0.00,,BKN130,0.01,VWS V14.01,2013-02-14 17:18:00,
2013-02-14 11:19:00,27.9,26.1,29.73,West,276,1.0,7.0,93,0.00,,BKN130,0.01,VWS V14.01,2013-02-14 17:19:00,
2013-02-14 11:20:00,27.9,26.1,29.73,West,276,0.0,7.0,93,0.00,,BKN130,0.01,VWS V14.01,2013-02-14 17:20:00,
2013-02-14 11:21:00,28.1,26.3,29.73,West,276,1.0,7.0,93,0.00,,BKN130,0.01,VWS V14.01,2013-02-14 17:21:00,
2013-02-14 11:22:00,28.1,26.6,29.73,West,276,1.0,7.0,94,0.00,,BKN130,0.01,VWS V14.01,2013-02-14 17:22:00,
2013-02-14 11:23:00,28.1,26.6,29.73,WNW,288,2.0,7.0,94,0.00,,BKN130,0.01,VWS V14.01,2013-02-14 17:23:00,
2013-02-14 11:24:00,28.1,26.6,29.73,WNW,288,1.0,7.0,94,0.00,,BKN130,0.01,VWS V14.01,2013-02-14 17:24:00,
2013-02-14 11:25:00,28.1,26.6,29.73,West,274,2.0,7.0,94,0.00,,BKN130,0.01,VWS V14.01,2013-02-14 17:25:00,
2013-02-14 11:26:00,28.1,26.3,29.73,West,271,1.0,7.0,93,0.00,,BKN130,0.01,VWS V14.01,2013-02-14 17:26:00,
2013-02-14 11:27:00,28.1,26.3,29.73,West,273,0.0,7.0,93,0.00,,BKN130,0.01,VWS V14.01,2013-02-14 17:27:00,
2013-02-14 11:28:00,28.1,26.3,29.73,West,273,1.0,7.0,93,0.00,,BKN130,0.01,VWS V14.01,2013-02-14 17:28:00,
2013-02-14 11:29:00,28.1,26.3,29.73,West,281,3.0,7.0,93,0.00,,OVC041,0.01,VWS V14.01,2013-02-14 17:29:00,
2013-02-14 11:30:00,28.1,26.3,29.73,West,276,0.0,7.0,93,0.00,,OVC041,0.01,VWS V14.01,2013-02-14 17:30:00,
2013-02-14 11:31:00,27.9,26.1,29.73,West,278,2.0,5.0,93,0.00,,OVC041,0.01,VWS V14.01,2013-02-14 17:31:00,
2013-02-14 11:32:00,27.9,26.1,29.73,West,277,6.0,8.0,93,0.00,,OVC041,0.01,VWS V14.01,2013-02-14 17:32:00,
2013-02-14 11:33:00,27.9,26.1,29.73,West,277,0.0,8.0,93,0.00,,OVC041,0.01,VWS V14.01,2013-02-14 17:33:00,
2013-02-14 11:34:00,27.9,26.1,29.73,West,277,8.0,8.0,93,0.00,,OVC041,0.01,VWS V14.01,2013-02-14 17:34:00,
2013-02-14 11:35:00,27.8,26.0,29.73,WNW,294,6.0,8.0,93,0.00,,OVC041,0.01,VWS V14.01,2013-02-14 17:35:00,
2013-02-14 11:36:00,27.8,26.0,29.73,West,270,2.0,8.0,93,0.00,,OVC041,0.01,VWS V14.01,2013-02-14 17:36:00,
2013-02-14 11:37:00,27.8,26.0,29.73,West,270,2.0,8.0,93,0.00,,OVC041,0.01,VWS V14.01,2013-02-14 17:37:00,
2013-02-14 11:38:00,27.8,26.0,29.73,West,270,0.0,8.0,93,0.00,,OVC041,0.01,VWS V14.01,2013-02-14 17:38:00,
2013-02-14 11:39:00,27.8,26.0,29.73,West,270,0.0,8.0,93,0.00,,OVC041,0.01,VWS V14.01,2013-02-14 17:39:00,
2013-02-14 11:40:00,27.8,26.0,29.73,West,280,2.0,8.0,93,0.00,,OVC041,0.01,VWS V14.01,2013-02-14 17:40:00,
2013-02-14 11:41:00,27.8,26.0,29.73,West,280,0.0,8.0,93,0.00,,OVC041,0.01,VWS V14.01,2013-02-14 17:41:00,
2013-02-14 11:42:00,27.8,26.0,29.73,West,280,0.0,8.0,93,0.00,,OVC041,0.01,VWS V14.01,2013-02-14 17:42:00,
2013-02-14 11:43:00,27.9,26.1,29.73,West,274,0.0,8.0,93,0.00,,OVC041,0.01,VWS V14.01,2013-02-14 17:43:00,
2013-02-14 11:44:00,27.9,26.1,29.73,NW,307,8.0,8.0,93,0.00,,OVC041,0.01,VWS V14.01,2013-02-14 17:44:00,
2013-02-14 11:45:00,27.9,26.1,29.73,NW,307,2.0,8.0,93,0.00,,OVC041,0.01,VWS V14.01,2013-02-14 17:45:00,
2013-02-14 11:46:00,27.9,26.1,29.73,WNW,294,1.0,8.0,93,0.00,,OVC041,0.01,VWS V14.01,2013-02-14 17:46:00,
2013-02-14 11:47:00,27.9,26.1,29.73,WNW,301,0.0,8.0,93,0.00,,OVC041,0.01,VWS V14.01,2013-02-14 17:47:00,
2013-02-14 11:48:00,27.9,26.1,29.73,WNW,293,4.0,8.0,93,0.00,,OVC041,0.01,VWS V14.01,2013-02-14 17:48:00,
2013-02-14 11:49:00,27.9,26.1,29.73,West,273,1.0,8.0,93,0.00,,OVC041,0.01,VWS V14.01,2013-02-14 17:49:00,
2013-02-14 11:50:00,27.9,26.1,29.73,West,273,2.0,8.0,93,0.00,,OVC041,0.01,VWS V14.01,2013-02-14 17:50:00,
2013-02-14 11:51:00,27.9,26.1,29.73,West,273,0.0,8.0,93,0.00,,OVC041,0.01,VWS V14.01,2013-02-14 17:51:00,
2013-02-14 11:52:00,27.9,26.1,29.73,West,274,1.0,8.0,93,0.00,,OVC041,0.01,VWS V14.01,2013-02-14 17:52:00,
2013-02-14 11:53:00,27.9,26.1,29.73,West,277,4.0,8.0,93,0.00,,OVC041,0.01,VWS V14.01,2013-02-14 17:53:00,
2013-02-14 11:54:00,27.9,26.1,29.73,West,277,1.0,8.0,93,0.00,,OVC041,0.01,VWS V14.01,2013-02-14 17:54:00,
2013-02-14 11:55:00,27.9,26.1,29.73,West,278,0.0,8.0,93,0.00,,OVC041,0.01,VWS V14.01,2013-02-14 17:55:00,
2013-02-14 11:56:00,27.9,26.1,29.73,NW,317,1.0,8.0,93,0.00,,OVC041,0.01,VWS V14.01,2013-02-14 17:56:00,
2013-02-14 11:57:00,27.9,26.1,29.73,NW,311,1.0,8.0,93,0.00,,OVC041,0.01,VWS V14.01,2013-02-14 17:57:00,
2013-02-14 11:58:00,27.9,26.1,29.73,WNW,300,2.0,8.0,93,0.00,,OVC041,0.01,VWS V14.01,2013-02-14 17:58:00,
2013-02-14 11:59:00,27.9,26.1,29.73,WNW,298,1.0,8.0,93,0.00,,OVC041,0.01,VWS V14.01,2013-02-14 17:59:00,
2013-02-14 12:00:00,27.9,26.1,29.73,NNW,334,10.0,11.0,93,0.00,,OVC041,0.01,VWS V14.01,2013-02-14 18:00:00,
2013-02-14 12:01:00,27.9,26.1,29.73,West,281,4.0,10.0,93,0.00,,OVC041,0.01,VWS V14.01,2013-02-14 18:01:00,
2013-02-14 12:02:00,27.9,25.9,29.73,WNW,295,0.0,10.0,92,0.00,,OVC041,0.01,VWS V14.01,2013-02-14 18:02:00,
2013-02-14 12:03:00,27.8,25.8,29.73,WNW,284,1.0,10.0,92,0.00,,OVC041,0.01,VWS V14.01,2013-02-14 18:03:00,
2013-02-14 12:04:00,27.8,25.8,29.73,WNW,297,2.0,10.0,92,0.00,,OVC041,0.01,VWS V14.01,2013-02-14 18:04:00,
2013-02-14 12:05:00,27.8,25.8,29.73,WNW,290,6.0,10.0,92,0.00,,OVC041,0.01,VWS V14.01,2013-02-14 18:05:00,
2013-02-14 12:06:00,27.6,25.6,29.73,WNW,302,1.0,10.0,92,0.00,,OVC041,0.01,VWS V14.01,2013-02-14 18:06:00,
2013-02-14 12:07:00,27.6,25.6,29.73,WNW,288,0.0,10.0,92,0.00,,OVC041,0.01,VWS V14.01,2013-02-14 18:07:00,
2013-02-14 12:08:00,27.6,25.6,29.73,West,277,4.0,10.0,92,0.00,,OVC041,0.01,VWS V14.01,2013-02-14 18:08:00,
2013-02-14 12:09:00,27.6,25.6,29.73,NW,308,1.0,10.0,92,0.00,,OVC041,0.01,VWS V14.01,2013-02-14 18:09:00,
2013-02-14 12:10:00,27.6,25.6,29.73,West,280,5.0,10.0,92,0.00,,OVC041,0.01,VWS V14.01,2013-02-14 18:10:00,
2013-02-14 12:11:00,27.6,25.6,29.73,NW,308,6.0,10.0,92,0.00,,OVC041,0.01,VWS V14.01,2013-02-14 18:11:00,
2013-02-14 12:12:00,27.6,25.6,29.73,NW,307,3.0,10.0,92,0.00,,OVC041,0.01,VWS V14.01,2013-02-14 18:12:00,
2013-02-14 12:13:00,27.6,25.6,29.73,NW,307,1.0,10.0,92,0.00,,OVC041,0.01,VWS V14.01,2013-02-14 18:13:00,
2013-02-14 12:14:00,27.8,25.8,29.73,WNW,286,0.0,10.0,92,0.00,,OVC041,0.01,VWS V14.01,2013-02-14 18:14:00,
2013-02-14 12:15:00,27.8,25.8,29.74,West,277,1.0,10.0,92,0.00,,OVC041,0.01,VWS V14.01,2013-02-14 18:15:00,
2013-02-14 12:16:00,27.8,25.8,29.74,West,280,5.0,10.0,92,0.00,,OVC041,0.01,VWS V14.01,2013-02-14 18:16:00,
2013-02-14 12:17:00,27.8,25.8,29.74,West,277,3.0,10.0,92,0.00,,OVC041,0.01,VWS V14.01,2013-02-14 18:17:00,
2013-02-14 12:18:00,27.8,25.8,29.74,WNW,302,7.0,10.0,92,0.00,,OVC041,0.01,VWS V14.01,2013-02-14 18:18:00,
2013-02-14 12:19:00,27.8,25.8,29.74,West,281,3.0,10.0,92,0.00,,OVC041,0.01,VWS V14.01,2013-02-14 18:19:00,
2013-02-14 12:20:00,27.8,25.8,29.74,WNW,283,3.0,10.0,92,0.00,,OVC041,0.01,VWS V14.01,2013-02-14 18:20:00,
2013-02-14 12:21:00,27.8,25.8,29.74,WNW,283,2.0,10.0,92,0.00,,OVC041,0.01,VWS V14.01,2013-02-14 18:21:00,
2013-02-14 12:22:00,27.8,25.8,29.74,WNW,287,6.0,10.0,92,0.00,,OVC041,0.01,VWS V14.01,2013-02-14 18:22:00,
2013-02-14 12:23:00,27.8,25.8,29.74,WNW,288,3.0,10.0,92,0.00,,OVC041,0.01,VWS V14.01,2013-02-14 18:23:00,
2013-02-14 12:24:00,27.9,25.9,29.74,NW,317,7.0,13.0,92,0.00,,OVC041,0.01,VWS V14.01,2013-02-14 18:24:00,
2013-02-14 12:25:00,27.9,25.9,29.74,NW,311,6.0,13.0,92,0.00,,OVC041,0.01,VWS V14.01,2013-02-14 18:25:00,
2013-02-14 12:26:00,27.9,25.9,29.74,WNW,298,2.0,13.0,92,0.00,,OVC041,0.01,VWS V14.01,2013-02-14 18:26:00,
2013-02-14 12:27:00,27.9,25.6,29.74,WNW,297,2.0,13.0,91,0.00,,OVC041,0.01,VWS V14.01,2013-02-14 18:27:00,
2013-02-14 12:28:00,27.9,25.6,29.74,WNW,301,8.0,13.0,91,0.00,,OVC041,0.01,VWS V14.01,2013-02-14 18:28:00,
2013-02-14 12:29:00,27.9,25.6,29.74,WNW,302,7.0,13.0,91,0.00,,OVC041,0.01,VWS V14.01,2013-02-14 18:29:00,
2013-02-14 12:30:00,27.9,25.6,29.74,WNW,294,7.0,13.0,91,0.00,,OVC041,0.01,VWS V14.01,2013-02-14 18:30:00,
2013-02-14 12:31:00,27.9,25.9,29.74,WNW,293,4.0,7.0,92,0.00,,OVC041,0.01,VWS V14.01,2013-02-14 18:31:00,
2013-02-14 12:32:00,27.9,25.6,29.74,WNW,293,0.0,10.0,91,0.00,,OVC041,0.01,VWS V14.01,2013-02-14 18:32:00,
2013-02-14 12:33:00,27.9,25.6,29.74,WNW,291,1.0,10.0,91,0.00,,OVC041,0.01,VWS V14.01,2013-02-14 18:33:00,
2013-02-14 12:34:00,27.9,25.6,29.74,WNW,300,1.0,10.0,91,0.00,,OVC041,0.01,VWS V14.01,2013-02-14 18:34:00,
2013-02-14 12:35:00,27.9,25.6,29.74,WNW,293,6.0,10.0,91,0.00,,OVC041,0.01,VWS V14.01,2013-02-14 18:35:00,
2013-02-14 12:36:00,27.8,25.5,29.74,WNW,293,1.0,10.0,91,0.00,,OVC041,0.01,VWS V14.01,2013-02-14 18:36:00,
2013-02-14 12:37:00,27.8,25.5,29.74,WNW,288,3.0,10.0,91,0.00,,OVC041,0.01,VWS V14.01,2013-02-14 18:37:00,
2013-02-14 12:38:00,27.8,25.5,29.74,WNW,291,0.0,10.0,91,0.00,,OVC041,0.01,VWS V14.01,2013-02-14 18:38:00,
2013-02-14 12:39:00,27.8,25.5,29.74,West,271,2.0,10.0,91,0.00,,OVC041,0.01,VWS V14.01,2013-02-14 18:39:00,
2013-02-14 12:40:00,27.8,25.5,29.74,NNW,339,7.0,10.0,91,0.00,,OVC041,0.01,VWS V14.01,2013-02-14 18:40:00,
2013-02-14 12:41:00,27.9,25.6,29.74,NW,326,6.0,12.0,91,0.00,,OVC041,0.01,VWS V14.01,2013-02-14 18:41:00,
2013-02-14 12:42:00,27.9,25.6,29.74,NW,324,6.0,12.0,91,0.00,,OVC041,0.01,VWS V14.01,2013-02-14 18:42:00,
2013-02-14 12:43:00,27.9,25.6,29.74,NW,319,2.0,12.0,91,0.00,,OVC150,0.01,VWS V14.01,2013-02-14 18:43:00,
2013-02-14 12:44:00,28.1,25.5,29.74,NW,322,5.0,12.0,90,0.00,,OVC150,0.01,VWS V14.01,2013-02-14 18:44:00,
2013-02-14 12:45:00,28.1,25.5,29.74,NW,321,5.0,12.0,90,0.00,,OVC150,0.01,VWS V14.01,2013-02-14 18:45:00,
2013-02-14 12:46:00,28.1,25.5,29.74,WNW,295,4.0,12.0,90,0.00,,OVC150,0.01,VWS V14.01,2013-02-14 18:46:00,
2013-02-14 12:47:00,28.1,25.5,29.74,NW,325,12.0,12.0,90,0.00,,OVC150,0.01,VWS V14.01,2013-02-14 18:47:00,
2013-02-14 12:48:00,28.1,25.5,29.74,WNW,298,10.0,12.0,90,0.00,,OVC150,0.01,VWS V14.01,2013-02-14 18:48:00,
2013-02-14 12:49:00,28.1,25.3,29.74,WNW,288,7.0,12.0,89,0.00,,OVC150,0.01,VWS V14.01,2013-02-14 18:49:00,
2013-02-14 12:50:00,28.1,25.3,29.74,NW,310,0.0,12.0,89,0.00,,OVC150,0.01,VWS V14.01,2013-02-14 18:50:00,
2013-02-14 12:51:00,28.1,25.3,29.74,NNW,329,1.0,12.0,89,0.00,,OVC150,0.01,VWS V14.01,2013-02-14 18:51:00,
2013-02-14 12:52:00,27.9,25.1,29.74,WNW,293,5.0,12.0,89,0.00,,OVC150,0.01,VWS V14.01,2013-02-14 18:52:00,
2013-02-14 12:53:00,27.9,25.1,29.74,NW,318,8.0,12.0,89,0.00,,OVC150,0.01,VWS V14.01,2013-02-14 18:53:00,
2013-02-14 12:54:00,27.9,25.1,29.74,WNW,288,3.0,12.0,89,0.00,,OVC150,0.01,VWS V14.01,2013-02-14 18:54:00,
2013-02-14 12:55:00,27.9,25.1,29.74,WNW,297,9.0,12.0,89,0.00,,OVC150,0.01,VWS V14.01,2013-02-14 18:55:00,
2013-02-14 12:56:00,27.9,25.1,29.74,NNW,335,7.0,12.0,89,0.00,,OVC150,0.01,VWS V14.01,2013-02-14 18:56:00,
2013-02-14 12:57:00,28.1,25.3,29.74,NW,322,2.0,12.0,89,0.00,,OVC150,0.01,VWS V14.01,2013-02-14 18:57:00,
2013-02-14 12:58:00,28.1,25.3,29.74,NW,315,13.0,13.0,89,0.00,,OVC150,0.01,VWS V14.01,2013-02-14 18:58:00,
2013-02-14 12:59:00,28.1,25.3,29.74,WNW,293,3.0,13.0,89,0.00,,OVC150,0.01,VWS V14.01,2013-02-14 18:59:00,
2013-02-14 13:00:00,28.1,25.0,29.74,WNW,290,2.0,13.0,88,0.00,,OVC150,0.01,VWS V14.01,2013-02-14 19:00:00,
2013-02-14 13:01:00,28.1,25.3,29.74,West,276,2.0,3.0,89,0.00,,OVC150,0.01,VWS V14.01,2013-02-14 19:01:00,
2013-02-14 13:02:00,28.1,25.0,29.74,West,277,5.0,5.0,88,0.00,,OVC150,0.01,VWS V14.01,2013-02-14 19:02:00,
2013-02-14 13:03:00,28.1,25.0,29.74,WNW,283,1.0,5.0,88,0.00,,OVC150,0.01,VWS V14.01,2013-02-14 19:03:00,
2013-02-14 13:04:00,28.1,25.0,29.74,WNW,301,0.0,8.0,88,0.00,,OVC150,0.01,VWS V14.01,2013-02-14 19:04:00,
2013-02-14 13:05:00,28.1,25.0,29.74,NW,325,13.0,14.0,88,0.00,,OVC150,0.01,VWS V14.01,2013-02-14 19:05:00,
2013-02-14 13:06:00,28.1,25.0,29.74,WNW,297,7.0,14.0,88,0.00,,OVC150,0.01,VWS V14.01,2013-02-14 19:06:00,
2013-02-14 13:07:00,27.9,24.8,29.74,NW,321,9.0,14.0,88,0.00,,OVC150,0.01,VWS V14.01,2013-02-14 19:07:00,
2013-02-14 13:08:00,27.9,24.8,29.74,NW,317,10.0,14.0,88,0.00,,OVC150,0.01,VWS V14.01,2013-02-14 19:08:00,
2013-02-14 13:09:00,27.9,24.8,29.74,NW,318,10.0,14.0,88,0.00,,OVC150,0.01,VWS V14.01,2013-02-14 19:09:00,
2013-02-14 13:10:00,27.9,24.8,29.74,NW,305,2.0,14.0,88,0.00,,OVC150,0.01,VWS V14.01,2013-02-14 19:10:00,
2013-02-14 13:11:00,27.9,24.8,29.74,WNW,295,4.0,14.0,88,0.00,,OVC150,0.01,VWS V14.01,2013-02-14 19:11:00,
2013-02-14 13:12:00,28.1,25.0,29.74,West,273,2.0,14.0,88,0.00,,OVC150,0.01,VWS V14.01,2013-02-14 19:12:00,
2013-02-14 13:13:00,28.1,25.0,29.74,West,280,2.0,14.0,88,0.00,,OVC150,0.01,VWS V14.01,2013-02-14 19:13:00,
2013-02-14 13:14:00,27.9,24.8,29.74,WNW,295,12.0,14.0,88,0.00,,OVC150,0.01,VWS V14.01,2013-02-14 19:14:00,
2013-02-14 13:15:00,27.9,24.8,29.75,WNW,295,3.0,14.0,88,0.00,,OVC150,0.01,VWS V14.01,2013-02-14 19:15:00,
2013-02-14 13:16:00,27.8,24.4,29.75,WNW,297,6.0,14.0,87,0.00,,OVC150,0.01,VWS V14.01,2013-02-14 19:16:00,
2013-02-14 13:17:00,27.8,24.4,29.75,West,280,1.0,14.0,87,0.00,,OVC150,0.01,VWS V14.01,2013-02-14 19:17:00,
2013-02-14 13:18:00,27.6,24.2,29.75,NW,304,2.0,14.0,87,0.00,,OVC150,0.01,VWS V14.01,2013-02-14 19:18:00,
2013-02-14 13:19:00,27.6,24.2,29.75,NW,310,6.0,14.0,87,0.00,,OVC150,0.01,VWS V14.01,2013-02-14 19:19:00,
2013-02-14 13:20:00,27.5,24.1,29.75,West,278,2.0,14.0,87,0.00,,OVC150,0.01,VWS V14.01,2013-02-14 19:20:00,
2013-02-14 13:21:00,27.5,24.1,29.75,WNW,288,5.0,14.0,87,0.00,,OVC150,0.01,VWS V14.01,2013-02-14 19:21:00,
2013-02-14 13:22:00,27.5,24.1,29.75,NW,304,7.0,14.0,87,0.00,,OVC150,0.01,VWS V14.01,2013-02-14 19:22:00,
2013-02-14 13:23:00,27.5,24.4,29.75,NNW,336,2.0,14.0,88,0.00,,OVC150,0.01,VWS V14.01,2013-02-14 19:23:00,
2013-02-14 13:24:00,27.5,24.4,29.75,West,271,3.0,14.0,88,0.00,,OVC150,0.01,VWS V14.01,2013-02-14 19:24:00,
2013-02-14 13:25:00,27.5,24.1,29.75,West,276,1.0,14.0,87,0.00,,OVC150,0.01,VWS V14.01,2013-02-14 19:25:00,
2013-02-14 13:26:00,27.5,24.1,29.75,NW,304,5.0,14.0,87,0.00,,OVC150,0.01,VWS V14.01,2013-02-14 19:26:00,
2013-02-14 13:27:00,27.5,24.1,29.75,WNW,290,7.0,14.0,87,0.00,,OVC150,0.01,VWS V14.01,2013-02-14 19:27:00,
2013-02-14 13:28:00,27.3,24.0,29.75,WNW,283,3.0,14.0,87,0.00,,OVC150,0.01,VWS V14.01,2013-02-14 19:28:00,
2013-02-14 13:29:00,27.3,24.0,29.75,WNW,284,8.0,14.0,87,0.00,,OVC150,0.01,VWS V14.01,2013-02-14 19:29:00,
2013-02-14 13:30:00,27.2,23.9,29.76,NW,314,3.0,14.0,87,0.00,,OVC150,0.01,VWS V14.01,2013-02-14 19:30:00,
2013-02-14 13:31:00,27.2,24.1,29.76,NW,324,9.0,12.0,88,0.00,,OVC150,0.01,VWS V14.01,2013-02-14 19:31:00,
2013-02-14 13:32:00,27.2,24.1,29.76,NW,305,13.0,13.0,88,0.00,,OVC150,0.01,VWS V14.01,2013-02-14 19:32:00,
2013-02-14 13:33:00,27.2,23.9,29.76,West,276,1.0,13.0,87,0.00,,OVC150,0.01,VWS V14.01,2013-02-14 19:33:00,
2013-02-14 13:34:00,27.2,23.9,29.76,NW,310,11.0,13.0,87,0.00,,OVC150,0.01,VWS V14.01,2013-02-14 19:34:00,
2013-02-14 13:35:00,27.2,23.9,29.76,NNW,328,12.0,13.0,87,0.00,,OVC150,0.01,VWS V14.01,2013-02-14 19:35:00,
2013-02-14 13:36:00,27.2,23.9,29.76,West,276,3.0,13.0,87,0.00,,OVC150,0.01,VWS V14.01,2013-02-14 19:36:00,
2013-02-14 13:37:00,27.0,23.6,29.76,West,280,2.0,13.0,87,0.00,,OVC150,0.01,VWS V14.01,2013-02-14 19:37:00,
2013-02-14 13:38:00,27.0,23.6,29.76,WNW,283,5.0,13.0,87,0.00,,OVC150,0.01,VWS V14.01,2013-02-14 19:38:00,
2013-02-14 13:39:00,27.0,23.6,29.76,WNW,295,1.0,13.0,87,0.00,,OVC150,0.01,VWS V14.01,2013-02-14 19:39:00,
2013-02-14 13:40:00,27.0,23.6,29.76,NW,321,6.0,13.0,87,0.00,,OVC150,0.01,VWS V14.01,2013-02-14 19:40:00,
2013-02-14 13:41:00,27.0,23.6,29.76,WNW,286,2.0,13.0,87,0.00,,OVC150,0.01,VWS V14.01,2013-02-14 19:41:00,
2013-02-14 13:42:00,27.0,23.6,29.76,NW,317,10.0,14.0,87,0.00,,OVC150,0.01,VWS V14.01,2013-02-14 19:42:00,
2013-02-14 13:43:00,27.0,23.6,29.76,NW,304,8.0,14.0,87,0.00,,BKN250,0.01,VWS V14.01,2013-02-14 19:43:00,
2013-02-14 13:44:00,27.2,23.9,29.76,WNW,298,3.0,14.0,87,0.00,,BKN250,0.01,VWS V14.01,2013-02-14 19:44:00,
2013-02-14 13:45:00,27.2,23.9,29.76,NNW,332,6.0,14.0,87,0.00,,BKN250,0.01,VWS V14.01,2013-02-14 19:45:00,
2013-02-14 13:46:00,27.2,23.9,29.76,WNW,283,1.0,14.0,87,0.00,,BKN250,0.01,VWS V14.01,2013-02-14 19:46:00,
2013-02-14 13:47:00,27.2,23.9,29.76,WNW,287,5.0,14.0,87,0.00,,BKN250,0.01,VWS V14.01,2013-02-14 19:47:00,
2013-02-14 13:48:00,27.2,23.9,29.76,NW,305,3.0,14.0,87,0.00,,BKN250,0.01,VWS V14.01,2013-02-14 19:48:00,
2013-02-14 13:49:00,27.2,23.9,29.76,West,276,1.0,14.0,87,0.00,,BKN250,0.01,VWS V14.01,2013-02-14 19:49:00,
2013-02-14 13:50:00,27.2,23.9,29.76,WNW,295,2.0,14.0,87,0.00,,BKN250,0.01,VWS V14.01,2013-02-14 19:50:00,
2013-02-14 13:51:00,27.0,23.6,29.76,WNW,298,8.0,14.0,87,0.00,,BKN250,0.01,VWS V14.01,2013-02-14 19:51:00,
2013-02-14 13:52:00,27.0,23.6,29.76,NW,307,12.0,14.0,87,0.00,,BKN250,0.01,VWS V14.01,2013-02-14 19:52:00,
2013-02-14 13:53:00,27.0,23.6,29.76,WNW,287,2.0,14.0,87,0.00,,BKN250,0.01,VWS V14.01,2013-02-14 19:53:00,
2013-02-14 13:54:00,26.9,23.6,29.76,West,274,2.0,14.0,87,0.00,,BKN250,0.01,VWS V14.01,2013-02-14 19:54:00,
2013-02-14 13:55:00,26.9,23.3,29.76,WNW,288,1.0,14.0,86,0.00,,BKN250,0.01,VWS V14.01,2013-02-14 19:55:00,
2013-02-14 13:56:00,26.9,23.3,29.76,West,276,1.0,14.0,86,0.00,,BKN250,0.01,VWS V14.01,2013-02-14 19:56:00,
2013-02-14 13:57:00,26.7,23.1,29.76,NW,326,6.0,14.0,86,0.00,,BKN250,0.01,VWS V14.01,2013-02-14 19:57:00,
2013-02-14 13:58:00,26.7,23.1,29.76,WNW,287,5.0,14.0,86,0.00,,BKN250,0.01,VWS V14.01,2013-02-14 19:58:00,
2013-02-14 13:59:00,26.7,23.1,29.76,WNW,295,0.0,14.0,86,0.00,,BKN250,0.01,VWS V14.01,2013-02-14 19:59:00,
2013-02-14 14:00:00,26.7,23.1,29.77,WNW,287,1.0,14.0,86,0.00,,BKN250,0.01,VWS V14.01,2013-02-14 20:00:00,
2013-02-14 14:01:00,26.7,22.8,29.77,NW,310,5.0,11.0,85,0.00,,BKN250,0.01,VWS V14.01,2013-02-14 20:01:00,
2013-02-14 14:02:00,26.6,22.7,29.77,NW,304,8.0,11.0,85,0.00,,BKN250,0.01,VWS V14.01,2013-02-14 20:02:00,
2013-02-14 14:03:00,26.6,22.7,29.77,West,280,4.0,11.0,85,0.00,,BKN250,0.01,VWS V14.01,2013-02-14 20:03:00,
2013-02-14 14:04:00,26.4,22.5,29.77,NW,304,1.0,11.0,85,0.00,,BKN250,0.01,VWS V14.01,2013-02-14 20:04:00,
2013-02-14 14:05:00,26.4,22.5,29.77,WNW,293,0.0,11.0,85,0.00,,BKN250,0.01,VWS V14.01,2013-02-14 20:05:00,
2013-02-14 14:06:00,26.4,22.5,29.77,West,281,5.0,11.0,85,0.00,,BKN250,0.01,VWS V14.01,2013-02-14 20:06:00,
2013-02-14 14:07:00,26.4,22.5,29.77,WNW,284,1.0,11.0,85,0.00,,BKN250,0.01,VWS V14.01,2013-02-14 20:07:00,
2013-02-14 14:08:00,26.3,22.4,29.77,West,276,2.0,11.0,85,0.00,,BKN250,0.01,VWS V14.01,2013-02-14 20:08:00,
2013-02-14 14:09:00,26.3,22.1,29.77,NW,317,6.0,11.0,84,0.00,,BKN250,0.01,VWS V14.01,2013-02-14 20:09:00,
2013-02-14 14:10:00,26.3,22.4,29.77,WNW,301,2.0,11.0,85,0.00,,BKN250,0.01,VWS V14.01,2013-02-14 20:10:00,
2013-02-14 14:11:00,26.3,22.4,29.77,West,280,0.0,11.0,85,0.00,,BKN250,0.01,VWS V14.01,2013-02-14 20:11:00,
2013-02-14 14:12:00,26.1,22.2,29.77,WNW,291,1.0,11.0,85,0.00,,BKN250,0.01,VWS V14.01,2013-02-14 20:12:00,
2013-02-14 14:13:00,26.1,22.2,29.77,NW,312,2.0,11.0,85,0.00,,BKN250,0.01,VWS V14.01,2013-02-14 20:13:00,
2013-02-14 14:14:00,26.1,22.2,29.77,NW,319,6.0,11.0,85,0.00,,BKN250,0.01,VWS V14.01,2013-02-14 20:14:00,
2013-02-14 14:15:00,26.1,22.2,29.78,WNW,293,3.0,11.0,85,0.00,,BKN250,0.01,VWS V14.01,2013-02-14 20:15:00,
2013-02-14 14:16:00,26.1,22.2,29.78,WNW,295,7.0,11.0,85,0.00,,BKN250,0.01,VWS V14.01,2013-02-14 20:16:00,
2013-02-14 14:17:00,26.1,21.9,29.78,WNW,291,6.0,11.0,84,0.00,,BKN250,0.01,VWS V14.01,2013-02-14 20:17:00,
2013-02-14 14:18:00,26.0,21.8,29.78,NW,317,9.0,12.0,84,0.00,,BKN250,0.01,VWS V14.01,2013-02-14 20:18:00,
2013-02-14 14:19:00,26.0,21.8,29.78,NW,310,2.0,12.0,84,0.00,,BKN250,0.01,VWS V14.01,2013-02-14 20:19:00,
2013-02-14 14:20:00,26.0,21.8,29.78,WNW,293,2.0,12.0,84,0.00,,BKN250,0.01,VWS V14.01,2013-02-14 20:20:00,
2013-02-14 14:21:00,25.8,21.6,29.78,NNW,328,8.0,12.0,84,0.00,,BKN250,0.01,VWS V14.01,2013-02-14 20:21:00,
2013-02-14 14:22:00,25.8,21.4,29.78,WNW,297,1.0,12.0,83,0.00,,BKN250,0.01,VWS V14.01,2013-02-14 20:22:00,
2013-02-14 14:23:00,25.8,21.4,29.78,NNW,342,7.0,12.0,83,0.00,,BKN250,0.01,VWS V14.01,2013-02-14 20:23:00,
2013-02-14 14:24:00,25.8,21.1,29.78,WNW,287,2.0,12.0,82,0.00,,BKN250,0.01,VWS V14.01,2013-02-14 20:24:00,
2013-02-14 14:25:00,25.8,21.1,29.78,NW,325,1.0,12.0,82,0.00,,BKN250,0.01,VWS V14.01,2013-02-14 20:25:00,
2013-02-14 14:26:00,26.0,21.6,29.78,WNW,297,3.0,12.0,83,0.00,,BKN250,0.01,VWS V14.01,2013-02-14 20:26:00,
2013-02-14 14:27:00,26.0,21.3,29.78,West,274,6.0,12.0,82,0.00,,BKN250,0.01,VWS V14.01,2013-02-14 20:27:00,
2013-02-14 14:28:00,26.0,21.3,29.78,NW,310,0.0,12.0,82,0.00,,BKN250,0.01,VWS V14.01,2013-02-14 20:28:00,
2013-02-14 14:29:00,26.0,21.6,29.78,NNW,329,7.0,12.0,83,0.00,,SCT250,0.01,VWS V14.01,2013-02-14 20:29:00,
2013-02-14 14:30:00,26.0,21.6,29.79,WNW,287,1.0,12.0,83,0.00,,SCT250,0.01,VWS V14.01,2013-02-14 20:30:00,
2013-02-14 14:31:00,26.1,21.9,29.79,WNW,301,11.0,11.0,84,0.00,,SCT250,0.01,VWS V14.01,2013-02-14 20:31:00,
2013-02-14 14:32:00,26.0,21.6,29.79,WNW,301,5.0,11.0,83,0.00,,SCT250,0.01,VWS V14.01,2013-02-14 20:32:00,
2013-02-14 14:33:00,26.0,21.3,29.79,WNW,291,5.0,11.0,82,0.00,,SCT250,0.01,VWS V14.01,2013-02-14 20:33:00,
2013-02-14 14:34:00,26.0,21.3,29.79,WNW,300,8.0,11.0,82,0.00,,SCT250,0.01,VWS V14.01,2013-02-14 20:34:00,
2013-02-14 14:35:00,26.0,21.3,29.79,North,6,7.0,12.0,82,0.00,,SCT250,0.01,VWS V14.01,2013-02-14 20:35:00,
2013-02-14 14:36:00,26.0,21.0,29.79,WNW,301,4.0,12.0,81,0.00,,SCT250,0.01,VWS V14.01,2013-02-14 20:36:00,
2013-02-14 14:37:00,25.8,20.5,29.79,NW,305,0.0,12.0,80,0.00,,SCT250,0.01,VWS V14.01,2013-02-14 20:37:00,
2013-02-14 14:38:00,25.7,20.7,29.79,NW,305,5.0,12.0,81,0.00,,SCT250,0.01,VWS V14.01,2013-02-14 20:38:00,
2013-02-14 14:39:00,25.7,20.4,29.79,WNW,291,8.0,12.0,80,0.00,,SCT250,0.01,VWS V14.01,2013-02-14 20:39:00,
2013-02-14 14:40:00,25.6,20.3,29.79,NW,305,4.0,12.0,80,0.00,,SCT250,0.01,VWS V14.01,2013-02-14 20:40:00,
2013-02-14 14:41:00,25.4,19.8,29.79,NW,312,1.0,12.0,79,0.00,,SCT250,0.01,VWS V14.01,2013-02-14 20:41:00,
2013-02-14 14:42:00,25.4,20.1,29.79,WNW,291,6.0,12.0,80,0.00,,SCT250,0.01,VWS V14.01,2013-02-14 20:42:00,
2013-02-14 14:43:00,25.3,19.7,29.79,WNW,284,6.0,12.0,79,0.00,,SCT250,0.01,VWS V14.01,2013-02-14 20:43:00,
2013-02-14 14:44:00,25.3,19.7,29.79,NW,310,2.0,12.0,79,0.00,,SCT250,0.01,VWS V14.01,2013-02-14 20:44:00,
2013-02-14 14:45:00,25.3,19.7,29.80,WNW,284,7.0,12.0,79,0.00,,SCT250,0.01,VWS V14.01,2013-02-14 20:45:00,
2013-02-14 14:46:00,25.1,19.5,29.80,WNW,290,1.0,12.0,79,0.00,,SCT250,0.01,VWS V14.01,2013-02-14 20:46:00,
2013-02-14 14:47:00,25.1,19.5,29.80,WNW,287,1.0,12.0,79,0.00,,SCT250,0.01,VWS V14.01,2013-02-14 20:47:00,
2013-02-14 14:48:00,25.1,19.5,29.80,NW,307,1.0,12.0,79,0.00,,SCT250,0.01,VWS V14.01,2013-02-14 20:48:00,
2013-02-14 14:49:00,25.1,19.5,29.80,WNW,295,2.0,12.0,79,0.00,,SCT250,0.01,VWS V14.01,2013-02-14 20:49:00,
2013-02-14 14:50:00,25.1,19.8,29.80,WNW,283,7.0,12.0,80,0.00,,SCT250,0.01,VWS V14.01,2013-02-14 20:50:00,
2013-02-14 14:51:00,25.1,19.5,29.80,WNW,286,2.0,12.0,79,0.00,,SCT250,0.01,VWS V14.01,2013-02-14 20:51:00,
2013-02-14 14:52:00,25.1,19.5,29.80,NW,310,0.0,12.0,79,0.00,,SCT250,0.01,VWS V14.01,2013-02-14 20:52:00,
2013-02-14 14:53:00,25.3,19.7,29.80,WNW,290,6.0,12.0,79,0.00,,SCT250,0.01,VWS V14.01,2013-02-14 20:53:00,
2013-02-14 14:54:00,25.3,19.7,29.80,WNW,300,3.0,12.0,79,0.00,,SCT250,0.01,VWS V14.01,2013-02-14 20:54:00,
2013-02-14 14:55:00,25.4,19.8,29.80,NW,321,7.0,12.0,79,0.00,,SCT250,0.01,VWS V14.01,2013-02-14 20:55:00,
2013-02-14 14:56:00,25.4,20.1,29.80,West,271,3.0,12.0,80,0.00,,SCT250,0.01,VWS V14.01,2013-02-14 20:56:00,
2013-02-14 14:57:00,25.4,19.8,29.80,WNW,291,6.0,12.0,79,0.00,,SCT250,0.01,VWS V14.01,2013-02-14 20:57:00,
2013-02-14 14:58:00,25.4,19.8,29.80,WNW,302,11.0,12.0,79,0.00,,SCT250,0.01,VWS V14.01,2013-02-14 20:58:00,
2013-02-14 14:59:00,25.4,20.4,29.80,NW,310,7.0,14.0,81,0.00,,SCT250,0.01,VWS V14.01,2013-02-14 20:59:00,
2013-02-14 15:00:00,25.6,20.3,29.81,WNW,300,1.0,14.0,80,0.00,,SCT250,0.01,VWS V14.01,2013-02-14 21:00:00,
2013-02-14 15:01:00,25.7,20.1,29.81,NNW,335,11.0,11.0,79,0.00,,SCT250,0.01,VWS V14.01,2013-02-14 21:01:00,
2013-02-14 15:02:00,25.7,19.8,29.81,WNW,301,6.0,11.0,78,0.00,,SCT250,0.01,VWS V14.01,2013-02-14 21:02:00,
2013-02-14 15:03:00,25.7,19.8,29.81,NW,305,6.0,11.0,78,0.00,,SCT250,0.01,VWS V14.01,2013-02-14 21:03:00,
2013-02-14 15:04:00,25.8,19.9,29.81,North,353,16.0,16.0,78,0.00,,SCT250,0.01,VWS V14.01,2013-02-14 21:04:00,
2013-02-14 15:05:00,26.0,20.4,29.81,WNW,291,10.0,16.0,79,0.00,,SCT250,0.01,VWS V14.01,2013-02-14 21:05:00,
2013-02-14 15:06:00,26.0,19.8,29.81,NW,312,6.0,16.0,77,0.00,,SCT250,0.01,VWS V14.01,2013-02-14 21:06:00,
2013-02-14 15:07:00,26.0,20.4,29.81,NW,311,13.0,17.0,79,0.00,,SCT250,0.01,VWS V14.01,2013-02-14 21:07:00,
2013-02-14 15:08:00,26.0,19.2,29.81,NW,326,7.0,17.0,75,0.00,,SCT250,0.01,VWS V14.01,2013-02-14 21:08:00,
2013-02-14 15:09:00,26.0,18.9,29.81,WNW,302,8.0,17.0,74,0.00,,SCT250,0.01,VWS V14.01,2013-02-14 21:09:00,
2013-02-14 15:10:00,26.0,19.2,29.81,NW,322,6.0,17.0,75,0.00,,SCT250,0.01,VWS V14.01,2013-02-14 21:10:00,
2013-02-14 15:11:00,26.1,19.0,29.81,NNW,335,10.0,17.0,74,0.00,,SCT250,0.01,VWS V14.01,2013-02-14 21:11:00,
2013-02-14 15:12:00,26.1,18.3,29.81,NW,322,1.0,17.0,72,0.00,,SCT250,0.01,VWS V14.01,2013-02-14 21:12:00,
2013-02-14 15:13:00,26.3,18.8,29.81,NW,308,2.0,17.0,73,0.00,,SCT250,0.01,VWS V14.01,2013-02-14 21:13:00,
2013-02-14 15:14:00,26.3,18.5,29.81,WNW,293,2.0,17.0,72,0.00,,SCT250,0.01,VWS V14.01,2013-02-14 21:14:00,
2013-02-14 15:15:00,26.1,18.3,29.82,North,353,17.0,17.0,72,0.00,,SCT250,0.01,VWS V14.01,2013-02-14 21:15:00,
2013-02-14 15:16:00,26.1,18.6,29.82,NNW,342,15.0,17.0,73,0.00,,SCT250,0.01,VWS V14.01,2013-02-14 21:16:00,
2013-02-14 15:17:00,26.3,18.8,29.82,North,349,14.0,17.0,73,0.00,,SCT250,0.01,VWS V14.01,2013-02-14 21:17:00,
2013-02-14 15:18:00,26.4,18.3,29.82,WNW,294,1.0,17.0,71,0.00,,SCT250,0.01,VWS V14.01,2013-02-14 21:18:00,
2013-02-14 15:19:00,26.4,18.0,29.82,NNW,343,1.0,17.0,70,0.00,,SCT250,0.01,VWS V14.01,2013-02-14 21:19:00,
2013-02-14 15:20:00,26.4,18.3,29.82,NW,324,13.0,17.0,71,0.00,,SCT250,0.01,VWS V14.01,2013-02-14 21:20:00,
2013-02-14 15:21:00,26.4,18.0,29.82,NW,315,0.0,17.0,70,0.00,,SCT250,0.01,VWS V14.01,2013-02-14 21:21:00,
2013-02-14 15:22:00,26.3,16.9,29.82,North,358,11.0,17.0,67,0.00,,SCT250,0.01,VWS V14.01,2013-02-14 21:22:00,
2013-02-14 15:23:00,26.1,17.0,29.82,NW,315,13.0,17.0,68,0.00,,SCT250,0.01,VWS V14.01,2013-02-14 21:23:00,
2013-02-14 15:24:00,26.1,17.0,29.82,NW,314,5.0,17.0,68,0.00,,SCT250,0.01,VWS V14.01,2013-02-14 21:24:00,
2013-02-14 15:25:00,26.3,16.9,29.82,NW,305,7.0,17.0,67,0.00,,SCT250,0.01,VWS V14.01,2013-02-14 21:25:00,
2013-02-14 15:26:00,26.3,16.9,29.82,NNW,328,14.0,17.0,67,0.00,,SCT250,0.01,VWS V14.01,2013-02-14 21:26:00,
2013-02-14 15:27:00,26.4,16.6,29.82,NW,308,13.0,17.0,66,0.00,,SCT250,0.01,VWS V14.01,2013-02-14 21:27:00,
2013-02-14 15:28:00,26.4,16.6,29.82,North,349,12.0,17.0,66,0.00,,SCT250,0.01,VWS V14.01,2013-02-14 21:28:00,
2013-02-14 15:29:00,26.6,16.8,29.82,NW,321,0.0,17.0,66,0.00,,SCT250,0.01,VWS V14.01,2013-02-14 21:29:00,
2013-02-14 15:30:00,26.6,16.8,29.83,NW,325,7.0,17.0,66,0.00,,SCT250,0.01,VWS V14.01,2013-02-14 21:30:00,
2013-02-14 15:31:00,26.7,16.9,29.83,NNE,16,14.0,14.0,66,0.00,,SCT250,0.01,VWS V14.01,2013-02-14 21:31:00,
2013-02-14 15:32:00,26.7,16.5,29.83,WNW,301,6.0,16.0,65,0.00,,SCT250,0.01,VWS V14.01,2013-02-14 21:32:00,
2013-02-14 15:33:00,26.6,16.4,29.83,NNW,342,16.0,18.0,65,0.00,,SCT250,0.01,VWS V14.01,2013-02-14 21:33:00,
2013-02-14 15:34:00,26.4,15.9,29.83,NW,317,13.0,18.0,64,0.00,,SCT250,0.01,VWS V14.01,2013-02-14 21:34:00,
2013-02-14 15:35:00,26.4,15.9,29.83,NNW,331,18.0,18.0,64,0.00,,SCT250,0.01,VWS V14.01,2013-02-14 21:35:00,
2013-02-14 15:36:00,26.4,15.5,29.83,NW,319,7.0,18.0,63,0.00,,SCT250,0.01,VWS V14.01,2013-02-14 21:36:00,
2013-02-14 15:37:00,26.4,15.2,29.83,WNW,286,2.0,18.0,62,0.00,,SCT250,0.01,VWS V14.01,2013-02-14 21:37:00,
2013-02-14 15:38:00,26.3,15.1,29.83,NW,311,10.0,18.0,62,0.00,,SCT250,0.01,VWS V14.01,2013-02-14 21:38:00,
2013-02-14 15:39:00,26.1,14.5,29.83,NNW,348,11.0,18.0,61,0.00,,SCT250,0.01,VWS V14.01,2013-02-14 21:39:00,
2013-02-14 15:40:00,26.1,14.9,29.83,North,349,9.0,18.0,62,0.00,,SCT250,0.01,VWS V14.01,2013-02-14 21:40:00,
2013-02-14 15:41:00,26.3,14.7,29.83,WNW,290,7.0,18.0,61,0.00,,SCT250,0.01,VWS V14.01,2013-02-14 21:41:00,
2013-02-14 15:42:00,26.3,14.3,29.83,NW,318,1.0,18.0,60,0.00,,SCT250,0.01,VWS V14.01,2013-02-14 21:42:00,
2013-02-14 15:43:00,26.3,14.3,29.83,NNW,343,13.0,18.0,60,0.00,,SCT250,0.01,VWS V14.01,2013-02-14 21:43:00,
2013-02-14 15:44:00,26.3,13.9,29.83,NW,324,12.0,18.0,59,0.00,,SCT250,0.01,VWS V14.01,2013-02-14 21:44:00,
2013-02-14 15:45:00,26.4,14.0,29.84,NNW,332,5.0,18.0,59,0.00,,SCT250,0.01,VWS V14.01,2013-02-14 21:45:00,
2013-02-14 15:46:00,26.6,13.8,29.84,NW,321,7.0,18.0,58,0.00,,SCT250,0.01,VWS V14.01,2013-02-14 21:46:00,
2013-02-14 15:47:00,26.7,13.9,29.84,NNE,14,10.0,18.0,58,0.00,,SCT250,0.01,VWS V14.01,2013-02-14 21:47:00,
2013-02-14 15:48:00,26.9,14.1,29.84,North,3,11.0,18.0,58,0.00,,SCT250,0.01,VWS V14.01,2013-02-14 21:48:00,
2013-02-14 15:49:00,27.0,13.8,29.84,NNW,341,19.0,20.0,57,0.00,,SCT250,0.01,VWS V14.01,2013-02-14 21:49:00,
2013-02-14 15:50:00,27.0,12.6,29.84,NW,308,5.0,20.0,54,0.00,,SCT250,0.01,VWS V14.01,2013-02-14 21:50:00,
2013-02-14 15:51:00,26.9,12.1,29.84,NNW,336,18.0,20.0,53,0.00,,SCT250,0.01,VWS V14.01,2013-02-14 21:51:00,
2013-02-14 15:52:00,26.9,12.1,29.84,NNE,12,14.0,20.0,53,0.00,,SCT250,0.01,VWS V14.01,2013-02-14 21:52:00,
2013-02-14 15:53:00,26.9,12.1,29.84,North,349,10.0,20.0,53,0.00,,SCT250,0.01,VWS V14.01,2013-02-14 21:53:00,
2013-02-14 15:54:00,26.7,11.9,29.84,NNW,331,9.0,20.0,53,0.00,,SCT250,0.01,VWS V14.01,2013-02-14 21:54:00,
2013-02-14 15:55:00,26.9,12.1,29.84,NW,308,5.0,20.0,53,0.00,,SCT250,0.01,VWS V14.01,2013-02-14 21:55:00,
2013-02-14 15:56:00,26.9,11.6,29.84,WNW,297,1.0,20.0,52,0.00,,SCT250,0.01,VWS V14.01,2013-02-14 21:56:00,
2013-02-14 15:57:00,26.9,12.1,29.84,NNW,334,2.0,20.0,53,0.00,,SCT250,0.01,VWS V14.01,2013-02-14 21:57:00,
2013-02-14 15:58:00,26.7,11.9,29.84,North,358,12.0,20.0,53,0.00,,SCT250,0.01,VWS V14.01,2013-02-14 21:58:00,
2013-02-14 15:59:00,26.7,11.9,29.84,NNW,332,9.0,20.0,53,0.00,,SCT250,0.01,VWS V14.01,2013-02-14 21:59:00,
2013-02-14 16:00:00,26.9,12.1,29.85,NNW,331,8.0,20.0,53,0.00,,SCT250,0.01,VWS V14.01,2013-02-14 22:00:00,
2013-02-14 16:01:00,26.9,12.1,29.85,NNW,332,1.0,10.0,53,0.00,,SCT250,0.01,VWS V14.01,2013-02-14 22:01:00,
2013-02-14 16:02:00,27.0,12.6,29.85,North,349,7.0,10.0,54,0.00,,SCT250,0.01,VWS V14.01,2013-02-14 22:02:00,
2013-02-14 16:03:00,27.2,12.8,29.85,WNW,293,1.0,10.0,54,0.00,,SCT250,0.01,VWS V14.01,2013-02-14 22:03:00,
2013-02-14 16:04:00,27.0,12.2,29.85,NW,322,11.0,11.0,53,0.00,,SCT250,0.01,VWS V14.01,2013-02-14 22:04:00,
2013-02-14 16:05:00,27.0,12.2,29.85,NNW,338,16.0,16.0,53,0.00,,SCT250,0.01,VWS V14.01,2013-02-14 22:05:00,
2013-02-14 16:06:00,27.0,11.3,29.85,NW,310,9.0,18.0,51,0.00,,SCT250,0.01,VWS V14.01,2013-02-14 22:06:00,
2013-02-14 16:07:00,26.9,11.2,29.85,WNW,301,3.0,18.0,51,0.00,,SCT250,0.01,VWS V14.01,2013-02-14 22:07:00,
2013-02-14 16:08:00,26.7,11.0,29.85,NW,318,8.0,18.0,51,0.00,,SCT250,0.01,VWS V14.01,2013-02-14 22:08:00,
2013-02-14 16:09:00,26.6,10.9,29.85,North,349,11.0,18.0,51,0.00,,SCT250,0.01,VWS V14.01,2013-02-14 22:09:00,
2013-02-14 16:10:00,26.6,10.9,29.85,NNW,331,13.0,18.0,51,0.00,,SCT250,0.01,VWS V14.01,2013-02-14 22:10:00,
2013-02-14 16:11:00,26.6,10.5,29.85,NW,325,11.0,18.0,50,0.00,,SCT250,0.01,VWS V14.01,2013-02-14 22:11:00,
2013-02-14 16:12:00,26.6,10.5,29.85,NW,321,13.0,18.0,50,0.00,,SCT250,0.01,VWS V14.01,2013-02-14 22:12:00,
2013-02-14 16:13:00,26.6,10.5,29.85,North,350,13.0,18.0,50,0.00,,SCT250,0.01,VWS V14.01,2013-02-14 22:13:00,
2013-02-14 16:14:00,26.6,10.5,29.85,North,7,9.0,18.0,50,0.00,,SCT250,0.01,VWS V14.01,2013-02-14 22:14:00,
2013-02-14 16:15:00,26.6,10.5,29.86,NNW,341,10.0,18.0,50,0.00,,SCT250,0.01,VWS V14.01,2013-02-14 22:15:00,
2013-02-14 16:16:00,26.6,10.5,29.86,North,350,15.0,20.0,50,0.00,,SCT250,0.01,VWS V14.01,2013-02-14 22:16:00,
2013-02-14 16:17:00,26.6,10.0,29.86,NW,310,10.0,20.0,49,0.00,,SCT250,0.01,VWS V14.01,2013-02-14 22:17:00,
2013-02-14 16:18:00,26.4,9.8,29.86,NNW,348,10.0,20.0,49,0.00,,SCT250,0.01,VWS V14.01,2013-02-14 22:18:00,
2013-02-14 16:19:00,26.4,9.8,29.86,NW,324,13.0,20.0,49,0.00,,SCT250,0.01,VWS V14.01,2013-02-14 22:19:00,
2013-02-14 16:20:00,26.3,10.2,29.86,NNW,343,7.0,20.0,50,0.00,,SCT250,0.01,VWS V14.01,2013-02-14 22:20:00,
2013-02-14 16:21:00,26.3,10.2,29.86,NW,324,6.0,20.0,50,0.00,,SCT250,0.01,VWS V14.01,2013-02-14 22:21:00,
2013-02-14 16:22:00,26.1,10.5,29.86,WNW,302,3.0,20.0,51,0.00,,SCT250,0.01,VWS V14.01,2013-02-14 22:22:00,
2013-02-14 16:23:00,26.0,10.4,29.86,NNW,331,1.0,20.0,51,0.00,,SCT250,0.01,VWS V14.01,2013-02-14 22:23:00,
2013-02-14 16:24:00,26.0,10.4,29.86,NW,319,12.0,20.0,51,0.00,,SCT250,0.01,VWS V14.01,2013-02-14 22:24:00,
2013-02-14 16:25:00,26.0,10.4,29.86,NNW,348,11.0,20.0,51,0.00,,SCT250,0.01,VWS V14.01,2013-02-14 22:25:00,
2013-02-14 16:26:00,26.1,10.5,29.86,North,353,14.0,20.0,51,0.00,,SCT250,0.01,VWS V14.01,2013-02-14 22:26:00,
2013-02-14 16:27:00,26.1,10.5,29.86,WNW,302,10.0,20.0,51,0.00,,SCT250,0.01,VWS V14.01,2013-02-14 22:27:00,
2013-02-14 16:28:00,26.0,9.9,29.86,NW,325,13.0,20.0,50,0.00,,SCT250,0.01,VWS V14.01,2013-02-14 22:28:00,
2013-02-14 16:29:00,26.0,9.5,29.86,NW,312,10.0,20.0,49,0.00,,BKN250,0.01,VWS V14.01,2013-02-14 22:29:00,
2013-02-14 16:30:00,25.7,9.2,29.87,North,6,13.0,20.0,49,0.00,,BKN250,0.01,VWS V14.01,2013-02-14 22:30:00,
2013-02-14 16:31:00,25.7,9.2,29.87,North,353,12.0,15.0,49,0.00,,BKN250,0.01,VWS V14.01,2013-02-14 22:31:00,
2013-02-14 16:32:00,25.7,9.2,29.87,NNW,334,6.0,15.0,49,0.00,,BKN250,0.01,VWS V14.01,2013-02-14 22:32:00,
2013-02-14 16:33:00,25.7,9.2,29.87,NNW,343,12.0,16.0,49,0.00,,BKN250,0.01,VWS V14.01,2013-02-14 22:33:00,
2013-02-14 16:34:00,25.7,8.7,29.87,NNW,345,11.0,16.0,48,0.00,,BKN250,0.01,VWS V14.01,2013-02-14 22:34:00,
2013-02-14 16:35:00,25.6,9.1,29.87,NNW,339,13.0,16.0,49,0.00,,BKN250,0.01,VWS V14.01,2013-02-14 22:35:00,
2013-02-14 16:36:00,25.6,8.6,29.87,NW,305,7.0,17.0,48,0.00,,BKN250,0.01,VWS V14.01,2013-02-14 22:36:00,
2013-02-14 16:37:00,25.4,8.5,29.87,NW,310,5.0,17.0,48,0.00,,BKN250,0.01,VWS V14.01,2013-02-14 22:37:00,
2013-02-14 16:38:00,25.4,8.5,29.87,NNW,342,10.0,17.0,48,0.00,,BKN250,0.01,VWS V14.01,2013-02-14 22:38:00,
2013-02-14 16:39:00,25.4,8.5,29.87,North,349,14.0,17.0,48,0.00,,BKN250,0.01,VWS V14.01,2013-02-14 22:39:00,
2013-02-14 16:40:00,25.3,8.4,29.87,WNW,295,11.0,17.0,48,0.00,,BKN250,0.01,VWS V14.01,2013-02-14 22:40:00,
2013-02-14 16:41:00,25.1,8.2,29.87,NW,325,6.0,17.0,48,0.00,,BKN250,0.01,VWS V14.01,2013-02-14 22:41:00,
2013-02-14 16:42:00,25.1,8.2,29.87,WNW,297,13.0,18.0,48,0.00,,BKN250,0.01,VWS V14.01,2013-02-14 22:42:00,
2013-02-14 16:43:00,25.1,8.2,29.87,North,355,12.0,18.0,48,0.00,,BKN250,0.01,VWS V14.01,2013-02-14 22:43:00,
2013-02-14 16:44:00,25.0,8.1,29.87,NW,326,12.0,18.0,48,0.00,,BKN250,0.01,VWS V14.01,2013-02-14 22:44:00,
2013-02-14 16:45:00,25.0,8.1,29.88,NW,318,1.0,18.0,48,0.00,,BKN250,0.01,VWS V14.01,2013-02-14 22:45:00,
2013-02-14 16:46:00,24.8,7.9,29.88,NNW,346,11.0,18.0,48,0.00,,BKN250,0.01,VWS V14.01,2013-02-14 22:46:00,
2013-02-14 16:47:00,24.8,7.9,29.88,NNW,336,11.0,18.0,48,0.00,,BKN250,0.01,VWS V14.01,2013-02-14 22:47:00,
2013-02-14 16:48:00,24.8,7.4,29.88,NNW,345,10.0,18.0,47,0.00,,BKN250,0.01,VWS V14.01,2013-02-14 22:48:00,
2013-02-14 16:49:00,24.8,7.4,29.88,NNW,346,11.0,18.0,47,0.00,,BKN250,0.01,VWS V14.01,2013-02-14 22:49:00,
2013-02-14 16:50:00,24.7,7.8,29.88,NW,315,1.0,18.0,48,0.00,,BKN250,0.01,VWS V14.01,2013-02-14 22:50:00,
2013-02-14 16:51:00,24.7,7.8,29.88,North,356,11.0,18.0,48,0.00,,BKN250,0.01,VWS V14.01,2013-02-14 22:51:00,
2013-02-14 16:52:00,24.7,7.8,29.88,NW,312,1.0,18.0,48,0.00,,BKN250,0.01,VWS V14.01,2013-02-14 22:52:00,
2013-02-14 16:53:00,24.5,7.2,29.88,NNW,341,12.0,18.0,47,0.00,,BKN250,0.01,VWS V14.01,2013-02-14 22:53:00,
2013-02-14 16:54:00,24.5,7.6,29.88,NW,307,7.0,18.0,48,0.00,,BKN250,0.01,VWS V14.01,2013-02-14 22:54:00,
2013-02-14 16:55:00,24.4,7.5,29.88,NW,315,0.0,18.0,48,0.00,,BKN250,0.01,VWS V14.01,2013-02-14 22:55:00,
2013-02-14 16:56:00,24.4,7.5,29.88,NNE,14,16.0,18.0,48,0.00,,BKN250,0.01,VWS V14.01,2013-02-14 22:56:00,
2013-02-14 16:57:00,24.2,7.3,29.88,NNW,339,7.0,18.0,48,0.00,,BKN250,0.01,VWS V14.01,2013-02-14 22:57:00,
2013-02-14 16:58:00,24.2,7.3,29.88,NNW,342,2.0,18.0,48,0.00,,BKN250,0.01,VWS V14.01,2013-02-14 22:58:00,
2013-02-14 16:59:00,24.2,7.3,29.88,NNW,335,7.0,18.0,48,0.00,,BKN250,0.01,VWS V14.01,2013-02-14 22:59:00,
2013-02-14 17:00:00,24.1,7.3,29.89,NNW,343,10.0,18.0,48,0.00,,BKN250,0.01,VWS V14.01,2013-02-14 23:00:00,
2013-02-14 17:01:00,24.1,6.8,29.89,NW,310,2.0,17.0,47,0.00,,BKN250,0.01,VWS V14.01,2013-02-14 23:01:00,
2013-02-14 17:02:00,24.1,6.8,29.89,NW,321,1.0,17.0,47,0.00,,BKN250,0.01,VWS V14.01,2013-02-14 23:02:00,
2013-02-14 17:03:00,24.1,6.8,29.89,NW,305,11.0,17.0,47,0.00,,BKN250,0.01,VWS V14.01,2013-02-14 23:03:00,
2013-02-14 17:04:00,23.9,6.6,29.89,WNW,297,3.0,17.0,47,0.00,,BKN250,0.01,VWS V14.01,2013-02-14 23:04:00,
2013-02-14 17:05:00,23.9,6.6,29.89,NW,325,6.0,17.0,47,0.00,,BKN250,0.01,VWS V14.01,2013-02-14 23:05:00,
2013-02-14 17:06:00,23.8,6.5,29.89,North,349,6.0,17.0,47,0.00,,BKN250,0.01,VWS V14.01,2013-02-14 23:06:00,
2013-02-14 17:07:00,23.8,6.5,29.89,NW,314,12.0,17.0,47,0.00,,BKN250,0.01,VWS V14.01,2013-02-14 23:07:00,
2013-02-14 17:08:00,23.8,6.5,29.89,NNW,329,0.0,17.0,47,0.00,,BKN250,0.01,VWS V14.01,2013-02-14 23:08:00,
2013-02-14 17:09:00,23.6,6.3,29.89,NW,324,1.0,17.0,47,0.00,,BKN250,0.01,VWS V14.01,2013-02-14 23:09:00,
2013-02-14 17:10:00,23.6,6.3,29.89,North,358,12.0,17.0,47,0.00,,BKN250,0.01,VWS V14.01,2013-02-14 23:10:00,
2013-02-14 17:11:00,23.6,6.3,29.89,North,5,11.0,17.0,47,0.00,,BKN250,0.01,VWS V14.01,2013-02-14 23:11:00,
2013-02-14 17:12:00,23.6,5.9,29.89,NW,314,11.0,17.0,46,0.00,,BKN250,0.01,VWS V14.01,2013-02-14 23:12:00,
2013-02-14 17:13:00,23.6,6.3,29.89,NW,319,3.0,17.0,47,0.00,,BKN250,0.01,VWS V14.01,2013-02-14 23:13:00,
2013-02-14 17:14:00,23.6,6.3,29.89,NNW,328,1.0,17.0,47,0.00,,BKN250,0.01,VWS V14.01,2013-02-14 23:14:00,
2013-02-14 17:15:00,23.5,6.2,29.91,NW,315,3.0,17.0,47,0.00,,BKN250,0.01,VWS V14.01,2013-02-14 23:15:00,
2013-02-14 17:16:00,23.5,6.2,29.91,NNW,328,5.0,17.0,47,0.00,,BKN250,0.01,VWS V14.01,2013-02-14 23:16:00,
2013-02-14 17:17:00,23.5,6.2,29.91,NNW,332,6.0,17.0,47,0.00,,BKN250,0.01,VWS V14.01,2013-02-14 23:17:00,
2013-02-14 17:18:00,23.3,6.1,29.91,NW,321,1.0,17.0,47,0.00,,BKN250,0.01,VWS V14.01,2013-02-14 23:18:00,
2013-02-14 17:19:00,23.3,6.1,29.91,NW,318,6.0,17.0,47,0.00,,BKN250,0.01,VWS V14.01,2013-02-14 23:19:00,
2013-02-14 17:20:00,23.3,6.1,29.91,North,7,7.0,17.0,47,0.00,,BKN250,0.01,VWS V14.01,2013-02-14 23:20:00,
2013-02-14 17:21:00,23.3,6.1,29.91,NW,324,7.0,17.0,47,0.00,,BKN250,0.01,VWS V14.01,2013-02-14 23:21:00,
2013-02-14 17:22:00,23.2,6.0,29.91,North,7,10.0,17.0,47,0.00,,BKN250,0.01,VWS V14.01,2013-02-14 23:22:00,
2013-02-14 17:23:00,23.2,6.0,29.91,WNW,301,3.0,17.0,47,0.00,,BKN250,0.01,VWS V14.01,2013-02-14 23:23:00,
2013-02-14 17:24:00,23.2,5.5,29.91,NNW,338,9.0,17.0,46,0.00,,BKN250,0.01,VWS V14.01,2013-02-14 23:24:00,
2013-02-14 17:25:00,23.2,6.0,29.91,NW,312,5.0,17.0,47,0.00,,BKN250,0.01,VWS V14.01,2013-02-14 23:25:00,
2013-02-14 17:26:00,23.2,6.0,29.91,NNW,336,5.0,17.0,47,0.00,,BKN250,0.01,VWS V14.01,2013-02-14 23:26:00,
2013-02-14 17:27:00,23.0,5.8,29.91,NW,318,3.0,17.0,47,0.00,,BKN250,0.01,VWS V14.01,2013-02-14 23:27:00,
2013-02-14 17:28:00,23.0,5.8,29.91,North,349,7.0,17.0,47,0.00,,BKN250,0.01,VWS V14.01,2013-02-14 23:28:00,
2013-02-14 17:29:00,23.0,5.8,29.91,NNE,12,10.0,17.0,47,0.00,,BKN250,0.01,VWS V14.01,2013-02-14 23:29:00,
2013-02-14 17:30:00,23.0,5.8,29.92,NW,318,10.0,17.0,47,0.00,,BKN250,0.01,VWS V14.01,2013-02-14 23:30:00,
2013-02-14 17:31:00,23.0,5.8,29.92,NNW,339,2.0,16.0,47,0.00,,BKN250,0.01,VWS V14.01,2013-02-14 23:31:00,
2013-02-14 17:32:00,23.0,5.3,29.92,NNW,334,6.0,16.0,46,0.00,,BKN250,0.01,VWS V14.01,2013-02-14 23:32:00,
2013-02-14 17:33:00,23.0,5.3,29.92,NW,310,10.0,16.0,46,0.00,,BKN250,0.01,VWS V14.01,2013-02-14 23:33:00,
2013-02-14 17:34:00,23.0,5.3,29.92,NNW,345,11.0,16.0,46,0.00,,BKN250,0.01,VWS V14.01,2013-02-14 23:34:00,
2013-02-14 17:35:00,23.0,5.3,29.92,NNW,339,6.0,16.0,46,0.00,,BKN250,0.01,VWS V14.01,2013-02-14 23:35:00,
2013-02-14 17:36:00,23.0,5.8,29.92,North,356,11.0,16.0,47,0.00,,BKN250,0.01,VWS V14.01,2013-02-14 23:36:00,
2013-02-14 17:37:00,22.9,5.7,29.92,NW,317,8.0,16.0,47,0.00,,BKN250,0.01,VWS V14.01,2013-02-14 23:37:00,
2013-02-14 17:38:00,22.9,5.7,29.92,North,349,8.0,16.0,47,0.00,,BKN250,0.01,VWS V14.01,2013-02-14 23:38:00,
2013-02-14 17:39:00,22.9,5.7,29.92,NNW,332,5.0,16.0,47,0.00,,BKN250,0.01,VWS V14.01,2013-02-14 23:39:00,
2013-02-14 17:40:00,22.9,5.7,29.92,NW,307,2.0,16.0,47,0.00,,BKN250,0.01,VWS V14.01,2013-02-14 23:40:00,
2013-02-14 17:41:00,22.9,5.7,29.92,NW,314,6.0,16.0,47,0.00,,BKN250,0.01,VWS V14.01,2013-02-14 23:41:00,
2013-02-14 17:42:00,22.7,6.0,29.92,NW,314,8.0,16.0,48,0.00,,BKN250,0.01,VWS V14.01,2013-02-14 23:42:00,
2013-02-14 17:43:00,22.7,6.0,29.92,NNW,334,9.0,16.0,48,0.00,,BKN250,0.01,VWS V14.01,2013-02-14 23:43:00,
2013-02-14 17:44:00,22.7,5.5,29.92,NW,318,5.0,16.0,47,0.00,,BKN250,0.01,VWS V14.01,2013-02-14 23:44:00,
2013-02-14 17:45:00,22.7,5.5,29.93,NW,311,14.0,16.0,47,0.00,,BKN250,0.01,VWS V14.01,2013-02-14 23:45:00,
2013-02-14 17:46:00,22.7,5.5,29.93,NNW,346,12.0,16.0,47,0.00,,BKN250,0.01,VWS V14.01,2013-02-14 23:46:00,
2013-02-14 17:47:00,22.7,5.5,29.93,NNW,346,12.0,16.0,47,0.00,,BKN250,0.01,VWS V14.01,2013-02-14 23:47:00,
2013-02-14 17:48:00,22.7,5.0,29.93,NNW,348,10.0,16.0,46,0.00,,BKN250,0.01,VWS V14.01,2013-02-14 23:48:00,
2013-02-14 17:49:00,22.7,5.0,29.93,NNW,339,10.0,16.0,46,0.00,,BKN250,0.01,VWS V14.01,2013-02-14 23:49:00,
2013-02-14 17:50:00,22.7,5.5,29.93,NW,321,6.0,16.0,47,0.00,,BKN250,0.01,VWS V14.01,2013-02-14 23:50:00,
2013-02-14 17:51:00,22.7,5.5,29.93,NNW,338,0.0,16.0,47,0.00,,BKN250,0.01,VWS V14.01,2013-02-14 23:51:00,
2013-02-14 17:52:00,22.7,5.5,29.93,NNW,334,8.0,16.0,47,0.00,,BKN250,0.01,VWS V14.01,2013-02-14 23:52:00,
2013-02-14 17:53:00,22.5,5.3,29.93,North,349,12.0,16.0,47,0.00,,BKN250,0.01,VWS V14.01,2013-02-14 23:53:00,
2013-02-14 17:54:00,22.5,5.3,29.93,NW,314,7.0,16.0,47,0.00,,BKN250,0.01,VWS V14.01,2013-02-14 23:54:00,
2013-02-14 17:55:00,22.5,5.3,29.93,NW,326,6.0,16.0,47,0.00,,BKN250,0.01,VWS V14.01,2013-02-14 23:55:00,
2013-02-14 17:56:00,22.5,5.3,29.93,NW,318,6.0,16.0,47,0.00,,BKN250,0.01,VWS V14.01,2013-02-14 23:56:00,
2013-02-14 17:57:00,22.4,5.2,29.93,NW,315,6.0,16.0,47,0.00,,BKN250,0.01,VWS V14.01,2013-02-14 23:57:00,
2013-02-14 17:58:00,22.4,5.2,29.93,NNW,329,2.0,16.0,47,0.00,,BKN250,0.01,VWS V14.01,2013-02-14 23:58:00,
2013-02-14 17:59:00,22.4,5.2,29.93,NNW,334,6.0,16.0,47,0.00,,BKN250,0.01,VWS V14.01,2013-02-14 23:59:00,
2013-02-14 18:00:00,22.4,5.2,29.94,NNW,342,10.0,16.0,47,0.00,,BKN250,0.01,VWS V14.01,2013-02-15 00:00:00,
2013-02-14 18:01:00,22.4,5.7,29.94,NW,307,1.0,10.0,48,0.00,,BKN250,0.01,VWS V14.01,2013-02-15 00:01:00,
2013-02-14 18:02:00,22.2,5.1,29.94,WNW,301,0.0,10.0,47,0.00,,BKN250,0.01,VWS V14.01,2013-02-15 00:02:00,
2013-02-14 18:03:00,22.2,5.1,29.94,NNW,345,0.0,10.0,47,0.00,,BKN250,0.01,VWS V14.01,2013-02-15 00:03:00,
2013-02-14 18:04:00,22.2,5.5,29.94,North,352,10.0,10.0,48,0.00,,BKN250,0.01,VWS V14.01,2013-02-15 00:04:00,
2013-02-14 18:05:00,22.2,5.1,29.94,NW,305,0.0,11.0,47,0.00,,BKN250,0.01,VWS V14.01,2013-02-15 00:05:00,
2013-02-14 18:06:00,22.1,5.0,29.94,NW,321,7.0,11.0,47,0.00,,BKN250,0.01,VWS V14.01,2013-02-15 00:06:00,
2013-02-14 18:07:00,22.1,5.0,29.94,NW,315,7.0,11.0,47,0.00,,BKN250,0.01,VWS V14.01,2013-02-15 00:07:00,
2013-02-14 18:08:00,22.1,5.0,29.94,NW,324,7.0,11.0,47,0.00,,BKN250,0.01,VWS V14.01,2013-02-15 00:08:00,
2013-02-14 18:09:00,22.1,5.0,29.94,NNW,338,5.0,11.0,47,0.00,,BKN250,0.01,VWS V14.01,2013-02-15 00:09:00,
2013-02-14 18:10:00,22.1,5.4,29.94,NNW,342,2.0,11.0,48,0.00,,BKN250,0.01,VWS V14.01,2013-02-15 00:10:00,
2013-02-14 18:11:00,21.9,5.2,29.94,North,356,7.0,11.0,48,0.00,,BKN250,0.01,VWS V14.01,2013-02-15 00:11:00,
2013-02-14 18:12:00,21.9,4.8,29.94,NW,318,3.0,13.0,47,0.00,,BKN250,0.01,VWS V14.01,2013-02-15 00:12:00,
2013-02-14 18:13:00,21.9,5.2,29.94,NW,322,1.0,13.0,48,0.00,,BKN250,0.01,VWS V14.01,2013-02-15 00:13:00,
2013-02-14 18:14:00,21.9,4.8,29.94,NNW,335,3.0,13.0,47,0.00,,BKN250,0.01,VWS V14.01,2013-02-15 00:14:00,
2013-02-14 18:15:00,21.9,5.2,29.95,NNW,343,5.0,13.0,48,0.00,,BKN250,0.01,VWS V14.01,2013-02-15 00:15:00,
2013-02-14 18:16:00,21.9,5.2,29.95,NNW,331,7.0,13.0,48,0.00,,BKN250,0.01,VWS V14.01,2013-02-15 00:16:00,
2013-02-14 18:17:00,21.8,5.1,29.95,NNW,338,8.0,13.0,48,0.00,,BKN250,0.01,VWS V14.01,2013-02-15 00:17:00,
2013-02-14 18:18:00,21.8,5.1,29.95,NW,311,1.0,13.0,48,0.00,,BKN250,0.01,VWS V14.01,2013-02-15 00:18:00,
2013-02-14 18:19:00,21.8,5.1,29.95,NNW,332,5.0,13.0,48,0.00,,BKN250,0.01,VWS V14.01,2013-02-15 00:19:00,
2013-02-14 18:20:00,21.8,5.1,29.95,WNW,297,1.0,13.0,48,0.00,,BKN250,0.01,VWS V14.01,2013-02-15 00:20:00,
2013-02-14 18:21:00,21.8,4.7,29.95,NNW,334,6.0,13.0,47,0.00,,BKN250,0.01,VWS V14.01,2013-02-15 00:21:00,
2013-02-14 18:22:00,21.8,4.7,29.95,NW,326,12.0,16.0,47,0.00,,BKN250,0.01,VWS V14.01,2013-02-15 00:22:00,
2013-02-14 18:23:00,21.8,4.7,29.95,NNW,328,6.0,16.0,47,0.00,,BKN250,0.01,VWS V14.01,2013-02-15 00:23:00,
2013-02-14 18:24:00,21.8,4.7,29.95,NW,311,1.0,16.0,47,0.00,,BKN250,0.01,VWS V14.01,2013-02-15 00:24:00,
2013-02-14 18:25:00,21.8,5.1,29.95,NNW,331,7.0,16.0,48,0.00,,BKN250,0.01,VWS V14.01,2013-02-15 00:25:00,
2013-02-14 18:26:00,21.6,5.0,29.95,North,356,6.0,16.0,48,0.00,,BKN250,0.01,VWS V14.01,2013-02-15 00:26:00,
2013-02-14 18:27:00,21.6,5.0,29.95,NNW,328,10.0,16.0,48,0.00,,BKN250,0.01,VWS V14.01,2013-02-15 00:27:00,
2013-02-14 18:28:00,21.6,5.0,29.95,North,349,8.0,16.0,48,0.00,,BKN250,0.01,VWS V14.01,2013-02-15 00:28:00,
2013-02-14 18:29:00,21.6,5.0,29.95,NW,312,1.0,16.0,48,0.00,,BKN250,0.01,VWS V14.01,2013-02-15 00:29:00,
2013-02-14 18:30:00,21.6,4.5,29.95,NW,321,5.0,16.0,47,0.00,,BKN250,0.01,VWS V14.01,2013-02-15 00:30:00,
2013-02-14 18:31:00,21.6,4.5,29.95,NNW,329,7.0,7.0,47,0.00,,BKN250,0.01,VWS V14.01,2013-02-15 00:31:00,
2013-02-14 18:32:00,21.6,5.0,29.95,NNW,346,10.0,10.0,48,0.00,,BKN250,0.01,VWS V14.01,2013-02-15 00:32:00,
2013-02-14 18:33:00,21.6,5.0,29.95,NNW,335,9.0,11.0,48,0.00,,BKN250,0.01,VWS V14.01,2013-02-15 00:33:00,
2013-02-14 18:34:00,21.6,4.5,29.95,NNW,329,0.0,11.0,47,0.00,,BKN250,0.01,VWS V14.01,2013-02-15 00:34:00,
2013-02-14 18:35:00,21.6,5.0,29.95,NNW,338,7.0,11.0,48,0.00,,BKN250,0.01,VWS V14.01,2013-02-15 00:35:00,
2013-02-14 18:36:00,21.4,4.8,29.95,WNW,293,9.0,11.0,48,0.00,,BKN250,0.01,VWS V14.01,2013-02-15 00:36:00,
2013-02-14 18:37:00,21.6,4.5,29.95,NNW,328,2.0,11.0,47,0.00,,BKN250,0.01,VWS V14.01,2013-02-15 00:37:00,
2013-02-14 18:38:00,21.6,4.5,29.95,NNW,346,6.0,11.0,47,0.00,,BKN250,0.01,VWS V14.01,2013-02-15 00:38:00,
2013-02-14 18:39:00,21.4,4.3,29.95,NNW,339,1.0,11.0,47,0.00,,BKN250,0.01,VWS V14.01,2013-02-15 00:39:00,
2013-02-14 18:40:00,21.4,4.8,29.95,NNW,336,7.0,11.0,48,0.00,,BKN250,0.01,VWS V14.01,2013-02-15 00:40:00,
2013-02-14 18:41:00,21.4,4.3,29.95,NW,326,8.0,11.0,47,0.00,,BKN250,0.01,VWS V14.01,2013-02-15 00:41:00,
2013-02-14 18:42:00,21.4,4.3,29.95,NW,325,2.0,11.0,47,0.00,,BKN250,0.01,VWS V14.01,2013-02-15 00:42:00,
2013-02-14 18:43:00,21.4,4.3,29.95,NNW,336,7.0,11.0,47,0.00,,BKN250,0.01,VWS V14.01,2013-02-15 00:43:00,
2013-02-14 18:44:00,21.4,4.3,29.95,NW,319,5.0,11.0,47,0.00,,BKN250,0.01,VWS V14.01,2013-02-15 00:44:00,
2013-02-14 18:45:00,21.4,4.3,29.96,NW,325,6.0,11.0,47,0.00,,BKN250,0.01,VWS V14.01,2013-02-15 00:45:00,
2013-02-14 18:46:00,21.4,4.3,29.96,NNW,336,6.0,11.0,47,0.00,,BKN250,0.01,VWS V14.01,2013-02-15 00:46:00,
2013-02-14 18:47:00,21.4,4.3,29.96,North,359,7.0,11.0,47,0.00,,BKN250,0.01,VWS V14.01,2013-02-15 00:47:00,
2013-02-14 18:48:00,21.4,4.3,29.96,NNW,335,3.0,11.0,47,0.00,,BKN250,0.01,VWS V14.01,2013-02-15 00:48:00,
2013-02-14 18:49:00,21.3,4.2,29.96,NW,321,6.0,11.0,47,0.00,,BKN250,0.01,VWS V14.01,2013-02-15 00:49:00,
2013-02-14 18:50:00,21.3,4.2,29.96,NW,319,7.0,11.0,47,0.00,,BKN250,0.01,VWS V14.01,2013-02-15 00:50:00,
2013-02-14 18:51:00,21.3,4.2,29.96,NNW,342,4.0,11.0,47,0.00,,BKN250,0.01,VWS V14.01,2013-02-15 00:51:00,
2013-02-14 18:52:00,21.3,4.2,29.96,NNW,345,3.0,11.0,47,0.00,,BKN250,0.01,VWS V14.01,2013-02-15 00:52:00,
2013-02-14 18:53:00,21.3,4.7,29.96,NNW,336,4.0,11.0,48,0.00,,BKN250,0.01,VWS V14.01,2013-02-15 00:53:00,
2013-02-14 18:54:00,21.3,4.7,29.96,NNW,342,11.0,12.0,48,0.00,,BKN250,0.01,VWS V14.01,2013-02-15 00:54:00,
2013-02-14 18:55:00,21.3,4.2,29.96,NNW,342,3.0,12.0,47,0.00,,BKN250,0.01,VWS V14.01,2013-02-15 00:55:00,
2013-02-14 18:56:00,21.3,4.7,29.96,NW,304,2.0,12.0,48,0.00,,BKN250,0.01,VWS V14.01,2013-02-15 00:56:00,
2013-02-14 18:57:00,21.3,4.7,29.96,NW,314,6.0,12.0,48,0.00,,BKN250,0.01,VWS V14.01,2013-02-15 00:57:00,
2013-02-14 18:58:00,21.3,4.7,29.96,NW,315,6.0,12.0,48,0.00,,BKN250,0.01,VWS V14.01,2013-02-15 00:58:00,
2013-02-14 18:59:00,21.1,4.5,29.96,NW,312,5.0,12.0,48,0.00,,BKN250,0.01,VWS V14.01,2013-02-15 00:59:00,
2013-02-14 19:00:00,21.1,4.5,29.97,NNW,342,8.0,12.0,48,0.00,,BKN250,0.01,VWS V14.01,2013-02-15 01:00:00,
2013-02-14 19:01:00,21.1,4.5,29.97,NW,314,7.0,8.0,48,0.00,,BKN250,0.01,VWS V14.01,2013-02-15 01:01:00,
2013-02-14 19:02:00,21.1,4.5,29.97,NW,326,7.0,8.0,48,0.00,,BKN250,0.01,VWS V14.01,2013-02-15 01:02:00,
2013-02-14 19:03:00,21.1,4.5,29.97,NNW,339,5.0,8.0,48,0.00,,BKN250,0.01,VWS V14.01,2013-02-15 01:03:00,
2013-02-14 19:04:00,21.1,4.5,29.97,NNW,341,5.0,10.0,48,0.00,,BKN250,0.01,VWS V14.01,2013-02-15 01:04:00,
2013-02-14 19:05:00,21.1,4.5,29.97,NNW,335,0.0,10.0,48,0.00,,BKN250,0.01,VWS V14.01,2013-02-15 01:05:00,
2013-02-14 19:06:00,21.1,4.5,29.97,NW,321,6.0,11.0,48,0.00,,BKN250,0.01,VWS V14.01,2013-02-15 01:06:00,
2013-02-14 19:07:00,21.0,4.4,29.97,NW,321,7.0,11.0,48,0.00,,BKN250,0.01,VWS V14.01,2013-02-15 01:07:00,
2013-02-14 19:08:00,21.0,4.4,29.97,NNW,342,6.0,11.0,48,0.00,,BKN250,0.01,VWS V14.01,2013-02-15 01:08:00,
2013-02-14 19:09:00,21.0,4.4,29.97,North,2,10.0,11.0,48,0.00,,BKN250,0.01,VWS V14.01,2013-02-15 01:09:00,
2013-02-14 19:10:00,21.0,4.4,29.97,NNW,338,2.0,11.0,48,0.00,,BKN250,0.01,VWS V14.01,2013-02-15 01:10:00,
2013-02-14 19:11:00,21.0,4.4,29.97,NNW,334,0.0,11.0,48,0.00,,BKN250,0.01,VWS V14.01,2013-02-15 01:11:00,
2013-02-14 19:12:00,21.0,4.4,29.97,NNW,341,0.0,11.0,48,0.00,,BKN250,0.01,VWS V14.01,2013-02-15 01:12:00,
2013-02-14 19:13:00,21.0,4.4,29.97,NW,315,4.0,11.0,48,0.00,,BKN250,0.01,VWS V14.01,2013-02-15 01:13:00,
2013-02-14 19:14:00,21.0,4.4,29.97,NNW,334,7.0,11.0,48,0.00,,BKN250,0.01,VWS V14.01,2013-02-15 01:14:00,
2013-02-14 19:15:00,21.0,4.4,29.98,NW,317,3.0,12.0,48,0.00,,BKN250,0.01,VWS V14.01,2013-02-15 01:15:00,
2013-02-14 19:16:00,21.0,4.4,29.98,NW,315,1.0,12.0,48,0.00,,BKN250,0.01,VWS V14.01,2013-02-15 01:16:00,
2013-02-14 19:17:00,21.0,4.4,29.98,NW,322,7.0,12.0,48,0.00,,BKN250,0.01,VWS V14.01,2013-02-15 01:17:00,
2013-02-14 19:18:00,20.8,4.2,29.98,NNW,331,7.0,12.0,48,0.00,,BKN250,0.01,VWS V14.01,2013-02-15 01:18:00,
2013-02-14 19:19:00,20.8,4.2,29.98,NW,314,1.0,12.0,48,0.00,,BKN250,0.01,VWS V14.01,2013-02-15 01:19:00,
2013-02-14 19:20:00,20.8,4.2,29.98,NW,317,7.0,12.0,48,0.00,,BKN250,0.01,VWS V14.01,2013-02-15 01:20:00,
2013-02-14 19:21:00,20.8,4.2,29.98,NW,324,0.0,12.0,48,0.00,,BKN250,0.01,VWS V14.01,2013-02-15 01:21:00,
2013-02-14 19:22:00,20.8,4.7,29.98,NW,324,6.0,12.0,49,0.00,,BKN250,0.01,VWS V14.01,2013-02-15 01:22:00,
2013-02-14 19:23:00,20.8,4.7,29.98,WNW,294,3.0,12.0,49,0.00,,BKN250,0.01,VWS V14.01,2013-02-15 01:23:00,
2013-02-14 19:24:00,20.6,4.5,29.98,NW,314,7.0,12.0,49,0.00,,BKN250,0.01,VWS V14.01,2013-02-15 01:24:00,
2013-02-14 19:25:00,20.6,4.5,29.98,NNW,329,0.0,12.0,49,0.00,,BKN250,0.01,VWS V14.01,2013-02-15 01:25:00,
2013-02-14 19:26:00,20.6,4.5,29.98,NW,315,3.0,12.0,49,0.00,,BKN250,0.01,VWS V14.01,2013-02-15 01:26:00,
2013-02-14 19:27:00,20.6,4.5,29.98,NW,324,6.0,12.0,49,0.00,,BKN250,0.01,VWS V14.01,2013-02-15 01:27:00,
2013-02-14 19:28:00,20.5,4.4,29.98,NW,324,2.0,12.0,49,0.00,,BKN250,0.01,VWS V14.01,2013-02-15 01:28:00,
2013-02-14 19:29:00,20.5,4.4,29.98,NW,321,3.0,12.0,49,0.00,,BKN250,0.01,VWS V14.01,2013-02-15 01:29:00,
2013-02-14 19:30:00,20.5,4.4,29.99,NW,322,4.0,12.0,49,0.00,,BKN250,0.01,VWS V14.01,2013-02-15 01:30:00,
2013-02-14 19:31:00,20.5,4.4,29.99,NW,322,3.0,5.0,49,0.00,,BKN250,0.01,VWS V14.01,2013-02-15 01:31:00,
2013-02-14 19:32:00,20.5,4.4,29.99,NW,325,6.0,6.0,49,0.00,,BKN250,0.01,VWS V14.01,2013-02-15 01:32:00,
2013-02-14 19:33:00,20.3,4.2,29.99,NW,325,6.0,6.0,49,0.00,,BKN250,0.01,VWS V14.01,2013-02-15 01:33:00,
2013-02-14 19:34:00,20.3,4.6,29.99,NW,324,3.0,6.0,50,0.00,,BKN250,0.01,VWS V14.01,2013-02-15 01:34:00,
2013-02-14 19:35:00,20.3,4.6,29.99,NW,324,0.0,6.0,50,0.00,,BKN250,0.01,VWS V14.01,2013-02-15 01:35:00,
2013-02-14 19:36:00,20.3,4.6,29.99,NW,324,2.0,6.0,50,0.00,,BKN250,0.01,VWS V14.01,2013-02-15 01:36:00,
2013-02-14 19:37:00,20.2,4.6,29.99,NW,304,1.0,6.0,50,0.00,,BKN250,0.01,VWS V14.01,2013-02-15 01:37:00,
2013-02-14 19:38:00,20.2,4.6,29.99,NW,305,3.0,6.0,50,0.00,,BKN250,0.01,VWS V14.01,2013-02-15 01:38:00,
2013-02-14 19:39:00,20.2,4.6,29.99,NW,324,5.0,7.0,50,0.00,,BKN250,0.01,VWS V14.01,2013-02-15 01:39:00,
2013-02-14 19:40:00,20.2,4.6,29.99,NW,321,2.0,7.0,50,0.00,,BKN250,0.01,VWS V14.01,2013-02-15 01:40:00,
2013-02-14 19:41:00,20.2,4.6,29.99,NNW,329,2.0,7.0,50,0.00,,BKN250,0.01,VWS V14.01,2013-02-15 01:41:00,
2013-02-14 19:42:00,20.2,4.6,29.99,NNW,328,0.0,7.0,50,0.00,,BKN250,0.01,VWS V14.01,2013-02-15 01:42:00,
2013-02-14 19:43:00,20.0,4.4,29.99,NNW,336,7.0,7.0,50,0.00,,SCT250,0.01,VWS V14.01,2013-02-15 01:43:00,
2013-02-14 19:44:00,20.0,4.4,29.99,NNW,334,2.0,7.0,50,0.00,,SCT250,0.01,VWS V14.01,2013-02-15 01:44:00,
2013-02-14 19:45:00,20.0,4.4,29.99,NNW,335,7.0,7.0,50,0.00,,SCT250,0.01,VWS V14.01,2013-02-15 01:45:00,
2013-02-14 19:46:00,20.0,4.4,29.99,NNW,335,2.0,7.0,50,0.00,,SCT250,0.01,VWS V14.01,2013-02-15 01:46:00,
2013-02-14 19:47:00,20.0,4.4,29.99,NNW,335,1.0,7.0,50,0.00,,SCT250,0.01,VWS V14.01,2013-02-15 01:47:00,
2013-02-14 19:48:00,19.9,4.3,29.99,NNW,335,1.0,7.0,50,0.00,,SCT250,0.01,VWS V14.01,2013-02-15 01:48:00,
2013-02-14 19:49:00,19.9,4.3,29.99,NNW,335,3.0,7.0,50,0.00,,SCT250,0.01,VWS V14.01,2013-02-15 01:49:00,
2013-02-14 19:50:00,19.9,4.3,29.99,NW,326,3.0,7.0,50,0.00,,SCT250,0.01,VWS V14.01,2013-02-15 01:50:00,
2013-02-14 19:51:00,19.9,4.3,29.99,NW,326,3.0,7.0,50,0.00,,SCT250,0.01,VWS V14.01,2013-02-15 01:51:00,
2013-02-14 19:52:00,19.7,4.5,29.99,NW,324,2.0,7.0,51,0.00,,SCT250,0.01,VWS V14.01,2013-02-15 01:52:00,
2013-02-14 19:53:00,19.7,4.5,29.99,NW,321,5.0,7.0,51,0.00,,SCT250,0.01,VWS V14.01,2013-02-15 01:53:00,
2013-02-14 19:54:00,19.7,4.5,29.99,NW,319,2.0,7.0,51,0.00,,SCT250,0.01,VWS V14.01,2013-02-15 01:54:00,
2013-02-14 19:55:00,19.5,4.3,29.99,NW,319,0.0,7.0,51,0.00,,SCT250,0.01,VWS V14.01,2013-02-15 01:55:00,
2013-02-14 19:56:00,19.4,4.2,29.99,NW,315,0.0,7.0,51,0.00,,SCT250,0.01,VWS V14.01,2013-02-15 01:56:00,
2013-02-14 19:57:00,19.4,4.2,29.99,NW,312,1.0,7.0,51,0.00,,SCT250,0.01,VWS V14.01,2013-02-15 01:57:00,
2013-02-14 19:58:00,19.4,4.2,29.99,NW,311,0.0,7.0,51,0.00,,SCT250,0.01,VWS V14.01,2013-02-15 01:58:00,
2013-02-14 19:59:00,19.2,4.1,29.99,NW,311,1.0,7.0,51,0.00,,SCT250,0.01,VWS V14.01,2013-02-15 01:59:00,
2013-02-14 20:00:00,19.2,4.1,30.00,NW,311,1.0,7.0,51,0.00,,SCT250,0.01,VWS V14.01,2013-02-15 02:00:00,
2013-02-14 20:01:00,19.2,4.5,30.00,NW,311,2.0,3.0,52,0.00,,SCT250,0.01,VWS V14.01,2013-02-15 02:01:00,
2013-02-14 20:02:00,19.1,4.4,30.00,NW,311,3.0,4.0,52,0.00,,SCT250,0.01,VWS V14.01,2013-02-15 02:02:00,
2013-02-14 20:03:00,19.1,4.4,30.00,NW,311,0.0,4.0,52,0.00,,SCT250,0.01,VWS V14.01,2013-02-15 02:03:00,
2013-02-14 20:04:00,18.9,4.2,30.00,NW,311,0.0,4.0,52,0.00,,SCT250,0.01,VWS V14.01,2013-02-15 02:04:00,
2013-02-14 20:05:00,18.9,4.2,30.00,NW,311,0.0,4.0,52,0.00,,SCT250,0.01,VWS V14.01,2013-02-15 02:05:00,
2013-02-14 20:06:00,18.9,4.6,30.00,NW,311,2.0,4.0,53,0.00,,SCT250,0.01,VWS V14.01,2013-02-15 02:06:00,
2013-02-14 20:07:00,18.8,4.5,30.00,NW,311,2.0,4.0,53,0.00,,SCT250,0.01,VWS V14.01,2013-02-15 02:07:00,
2013-02-14 20:08:00,18.8,4.5,30.00,NW,311,1.0,4.0,53,0.00,,SCT250,0.01,VWS V14.01,2013-02-15 02:08:00,
2013-02-14 20:09:00,18.8,4.5,30.00,NW,311,0.0,4.0,53,0.00,,SCT250,0.01,VWS V14.01,2013-02-15 02:09:00,
2013-02-14 20:10:00,18.6,4.3,30.00,NW,311,1.0,4.0,53,0.00,,SCT250,0.01,VWS V14.01,2013-02-15 02:10:00,
2013-02-14 20:11:00,18.6,4.3,30.00,NW,311,0.0,4.0,53,0.00,,SCT250,0.01,VWS V14.01,2013-02-15 02:11:00,
2013-02-14 20:12:00,18.6,4.3,30.00,NW,311,0.0,4.0,53,0.00,,SCT250,0.01,VWS V14.01,2013-02-15 02:12:00,
2013-02-14 20:13:00,18.4,4.1,30.00,NW,311,0.0,4.0,53,0.00,,SCT250,0.01,VWS V14.01,2013-02-15 02:13:00,
2013-02-14 20:14:00,18.4,4.6,30.00,NW,311,0.0,4.0,54,0.00,,SCT250,0.01,VWS V14.01,2013-02-15 02:14:00,
2013-02-14 20:15:00,18.4,4.6,30.01,NW,311,0.0,4.0,54,0.00,,SCT250,0.01,VWS V14.01,2013-02-15 02:15:00,
2013-02-14 20:16:00,18.3,4.4,30.01,NW,311,0.0,4.0,54,0.00,,SCT250,0.01,VWS V14.01,2013-02-15 02:16:00,
2013-02-14 20:17:00,18.1,4.3,30.01,NW,311,0.0,4.0,54,0.00,,SCT250,0.01,VWS V14.01,2013-02-15 02:17:00,
2013-02-14 20:18:00,18.1,4.3,30.01,NW,311,2.0,4.0,54,0.00,,SCT250,0.01,VWS V14.01,2013-02-15 02:18:00,
2013-02-14 20:19:00,18.0,4.2,30.01,NW,311,1.0,4.0,54,0.00,,SCT250,0.01,VWS V14.01,2013-02-15 02:19:00,
2013-02-14 20:20:00,18.0,4.6,30.01,NW,308,2.0,4.0,55,0.00,,SCT250,0.01,VWS V14.01,2013-02-15 02:20:00,
2013-02-14 20:21:00,17.8,4.0,30.01,NW,308,1.0,4.0,54,0.00,,SCT250,0.01,VWS V14.01,2013-02-15 02:21:00,
2013-02-14 20:22:00,17.8,4.0,30.01,NW,308,1.0,4.0,54,0.00,,SCT250,0.01,VWS V14.01,2013-02-15 02:22:00,
2013-02-14 20:23:00,17.8,4.0,30.01,NW,308,0.0,4.0,54,0.00,,SCT250,0.01,VWS V14.01,2013-02-15 02:23:00,
2013-02-14 20:24:00,17.7,4.3,30.01,NW,308,1.0,4.0,55,0.00,,SCT250,0.01,VWS V14.01,2013-02-15 02:24:00,
2013-02-14 20:25:00,17.7,3.9,30.01,NW,308,1.0,4.0,54,0.00,,SCT250,0.01,VWS V14.01,2013-02-15 02:25:00,
2013-02-14 20:26:00,17.7,4.3,30.01,NW,308,0.0,4.0,55,0.00,,SCT250,0.01,VWS V14.01,2013-02-15 02:26:00,
2013-02-14 20:27:00,17.7,4.3,30.01,NW,308,2.0,4.0,55,0.00,,SCT250,0.01,VWS V14.01,2013-02-15 02:27:00,
2013-02-14 20:28:00,17.5,4.1,30.01,NW,305,0.0,4.0,55,0.00,,SCT250,0.01,VWS V14.01,2013-02-15 02:28:00,
2013-02-14 20:29:00,17.5,4.1,30.01,WNW,295,3.0,4.0,55,0.00,,SCT250,0.01,VWS V14.01,2013-02-15 02:29:00,
2013-02-14 20:30:00,17.3,3.9,30.01,WNW,294,1.0,4.0,55,0.00,,SCT250,0.01,VWS V14.01,2013-02-15 02:30:00,
2013-02-14 20:31:00,17.3,3.9,30.01,WNW,294,2.0,4.0,55,0.00,,SCT250,0.01,VWS V14.01,2013-02-15 02:31:00,
2013-02-14 20:32:00,17.3,3.9,30.01,WNW,294,1.0,4.0,55,0.00,,SCT250,0.01,VWS V14.01,2013-02-15 02:32:00,
2013-02-14 20:33:00,17.2,3.8,30.01,WNW,294,2.0,4.0,55,0.00,,SCT250,0.01,VWS V14.01,2013-02-15 02:33:00,
2013-02-14 20:34:00,17.2,3.8,30.01,WNW,294,4.0,4.0,55,0.00,,SCT250,0.01,VWS V14.01,2013-02-15 02:34:00,
2013-02-14 20:35:00,17.0,3.6,30.01,WNW,294,1.0,5.0,55,0.00,,SCT250,0.01,VWS V14.01,2013-02-15 02:35:00,
2013-02-14 20:36:00,17.0,3.6,30.01,WNW,293,1.0,5.0,55,0.00,,SCT250,0.01,VWS V14.01,2013-02-15 02:36:00,
2013-02-14 20:37:00,16.9,3.9,30.01,WNW,293,3.0,5.0,56,0.00,,SCT250,0.01,VWS V14.01,2013-02-15 02:37:00,
2013-02-14 20:38:00,16.9,3.9,30.01,WNW,293,0.0,5.0,56,0.00,,SCT250,0.01,VWS V14.01,2013-02-15 02:38:00,
2013-02-14 20:39:00,16.7,3.7,30.01,WNW,293,2.0,5.0,56,0.00,,SCT250,0.01,VWS V14.01,2013-02-15 02:39:00,
2013-02-14 20:40:00,16.7,3.7,30.01,WNW,293,3.0,5.0,56,0.00,,SCT250,0.01,VWS V14.01,2013-02-15 02:40:00,
2013-02-14 20:41:00,16.5,3.5,30.01,WNW,293,2.0,5.0,56,0.00,,SCT250,0.01,VWS V14.01,2013-02-15 02:41:00,
2013-02-14 20:42:00,16.5,3.5,30.01,WNW,293,3.0,5.0,56,0.00,,SCT250,0.01,VWS V14.01,2013-02-15 02:42:00,
2013-02-14 20:43:00,16.5,3.5,30.01,WNW,293,5.0,5.0,56,0.00,,FEW250,0.01,VWS V14.01,2013-02-15 02:43:00,
2013-02-14 20:44:00,16.5,3.9,30.01,WNW,293,0.0,5.0,57,0.00,,FEW250,0.01,VWS V14.01,2013-02-15 02:44:00,
2013-02-14 20:45:00,16.4,3.8,30.02,WNW,293,1.0,5.0,57,0.00,,FEW250,0.01,VWS V14.01,2013-02-15 02:45:00,
2013-02-14 20:46:00,16.4,3.8,30.02,WNW,293,2.0,5.0,57,0.00,,FEW250,0.01,VWS V14.01,2013-02-15 02:46:00,
2013-02-14 20:47:00,16.4,3.8,30.02,WNW,293,3.0,5.0,57,0.00,,FEW250,0.01,VWS V14.01,2013-02-15 02:47:00,
2013-02-14 20:48:00,16.4,3.8,30.02,WNW,294,0.0,5.0,57,0.00,,FEW250,0.01,VWS V14.01,2013-02-15 02:48:00,
2013-02-14 20:49:00,16.2,3.7,30.02,WNW,294,0.0,5.0,57,0.00,,FEW250,0.01,VWS V14.01,2013-02-15 02:49:00,
2013-02-14 20:50:00,16.2,3.7,30.02,WNW,294,0.0,5.0,57,0.00,,FEW250,0.01,VWS V14.01,2013-02-15 02:50:00,
2013-02-14 20:51:00,16.2,3.7,30.02,WNW,293,2.0,5.0,57,0.00,,FEW250,0.01,VWS V14.01,2013-02-15 02:51:00,
2013-02-14 20:52:00,16.1,3.6,30.02,WNW,293,2.0,5.0,57,0.00,,FEW250,0.01,VWS V14.01,2013-02-15 02:52:00,
2013-02-14 20:53:00,16.1,3.6,30.02,WNW,293,2.0,5.0,57,0.00,,FEW250,0.01,VWS V14.01,2013-02-15 02:53:00,
2013-02-14 20:54:00,16.1,3.6,30.02,WNW,291,1.0,5.0,57,0.00,,FEW250,0.01,VWS V14.01,2013-02-15 02:54:00,
2013-02-14 20:55:00,16.1,3.6,30.02,WNW,291,1.0,5.0,57,0.00,,FEW250,0.01,VWS V14.01,2013-02-15 02:55:00,
2013-02-14 20:56:00,15.9,3.8,30.02,WNW,291,0.0,5.0,58,0.00,,FEW250,0.01,VWS V14.01,2013-02-15 02:56:00,
2013-02-14 20:57:00,15.9,3.4,30.02,WNW,291,2.0,5.0,57,0.00,,FEW250,0.01,VWS V14.01,2013-02-15 02:57:00,
2013-02-14 20:58:00,15.9,3.8,30.02,WNW,291,0.0,5.0,58,0.00,,FEW250,0.01,VWS V14.01,2013-02-15 02:58:00,
2013-02-14 20:59:00,15.7,3.6,30.02,WNW,291,1.0,5.0,58,0.00,,FEW250,0.01,VWS V14.01,2013-02-15 02:59:00,
2013-02-14 21:00:00,15.7,3.6,30.02,WNW,291,0.0,5.0,58,0.00,,FEW250,0.01,VWS V14.01,2013-02-15 03:00:00,
2013-02-14 21:01:00,15.7,3.6,30.02,WNW,291,2.0,3.0,58,0.00,,FEW250,0.01,VWS V14.01,2013-02-15 03:01:00,
2013-02-14 21:02:00,15.7,3.6,30.02,WNW,291,3.0,3.0,58,0.00,,FEW250,0.01,VWS V14.01,2013-02-15 03:02:00,
2013-02-14 21:03:00,15.7,3.6,30.02,WNW,291,0.0,3.0,58,0.00,,FEW250,0.01,VWS V14.01,2013-02-15 03:03:00,
2013-02-14 21:04:00,15.6,3.5,30.02,WNW,291,2.0,3.0,58,0.00,,FEW250,0.01,VWS V14.01,2013-02-15 03:04:00,
2013-02-14 21:05:00,15.6,3.5,30.02,WNW,291,2.0,3.0,58,0.00,,FEW250,0.01,VWS V14.01,2013-02-15 03:05:00,
2013-02-14 21:06:00,15.6,3.5,30.02,WNW,291,0.0,3.0,58,0.00,,FEW250,0.01,VWS V14.01,2013-02-15 03:06:00,
2013-02-14 21:07:00,15.6,3.5,30.02,WNW,291,2.0,3.0,58,0.00,,FEW250,0.01,VWS V14.01,2013-02-15 03:07:00,
2013-02-14 21:08:00,15.4,3.7,30.02,WNW,291,2.0,4.0,59,0.00,,FEW250,0.01,VWS V14.01,2013-02-15 03:08:00,
2013-02-14 21:09:00,15.4,3.7,30.02,WNW,291,1.0,4.0,59,0.00,,FEW250,0.01,VWS V14.01,2013-02-15 03:09:00,
2013-02-14 21:10:00,15.4,3.7,30.02,WNW,291,5.0,5.0,59,0.00,,FEW250,0.01,VWS V14.01,2013-02-15 03:10:00,
2013-02-14 21:11:00,15.4,3.7,30.02,WNW,291,0.0,5.0,59,0.00,,FEW250,0.01,VWS V14.01,2013-02-15 03:11:00,
2013-02-14 21:12:00,15.2,3.5,30.02,WNW,291,2.0,5.0,59,0.00,,FEW250,0.01,VWS V14.01,2013-02-15 03:12:00,
2013-02-14 21:13:00,15.2,3.5,30.02,WNW,291,2.0,5.0,59,0.00,,FEW250,0.01,VWS V14.01,2013-02-15 03:13:00,
2013-02-14 21:14:00,15.2,3.5,30.02,WNW,291,0.0,5.0,59,0.00,,FEW250,0.01,VWS V14.01,2013-02-15 03:14:00,
2013-02-14 21:15:00,15.2,3.5,30.03,WNW,291,1.0,5.0,59,0.00,,FEW250,0.01,VWS V14.01,2013-02-15 03:15:00,
2013-02-14 21:16:00,15.2,3.5,30.03,WNW,291,1.0,5.0,59,0.00,,FEW250,0.01,VWS V14.01,2013-02-15 03:16:00,
2013-02-14 21:17:00,15.1,3.4,30.03,WNW,291,1.0,5.0,59,0.00,,FEW250,0.01,VWS V14.01,2013-02-15 03:17:00,
2013-02-14 21:18:00,15.1,3.7,30.03,WNW,291,1.0,5.0,60,0.00,,FEW250,0.01,VWS V14.01,2013-02-15 03:18:00,
2013-02-14 21:19:00,15.1,3.7,30.03,WNW,291,1.0,5.0,60,0.00,,FEW250,0.01,VWS V14.01,2013-02-15 03:19:00,
2013-02-14 21:20:00,14.9,3.5,30.03,WNW,291,1.0,5.0,60,0.00,,FEW250,0.01,VWS V14.01,2013-02-15 03:20:00,
2013-02-14 21:21:00,14.9,3.5,30.03,WNW,291,3.0,5.0,60,0.00,,FEW250,0.01,VWS V14.01,2013-02-15 03:21:00,
2013-02-14 21:22:00,14.9,3.5,30.03,WNW,291,1.0,5.0,60,0.00,,FEW250,0.01,VWS V14.01,2013-02-15 03:22:00,
2013-02-14 21:23:00,14.9,3.5,30.03,WNW,291,1.0,5.0,60,0.00,,FEW250,0.01,VWS V14.01,2013-02-15 03:23:00,
2013-02-14 21:24:00,14.9,3.5,30.03,WNW,291,2.0,5.0,60,0.00,,FEW250,0.01,VWS V14.01,2013-02-15 03:24:00,
2013-02-14 21:25:00,14.8,3.4,30.03,WNW,291,2.0,5.0,60,0.00,,FEW250,0.01,VWS V14.01,2013-02-15 03:25:00,
2013-02-14 21:26:00,14.8,3.4,30.03,WNW,291,1.0,5.0,60,0.00,,FEW250,0.01,VWS V14.01,2013-02-15 03:26:00,
2013-02-14 21:27:00,14.8,3.4,30.03,WNW,291,1.0,5.0,60,0.00,,FEW250,0.01,VWS V14.01,2013-02-15 03:27:00,
2013-02-14 21:28:00,14.6,3.2,30.03,WNW,291,2.0,5.0,60,0.00,,FEW250,0.01,VWS V14.01,2013-02-15 03:28:00,
2013-02-14 21:29:00,14.6,3.6,30.03,WNW,291,2.0,5.0,61,0.00,,FEW250,0.01,VWS V14.01,2013-02-15 03:29:00,
2013-02-14 21:30:00,14.6,3.6,30.03,WNW,291,0.0,5.0,61,0.00,,FEW250,0.01,VWS V14.01,2013-02-15 03:30:00,
2013-02-14 21:31:00,14.6,3.6,30.03,WNW,290,0.0,3.0,61,0.00,,FEW250,0.01,VWS V14.01,2013-02-15 03:31:00,
2013-02-14 21:32:00,14.6,3.6,30.03,WNW,290,0.0,4.0,61,0.00,,FEW250,0.01,VWS V14.01,2013-02-15 03:32:00,
2013-02-14 21:33:00,14.6,3.6,30.03,WNW,290,0.0,4.0,61,0.00,,FEW250,0.01,VWS V14.01,2013-02-15 03:33:00,
2013-02-14 21:34:00,14.6,3.6,30.03,WNW,291,2.0,4.0,61,0.00,,FEW250,0.01,VWS V14.01,2013-02-15 03:34:00,
2013-02-14 21:35:00,14.6,3.6,30.03,WNW,293,3.0,4.0,61,0.00,,FEW250,0.01,VWS V14.01,2013-02-15 03:35:00,
2013-02-14 21:36:00,14.4,3.4,30.03,WNW,293,0.0,4.0,61,0.00,,FEW250,0.01,VWS V14.01,2013-02-15 03:36:00,
2013-02-14 21:37:00,14.4,3.4,30.03,WNW,293,2.0,4.0,61,0.00,,FEW250,0.01,VWS V14.01,2013-02-15 03:37:00,
2013-02-14 21:38:00,14.6,3.6,30.03,WNW,293,1.0,4.0,61,0.00,,FEW250,0.01,VWS V14.01,2013-02-15 03:38:00,
2013-02-14 21:39:00,14.4,3.4,30.03,WNW,294,4.0,5.0,61,0.00,,FEW250,0.01,VWS V14.01,2013-02-15 03:39:00,
2013-02-14 21:40:00,14.6,3.6,30.03,WNW,294,0.0,6.0,61,0.00,,FEW250,0.01,VWS V14.01,2013-02-15 03:40:00,
2013-02-14 21:41:00,14.6,3.6,30.03,WNW,294,3.0,6.0,61,0.00,,FEW250,0.01,VWS V14.01,2013-02-15 03:41:00,
2013-02-14 21:42:00,14.6,3.6,30.03,WNW,294,0.0,6.0,61,0.00,,FEW250,0.01,VWS V14.01,2013-02-15 03:42:00,
2013-02-14 21:43:00,14.6,3.6,30.03,WNW,293,3.0,6.0,61,0.00,,FEW250,0.01,VWS V14.01,2013-02-15 03:43:00,
2013-02-14 21:44:00,14.4,3.4,30.03,WNW,293,0.0,6.0,61,0.00,,FEW250,0.01,VWS V14.01,2013-02-15 03:44:00,
2013-02-14 21:45:00,14.4,3.4,30.03,WNW,294,2.0,6.0,61,0.00,,FEW250,0.01,VWS V14.01,2013-02-15 03:45:00,
2013-02-14 21:46:00,14.4,3.4,30.03,WNW,294,2.0,6.0,61,0.00,,FEW250,0.01,VWS V14.01,2013-02-15 03:46:00,
2013-02-14 21:47:00,14.4,3.4,30.03,WNW,294,3.0,6.0,61,0.00,,FEW250,0.01,VWS V14.01,2013-02-15 03:47:00,
2013-02-14 21:48:00,14.4,3.4,30.03,WNW,294,1.0,6.0,61,0.00,,FEW250,0.01,VWS V14.01,2013-02-15 03:48:00,
2013-02-14 21:49:00,14.4,3.4,30.03,WNW,294,2.0,6.0,61,0.00,,FEW250,0.01,VWS V14.01,2013-02-15 03:49:00,
2013-02-14 21:50:00,14.4,3.4,30.03,WNW,294,5.0,6.0,61,0.00,,FEW250,0.01,VWS V14.01,2013-02-15 03:50:00,
2013-02-14 21:51:00,14.4,3.4,30.03,WNW,294,0.0,6.0,61,0.00,,FEW250,0.01,VWS V14.01,2013-02-15 03:51:00,
2013-02-14 21:52:00,14.4,3.4,30.03,WNW,297,3.0,6.0,61,0.00,,FEW250,0.01,VWS V14.01,2013-02-15 03:52:00,
2013-02-14 21:53:00,14.4,3.4,30.03,WNW,297,3.0,6.0,61,0.00,,FEW250,0.01,VWS V14.01,2013-02-15 03:53:00,
2013-02-14 21:54:00,14.4,3.4,30.03,WNW,297,2.0,6.0,61,0.00,,FEW250,0.01,VWS V14.01,2013-02-15 03:54:00,
2013-02-14 21:55:00,14.3,3.3,30.03,WNW,297,3.0,6.0,61,0.00,,FEW250,0.01,VWS V14.01,2013-02-15 03:55:00,
2013-02-14 21:56:00,14.3,3.3,30.03,WNW,297,0.0,6.0,61,0.00,,FEW250,0.01,VWS V14.01,2013-02-15 03:56:00,
2013-02-14 21:57:00,14.3,3.3,30.03,WNW,297,0.0,6.0,61,0.00,,FEW250,0.01,VWS V14.01,2013-02-15 03:57:00,
2013-02-14 21:58:00,14.3,3.3,30.03,WNW,297,1.0,6.0,61,0.00,,FEW250,0.01,VWS V14.01,2013-02-15 03:58:00,
2013-02-14 21:59:00,14.3,3.7,30.03,WNW,297,1.0,6.0,62,0.00,,FEW250,0.01,VWS V14.01,2013-02-15 03:59:00,
2013-02-14 22:00:00,14.3,3.7,30.04,WNW,297,0.0,6.0,62,0.00,,FEW250,0.01,VWS V14.01,2013-02-15 04:00:00,
2013-02-14 22:01:00,14.3,3.7,30.04,WNW,298,3.0,3.0,62,0.00,,FEW250,0.01,VWS V14.01,2013-02-15 04:01:00,
2013-02-14 22:02:00,14.3,3.7,30.04,WNW,298,1.0,5.0,62,0.00,,FEW250,0.01,VWS V14.01,2013-02-15 04:02:00,
2013-02-14 22:03:00,14.3,3.7,30.04,WNW,298,2.0,5.0,62,0.00,,FEW250,0.01,VWS V14.01,2013-02-15 04:03:00,
2013-02-14 22:04:00,14.1,3.5,30.04,WNW,298,1.0,5.0,62,0.00,,FEW250,0.01,VWS V14.01,2013-02-15 04:04:00,
2013-02-14 22:05:00,14.1,3.5,30.04,WNW,298,0.0,5.0,62,0.00,,FEW250,0.01,VWS V14.01,2013-02-15 04:05:00,
2013-02-14 22:06:00,14.1,3.8,30.04,WNW,298,2.0,5.0,63,0.00,,FEW250,0.01,VWS V14.01,2013-02-15 04:06:00,
2013-02-14 22:07:00,14.1,3.8,30.04,WNW,298,3.0,5.0,63,0.00,,FEW250,0.01,VWS V14.01,2013-02-15 04:07:00,
2013-02-14 22:08:00,14.1,3.8,30.04,WNW,298,3.0,5.0,63,0.00,,FEW250,0.01,VWS V14.01,2013-02-15 04:08:00,
2013-02-14 22:09:00,14.1,3.8,30.04,WNW,298,3.0,5.0,63,0.00,,FEW250,0.01,VWS V14.01,2013-02-15 04:09:00,
2013-02-14 22:10:00,14.1,3.8,30.04,NW,307,2.0,6.0,63,0.00,,FEW250,0.01,VWS V14.01,2013-02-15 04:10:00,
2013-02-14 22:11:00,14.1,3.8,30.04,NW,307,1.0,6.0,63,0.00,,FEW250,0.01,VWS V14.01,2013-02-15 04:11:00,
2013-02-14 22:12:00,14.1,3.8,30.04,NW,307,1.0,6.0,63,0.00,,FEW250,0.01,VWS V14.01,2013-02-15 04:12:00,
2013-02-14 22:13:00,14.0,3.7,30.04,NW,307,3.0,6.0,63,0.00,,FEW250,0.01,VWS V14.01,2013-02-15 04:13:00,
2013-02-14 22:14:00,14.0,4.1,30.04,NW,307,1.0,6.0,64,0.00,,FEW250,0.01,VWS V14.01,2013-02-15 04:14:00,
2013-02-14 22:15:00,14.0,4.1,30.04,NW,307,2.0,6.0,64,0.00,,FEW250,0.01,VWS V14.01,2013-02-15 04:15:00,
2013-02-14 22:16:00,14.0,3.7,30.04,NW,307,0.0,6.0,63,0.00,,FEW250,0.01,VWS V14.01,2013-02-15 04:16:00,
2013-02-14 22:17:00,14.0,4.1,30.04,NW,307,0.0,6.0,64,0.00,,FEW250,0.01,VWS V14.01,2013-02-15 04:17:00,
2013-02-14 22:18:00,14.0,4.1,30.04,NW,307,3.0,6.0,64,0.00,,FEW250,0.01,VWS V14.01,2013-02-15 04:18:00,
2013-02-14 22:19:00,14.0,4.1,30.04,NW,307,4.0,6.0,64,0.00,,FEW250,0.01,VWS V14.01,2013-02-15 04:19:00,
2013-02-14 22:20:00,14.0,4.1,30.04,NW,307,3.0,6.0,64,0.00,,FEW250,0.01,VWS V14.01,2013-02-15 04:20:00,
2013-02-14 22:21:00,14.0,4.1,30.04,NW,307,2.0,6.0,64,0.00,,FEW250,0.01,VWS V14.01,2013-02-15 04:21:00,
2013-02-14 22:22:00,13.8,3.9,30.04,NW,307,0.0,6.0,64,0.00,,FEW250,0.01,VWS V14.01,2013-02-15 04:22:00,
2013-02-14 22:23:00,13.8,3.9,30.04,NW,307,2.0,6.0,64,0.00,,FEW250,0.01,VWS V14.01,2013-02-15 04:23:00,
2013-02-14 22:24:00,13.8,3.9,30.04,NW,307,2.0,6.0,64,0.00,,FEW250,0.01,VWS V14.01,2013-02-15 04:24:00,
2013-02-14 22:25:00,13.8,3.9,30.04,NW,307,2.0,6.0,64,0.00,,FEW250,0.01,VWS V14.01,2013-02-15 04:25:00,
2013-02-14 22:26:00,13.8,4.2,30.04,NW,307,2.0,6.0,65,0.00,,FEW250,0.01,VWS V14.01,2013-02-15 04:26:00,
2013-02-14 22:27:00,13.8,4.2,30.04,NW,307,1.0,6.0,65,0.00,,FEW250,0.01,VWS V14.01,2013-02-15 04:27:00,
2013-02-14 22:28:00,13.6,4.0,30.04,NW,307,0.0,6.0,65,0.00,,FEW250,0.01,VWS V14.01,2013-02-15 04:28:00,
2013-02-14 22:29:00,13.6,4.0,30.04,NW,307,2.0,6.0,65,0.00,,FEW250,0.01,VWS V14.01,2013-02-15 04:29:00,
2013-02-14 22:30:00,13.6,4.0,30.04,NW,307,0.0,6.0,65,0.00,,FEW250,0.01,VWS V14.01,2013-02-15 04:30:00,
2013-02-14 22:31:00,13.6,4.0,30.04,NW,307,0.0,1.0,65,0.00,,FEW250,0.01,VWS V14.01,2013-02-15 04:31:00,
2013-02-14 22:32:00,13.5,3.9,30.04,NW,307,0.0,1.0,65,0.00,,FEW250,0.01,VWS V14.01,2013-02-15 04:32:00,
2013-02-14 22:33:00,13.5,3.9,30.04,NW,307,0.0,2.0,65,0.00,,FEW250,0.01,VWS V14.01,2013-02-15 04:33:00,
2013-02-14 22:34:00,13.5,3.9,30.04,NW,307,0.0,2.0,65,0.00,,FEW250,0.01,VWS V14.01,2013-02-15 04:34:00,
2013-02-14 22:35:00,13.5,3.9,30.04,NW,307,0.0,2.0,65,0.00,,FEW250,0.01,VWS V14.01,2013-02-15 04:35:00,
2013-02-14 22:36:00,13.5,3.9,30.04,NW,307,0.0,2.0,65,0.00,,FEW250,0.01,VWS V14.01,2013-02-15 04:36:00,
2013-02-14 22:37:00,13.3,3.8,30.04,NW,307,0.0,2.0,65,0.00,,FEW250,0.01,VWS V14.01,2013-02-15 04:37:00,
2013-02-14 22:38:00,13.3,3.8,30.04,NW,307,0.0,2.0,65,0.00,,FEW250,0.01,VWS V14.01,2013-02-15 04:38:00,
2013-02-14 22:39:00,13.3,4.1,30.04,NW,307,0.0,2.0,66,0.00,,FEW250,0.01,VWS V14.01,2013-02-15 04:39:00,
2013-02-14 22:40:00,13.3,4.1,30.04,NW,307,3.0,3.0,66,0.00,,FEW250,0.01,VWS V14.01,2013-02-15 04:40:00,
2013-02-14 22:41:00,13.3,4.1,30.04,NW,307,1.0,3.0,66,0.00,,FEW250,0.01,VWS V14.01,2013-02-15 04:41:00,
2013-02-14 22:42:00,13.1,3.9,30.04,NW,307,0.0,3.0,66,0.00,,FEW250,0.01,VWS V14.01,2013-02-15 04:42:00,
2013-02-14 22:43:00,13.1,3.9,30.04,NW,307,0.0,3.0,66,0.00,,CLR,0.01,VWS V14.01,2013-02-15 04:43:00,
2013-02-14 22:44:00,13.1,3.9,30.04,NW,307,0.0,3.0,66,0.00,,CLR,0.01,VWS V14.01,2013-02-15 04:44:00,
2013-02-14 22:45:00,12.9,3.7,30.05,NW,307,0.0,3.0,66,0.00,,CLR,0.01,VWS V14.01,2013-02-15 04:45:00,
2013-02-14 22:46:00,12.9,3.7,30.05,NW,305,3.0,3.0,66,0.00,,CLR,0.01,VWS V14.01,2013-02-15 04:46:00,
2013-02-14 22:47:00,12.9,3.7,30.05,NW,305,2.0,3.0,66,0.00,,CLR,0.01,VWS V14.01,2013-02-15 04:47:00,
2013-02-14 22:48:00,12.9,3.7,30.05,WNW,302,4.0,4.0,66,0.00,,CLR,0.01,VWS V14.01,2013-02-15 04:48:00,
2013-02-14 22:49:00,12.9,4.0,30.05,WNW,302,0.0,5.0,67,0.00,,CLR,0.01,VWS V14.01,2013-02-15 04:49:00,
2013-02-14 22:50:00,12.8,3.6,30.05,WNW,302,1.0,5.0,66,0.00,,CLR,0.01,VWS V14.01,2013-02-15 04:50:00,
2013-02-14 22:51:00,12.8,3.6,30.05,WNW,301,1.0,5.0,66,0.00,,CLR,0.01,VWS V14.01,2013-02-15 04:51:00,
2013-02-14 22:52:00,12.8,3.9,30.05,WNW,301,0.0,5.0,67,0.00,,CLR,0.01,VWS V14.01,2013-02-15 04:52:00,
2013-02-14 22:53:00,12.8,3.6,30.05,WNW,301,1.0,5.0,66,0.00,,CLR,0.01,VWS V14.01,2013-02-15 04:53:00,
2013-02-14 22:54:00,12.8,3.6,30.05,WNW,300,0.0,5.0,66,0.00,,CLR,0.01,VWS V14.01,2013-02-15 04:54:00,
2013-02-14 22:55:00,12.6,3.7,30.05,WNW,300,1.0,5.0,67,0.00,,CLR,0.01,VWS V14.01,2013-02-15 04:55:00,
2013-02-14 22:56:00,12.6,3.7,30.05,WNW,300,1.0,5.0,67,0.00,,CLR,0.01,VWS V14.01,2013-02-15 04:56:00,
2013-02-14 22:57:00,12.6,3.7,30.05,WNW,300,1.0,5.0,67,0.00,,CLR,0.01,VWS V14.01,2013-02-15 04:57:00,
2013-02-14 22:58:00,12.6,3.7,30.05,WNW,298,0.0,5.0,67,0.00,,CLR,0.01,VWS V14.01,2013-02-15 04:58:00,
2013-02-14 22:59:00,12.6,3.7,30.05,WNW,298,1.0,5.0,67,0.00,,CLR,0.01,VWS V14.01,2013-02-15 04:59:00,
2013-02-14 23:00:00,12.4,3.5,30.05,WNW,298,3.0,5.0,67,0.00,,CLR,0.01,VWS V14.01,2013-02-15 05:00:00,
2013-02-14 23:01:00,12.4,3.5,30.05,WNW,297,0.0,4.0,67,0.00,,CLR,0.01,VWS V14.01,2013-02-15 05:01:00,
2013-02-14 23:02:00,12.4,3.2,30.05,WNW,297,4.0,6.0,66,0.00,,CLR,0.01,VWS V14.01,2013-02-15 05:02:00,
2013-02-14 23:03:00,12.4,3.5,30.05,WNW,297,3.0,6.0,67,0.00,,CLR,0.01,VWS V14.01,2013-02-15 05:03:00,
2013-02-14 23:04:00,12.3,3.5,30.05,WNW,297,2.0,6.0,67,0.00,,CLR,0.01,VWS V14.01,2013-02-15 05:04:00,
2013-02-14 23:05:00,12.3,3.5,30.05,WNW,297,3.0,6.0,67,0.00,,CLR,0.01,VWS V14.01,2013-02-15 05:05:00,
2013-02-14 23:06:00,12.3,3.5,30.05,WNW,297,2.0,6.0,67,0.00,,CLR,0.01,VWS V14.01,2013-02-15 05:06:00,
2013-02-14 23:07:00,12.1,3.3,30.05,WNW,297,3.0,6.0,67,0.00,,CLR,0.01,VWS V14.01,2013-02-15 05:07:00,
2013-02-14 23:08:00,12.1,3.3,30.05,WNW,297,3.0,6.0,67,0.00,,CLR,0.01,VWS V14.01,2013-02-15 05:08:00,
2013-02-14 23:09:00,12.1,3.3,30.05,WNW,298,0.0,6.0,67,0.00,,CLR,0.01,VWS V14.01,2013-02-15 05:09:00,
2013-02-14 23:10:00,12.1,3.3,30.05,WNW,287,0.0,6.0,67,0.00,,CLR,0.01,VWS V14.01,2013-02-15 05:10:00,
2013-02-14 23:11:00,12.1,3.3,30.05,WNW,287,2.0,6.0,67,0.00,,CLR,0.01,VWS V14.01,2013-02-15 05:11:00,
2013-02-14 23:12:00,11.9,3.1,30.05,WNW,288,2.0,6.0,67,0.00,,CLR,0.01,VWS V14.01,2013-02-15 05:12:00,
2013-02-14 23:13:00,11.9,3.1,30.05,WNW,288,0.0,6.0,67,0.00,,CLR,0.01,VWS V14.01,2013-02-15 05:13:00,
2013-02-14 23:14:00,11.7,2.9,30.05,WNW,287,1.0,6.0,67,0.00,,CLR,0.01,VWS V14.01,2013-02-15 05:14:00,
2013-02-14 23:15:00,11.7,2.9,30.06,WNW,284,0.0,6.0,67,0.00,,CLR,0.01,VWS V14.01,2013-02-15 05:15:00,
2013-02-14 23:16:00,11.6,2.8,30.06,WNW,284,1.0,6.0,67,0.00,,CLR,0.01,VWS V14.01,2013-02-15 05:16:00,
2013-02-14 23:17:00,11.6,2.8,30.06,WNW,284,1.0,6.0,67,0.00,,CLR,0.01,VWS V14.01,2013-02-15 05:17:00,
2013-02-14 23:18:00,11.4,2.9,30.06,WNW,284,1.0,6.0,68,0.00,,CLR,0.01,VWS V14.01,2013-02-15 05:18:00,
2013-02-14 23:19:00,11.4,2.9,30.06,WNW,284,3.0,6.0,68,0.00,,CLR,0.01,VWS V14.01,2013-02-15 05:19:00,
2013-02-14 23:20:00,11.4,2.9,30.06,West,281,3.0,6.0,68,0.00,,CLR,0.01,VWS V14.01,2013-02-15 05:20:00,
2013-02-14 23:21:00,11.2,2.7,30.06,West,281,1.0,6.0,68,0.00,,CLR,0.01,VWS V14.01,2013-02-15 05:21:00,
2013-02-14 23:22:00,11.2,2.7,30.06,West,278,2.0,6.0,68,0.00,,CLR,0.01,VWS V14.01,2013-02-15 05:22:00,
2013-02-14 23:23:00,11.2,2.7,30.06,NW,311,1.0,6.0,68,0.00,,CLR,0.01,VWS V14.01,2013-02-15 05:23:00,
2013-02-14 23:24:00,11.2,2.4,30.06,WNW,290,0.0,6.0,67,0.00,,CLR,0.01,VWS V14.01,2013-02-15 05:24:00,
2013-02-14 23:25:00,11.1,2.6,30.06,WNW,287,2.0,6.0,68,0.00,,CLR,0.01,VWS V14.01,2013-02-15 05:25:00,
2013-02-14 23:26:00,11.1,2.6,30.06,WNW,290,3.0,6.0,68,0.00,,CLR,0.01,VWS V14.01,2013-02-15 05:26:00,
2013-02-14 23:27:00,11.1,2.6,30.06,West,271,0.0,6.0,68,0.00,,CLR,0.01,VWS V14.01,2013-02-15 05:27:00,
2013-02-14 23:28:00,10.9,2.4,30.06,West,271,1.0,6.0,68,0.00,,CLR,0.01,VWS V14.01,2013-02-15 05:28:00,
2013-02-14 23:29:00,10.9,2.4,30.06,West,273,3.0,6.0,68,0.00,,CLR,0.01,VWS V14.01,2013-02-15 05:29:00,
2013-02-14 23:30:00,10.9,2.4,30.06,West,273,0.0,6.0,68,0.00,,CLR,0.01,VWS V14.01,2013-02-15 05:30:00,
2013-02-14 23:31:00,10.9,2.4,30.06,West,273,3.0,3.0,68,0.00,,CLR,0.01,VWS V14.01,2013-02-15 05:31:00,
2013-02-14 23:32:00,10.7,2.2,30.06,West,273,2.0,3.0,68,0.00,,CLR,0.01,VWS V14.01,2013-02-15 05:32:00,
2013-02-14 23:33:00,10.7,2.2,30.06,West,273,0.0,3.0,68,0.00,,CLR,0.01,VWS V14.01,2013-02-15 05:33:00,
2013-02-14 23:34:00,10.7,2.2,30.06,West,276,1.0,5.0,68,0.00,,CLR,0.01,VWS V14.01,2013-02-15 05:34:00,
2013-02-14 23:35:00,10.7,2.2,30.06,West,274,2.0,5.0,68,0.00,,CLR,0.01,VWS V14.01,2013-02-15 05:35:00,
2013-02-14 23:36:00,10.5,2.0,30.06,West,271,0.0,6.0,68,0.00,,CLR,0.01,VWS V14.01,2013-02-15 05:36:00,
2013-02-14 23:37:00,10.5,2.0,30.06,West,276,1.0,6.0,68,0.00,,CLR,0.01,VWS V14.01,2013-02-15 05:37:00,
2013-02-14 23:38:00,10.5,2.0,30.06,West,276,2.0,6.0,68,0.00,,CLR,0.01,VWS V14.01,2013-02-15 05:38:00,
2013-02-14 23:39:00,10.5,2.0,30.06,West,276,1.0,6.0,68,0.00,,CLR,0.01,VWS V14.01,2013-02-15 05:39:00,
2013-02-14 23:40:00,10.4,2.0,30.06,West,278,0.0,6.0,68,0.00,,CLR,0.01,VWS V14.01,2013-02-15 05:40:00,
2013-02-14 23:41:00,10.4,2.0,30.06,West,278,0.0,6.0,68,0.00,,CLR,0.01,VWS V14.01,2013-02-15 05:41:00,
2013-02-14 23:42:00,10.4,2.0,30.06,West,278,2.0,6.0,68,0.00,,CLR,0.01,VWS V14.01,2013-02-15 05:42:00,
2013-02-14 23:43:00,10.2,1.8,30.06,West,278,6.0,6.0,68,0.00,,FEW150,0.01,VWS V14.01,2013-02-15 05:43:00,
2013-02-14 23:44:00,10.2,1.8,30.06,West,278,2.0,6.0,68,0.00,,FEW150,0.01,VWS V14.01,2013-02-15 05:44:00,
2013-02-14 23:45:00,10.2,1.8,30.06,West,278,1.0,6.0,68,0.00,,FEW150,0.01,VWS V14.01,2013-02-15 05:45:00,
2013-02-14 23:46:00,10.0,1.6,30.06,West,278,0.0,6.0,68,0.00,,FEW150,0.01,VWS V14.01,2013-02-15 05:46:00,
2013-02-14 23:47:00,10.0,1.6,30.06,West,278,1.0,6.0,68,0.00,,FEW150,0.01,VWS V14.01,2013-02-15 05:47:00,
2013-02-14 23:48:00,10.0,1.6,30.06,West,280,3.0,6.0,68,0.00,,FEW150,0.01,VWS V14.01,2013-02-15 05:48:00,
2013-02-14 23:49:00,10.0,1.2,30.06,West,276,0.0,6.0,67,0.00,,FEW150,0.01,VWS V14.01,2013-02-15 05:49:00,
2013-02-14 23:50:00,9.9,1.1,30.06,West,276,2.0,6.0,67,0.00,,FEW150,0.01,VWS V14.01,2013-02-15 05:50:00,
2013-02-14 23:51:00,9.9,1.5,30.06,West,276,3.0,6.0,68,0.00,,FEW150,0.01,VWS V14.01,2013-02-15 05:51:00,
2013-02-14 23:52:00,9.9,1.5,30.06,West,276,2.0,6.0,68,0.00,,FEW150,0.01,VWS V14.01,2013-02-15 05:52:00,
2013-02-14 23:53:00,9.9,1.1,30.06,West,276,3.0,6.0,67,0.00,,FEW150,0.01,VWS V14.01,2013-02-15 05:53:00,
2013-02-14 23:54:00,9.9,1.1,30.06,West,276,2.0,6.0,67,0.00,,FEW150,0.01,VWS V14.01,2013-02-15 05:54:00,
2013-02-14 23:55:00,9.7,1.0,30.06,West,276,3.0,6.0,67,0.00,,FEW150,0.01,VWS V14.01,2013-02-15 05:55:00,
2013-02-14 23:56:00,9.7,1.0,30.06,West,276,0.0,6.0,67,0.00,,FEW150,0.01,VWS V14.01,2013-02-15 05:56:00,
2013-02-14 23:57:00,9.7,1.0,30.06,West,276,3.0,6.0,67,0.00,,FEW150,0.01,VWS V14.01,2013-02-15 05:57:00,
2013-02-14 23:58:00,9.7,1.0,30.06,West,276,1.0,6.0,67,0.00,,FEW150,0.01,VWS V14.01,2013-02-15 05:58:00,
2013-02-14 23:59:00,9.7,1.0,30.06,West,276,2.0,6.0,67,0.00,,FEW150,0.01,VWS V14.01,2013-02-15 05:59:00,